Darstellungsparameter: Aktuell verwendete Einstellungen:
Skalierung der Graphiken ... ?
xyx+y,   Skalierungsfaktor:      Skalierung: Modus: x, Faktor: 1
Darstellungszeitraum ... ?
Vom - - bis: - -   Zeitraum: 13.02.2008 - 12.05.2008
Min/Max/Avg-Anzeige ... ?
Zeige MMA aktuell
Zeige MMA Monat
Zeige MMA alles
Zeige --A aktuell
Zeige --A Monat
Zeige --A alles
Keine MMA-Anzeige
MMA:
Average (ber die Originaldaten)
MMA-Basis: 17.04.2019 - 19.05.2019
Quicknavigation für Darstellung... ?
Tage:      1T, 2T, 3T, 5T -1T -2T -3T -5T +1T +2T +3T +5T
Wochen: 1W, 2W, 3W -1W -2W -3W +1W +2W +3W
Monate: 1M, 3M, 6M -1M -3M -6M +1M +3M +6M
Jahre:    1J, 3J, 5J, 10J -1J -3J -5J -10J +1J +3J +5J +10J
Nutze für die Darstellung ... ?
Originaldaten oder Mittelwerte auf ...
Stundenbasis Tagesbasis Wochenbasis
Monatsbasis Jahresbasis      Datenbasis: Original-Daten
Darstellen als:
Statistik (Auto) Statistik J:M      Darstellung:
Zur Graphik,    zurück zur Übersicht aller Sensoren.
 
Tabellarische Datenbersicht: ?
 
Sensor: Nr:Datum:Temp:Abs-Feuchte:Windchill:Wind:
Aussen-T/F 1 13-02-2008 00:10:01 2.2 C 4.56 g/m*3 2.2 C 0 km/h
2 13-02-2008 00:22:02 2.1 C 4.53 g/m*3 2.1 C 0 km/h
3 13-02-2008 00:34:01 1.9 C 4.53 g/m*3 1.9 C 0 km/h
4 13-02-2008 00:46:01 1.8 C 4.49 g/m*3 1.8 C 0 km/h
5 13-02-2008 00:58:01 1.7 C 4.52 g/m*3 1.7 C 0 km/h
6 13-02-2008 01:10:01 1.5 C 4.46 g/m*3 1.5 C 0 km/h
7 13-02-2008 01:22:02 1.5 C 4.46 g/m*3 1.5 C 0 km/h
8 13-02-2008 01:34:01 1.3 C 4.4 g/m*3 1.3 C 0 km/h
9 13-02-2008 01:46:01 1 C 4.31 g/m*3 1 C 0 km/h
10 13-02-2008 01:58:01 1 C 4.31 g/m*3 1 C 0 km/h
11 13-02-2008 02:10:02 0.8 C 4.3 g/m*3 0.8 C 0 km/h
12 13-02-2008 02:22:01 0.6 C 4.24 g/m*3 0.6 C 0 km/h
13 13-02-2008 02:34:01 0.4 C 4.18 g/m*3 0.4 C 0 km/h
14 13-02-2008 02:47:04 0.3 C 4.16 g/m*3 0.3 C 0 km/h
15 13-02-2008 02:59:04 0.2 C 4.13 g/m*3 0.2 C 0 km/h
16 13-02-2008 03:11:04 0.1 C 4.1 g/m*3 0.1 C 0 km/h
17 13-02-2008 03:23:04 0 C 4.12 g/m*3 0 C 0 km/h
18 13-02-2008 03:35:02 -0.2 C 4.06 g/m*3 -0.2 C 0 km/h
19 13-02-2008 03:47:02 -0.4 C 4.01 g/m*3 -0.4 C 0 km/h
20 13-02-2008 03:59:02 -0.6 C 3.95 g/m*3 -0.6 C 0 km/h
21 13-02-2008 04:11:03 -1 C 3.8 g/m*3 -1 C 0 km/h
22 13-02-2008 04:23:02 -0.9 C 3.87 g/m*3 -0.9 C 0 km/h
23 13-02-2008 04:35:02 -1 C 3.84 g/m*3 -1 C 0 km/h
24 13-02-2008 04:47:02 -1 C 3.89 g/m*3 -1 C 0 km/h
25 13-02-2008 04:59:02 -1.1 C 3.86 g/m*3 -1.1 C 0 km/h
Sensor: Nr:Datum:Temp:Abs-Feuchte:Windchill:Wind:
Aussen-T/F 26 13-02-2008 05:11:02 -1.1 C 3.86 g/m*3 -1.1 C 0 km/h
27 13-02-2008 05:23:02 -1.2 C 3.88 g/m*3 -1.2 C 0 km/h
28 13-02-2008 05:35:03 -1.4 C 3.78 g/m*3 -1.4 C 0 km/h
29 13-02-2008 05:47:02 -1.4 C 3.78 g/m*3 -1.4 C 0 km/h
30 13-02-2008 05:59:02 -1.4 C 3.82 g/m*3 -1.4 C 0 km/h
31 13-02-2008 06:11:02 -1.5 C 3.8 g/m*3 -1.5 C 0 km/h
32 13-02-2008 06:23:01 -1.5 C 3.8 g/m*3 -1.5 C 0 km/h
33 13-02-2008 06:35:02 -1.4 C 3.87 g/m*3 -1.4 C 0 km/h
34 13-02-2008 06:47:01 -1.6 C 3.81 g/m*3 -1.6 C 0 km/h
35 13-02-2008 06:59:02 -1.8 C 3.76 g/m*3 -1.8 C 0 km/h
36 13-02-2008 07:11:01 -1.6 C 3.81 g/m*3 -1.6 C 0 km/h
37 13-02-2008 07:23:02 -1.7 C 3.79 g/m*3 -1.7 C 0 km/h
38 13-02-2008 07:35:01 -1.4 C 3.91 g/m*3 -1.4 C 0 km/h
39 13-02-2008 07:47:01 -1.2 C 3.97 g/m*3 -1.2 C 0 km/h
40 13-02-2008 07:59:01 -0.9 C 4.1 g/m*3 -0.9 C 0 km/h
41 13-02-2008 08:11:01 -0.7 C 4.15 g/m*3 -0.7 C 0 km/h
42 13-02-2008 08:23:02 -0.5 C 4.21 g/m*3 -0.5 C 0 km/h
43 13-02-2008 08:35:01 -0.1 C 4.38 g/m*3 -0.1 C 0 km/h
44 13-02-2008 08:47:01 0.1 C 4.44 g/m*3 0.1 C 0 km/h
45 13-02-2008 08:59:01 0.4 C 4.58 g/m*3 0.4 C 0 km/h
46 13-02-2008 09:11:01 0.6 C 4.65 g/m*3 0.6 C 0 km/h
47 13-02-2008 09:23:01 0.7 C 4.68 g/m*3 0.7 C 0 km/h
48 13-02-2008 09:35:01 0.8 C 4.66 g/m*3 0.8 C 0 km/h
49 13-02-2008 09:47:01 1 C 4.67 g/m*3 1 C 0 km/h
50 13-02-2008 09:59:01 1.1 C 4.7 g/m*3 1.1 C 0 km/h
Sensor: Nr:Datum:Temp:Abs-Feuchte:Windchill:Wind:
Aussen-T/F 51 13-02-2008 10:11:02 1.6 C 4.81 g/m*3 1.6 C 0 km/h
52 13-02-2008 10:23:01 1.8 C 4.82 g/m*3 1.8 C 0 km/h
53 13-02-2008 10:35:01 2.1 C 4.76 g/m*3 2.1 C 0 km/h
54 13-02-2008 10:47:02 2.6 C 4.86 g/m*3 2.6 C 0 km/h
55 13-02-2008 10:59:02 2.8 C 4.81 g/m*3 2.8 C 0 km/h
56 13-02-2008 11:11:03 2.8 C 4.63 g/m*3 2.8 C 0 km/h
57 13-02-2008 11:23:02 3 C 4.58 g/m*3 3 C 0 km/h
58 13-02-2008 11:35:02 3.4 C 4.64 g/m*3 3.4 C 0 km/h
59 13-02-2008 11:47:02 3.6 C 4.64 g/m*3 3.6 C 0 km/h
60 13-02-2008 11:59:02 3.7 C 4.61 g/m*3 3.7 C 0 km/h
61 13-02-2008 12:11:02 3.9 C 4.61 g/m*3 3.9 C 0 km/h
62 13-02-2008 12:23:01 4.4 C 4.64 g/m*3 4.4 C 0 km/h
63 13-02-2008 12:35:02 4.6 C 4.63 g/m*3 4.6 C 0 km/h
64 13-02-2008 12:47:02 4.7 C 4.53 g/m*3 4.7 C 0 km/h
65 13-02-2008 12:59:02 4.7 C 4.4 g/m*3 4.7 C 0 km/h
66 13-02-2008 13:11:02 4.9 C 4.46 g/m*3 4.9 C 0 km/h
67 13-02-2008 13:23:03 5.3 C 4.44 g/m*3 5.3 C 0 km/h
68 13-02-2008 13:35:02 5.6 C 4.45 g/m*3 5.6 C 0 km/h
69 13-02-2008 13:47:01 5.2 C 4.34 g/m*3 5.2 C 0 km/h
70 13-02-2008 13:59:01 5.6 C 4.52 g/m*3 5.6 C 0 km/h
71 13-02-2008 14:11:01 6.3 C 4.52 g/m*3 6.3 C 0 km/h
72 13-02-2008 14:23:02 6.7 C 4.48 g/m*3 6.7 C 0 km/h
73 13-02-2008 14:35:01 7.2 C 4.32 g/m*3 7.2 C 0 km/h
74 13-02-2008 14:47:01 7.5 C 4.32 g/m*3 7.5 C 0 km/h
75 13-02-2008 14:59:01 7.8 C 4.24 g/m*3 7.8 C 0 km/h
Sensor: Nr:Datum:Temp:Abs-Feuchte:Windchill:Wind:
Aussen-T/F 76 13-02-2008 15:11:02 8 C 4.22 g/m*3 8 C 0 km/h
77 13-02-2008 15:23:02 8.2 C 4.19 g/m*3 8.2 C 0 km/h
78 13-02-2008 15:35:01 8.2 C 4.19 g/m*3 8.2 C 0 km/h
79 13-02-2008 15:47:01 8.7 C 4.24 g/m*3 8.7 C 0 km/h
80 13-02-2008 15:59:01 8.6 C 4.21 g/m*3 8.6 C 0 km/h
81 13-02-2008 16:11:02 8.6 C 4.21 g/m*3 8.6 C 0 km/h
82 13-02-2008 16:23:01 8.4 C 4.24 g/m*3 8.4 C 0 km/h
83 13-02-2008 16:35:02 8.2 C 4.19 g/m*3 8.2 C 0 km/h
84 13-02-2008 16:47:02 7.9 C 4.19 g/m*3 7.9 C 0 km/h
85 13-02-2008 16:59:02 7.1 C 4.13 g/m*3 7.1 C 0 km/h
86 13-02-2008 17:11:02 6.4 C 4.17 g/m*3 6.4 C 0 km/h
87 13-02-2008 17:23:02 5.5 C 4.21 g/m*3 5.5 C 0 km/h
88 13-02-2008 17:35:02 4.9 C 4.25 g/m*3 4.9 C 0 km/h
89 13-02-2008 17:47:02 4.2 C 4.25 g/m*3 4.2 C 0 km/h
90 13-02-2008 17:59:02 3.8 C 4.39 g/m*3 3.8 C 0 km/h
91 13-02-2008 18:11:02 3.4 C 4.4 g/m*3 3.4 C 0 km/h
92 13-02-2008 18:23:02 3.2 C 4.46 g/m*3 3.2 C 0 km/h
93 13-02-2008 18:35:02 3 C 4.46 g/m*3 3 C 0 km/h
94 13-02-2008 18:47:01 2.7 C 4.49 g/m*3 2.7 C 0 km/h
95 13-02-2008 18:59:01 2.5 C 4.48 g/m*3 2.5 C 0 km/h
96 13-02-2008 19:11:02 2.4 C 4.45 g/m*3 2.4 C 0 km/h
97 13-02-2008 19:23:02 2.2 C 4.39 g/m*3 2.2 C 0 km/h
98 13-02-2008 19:35:01 2.1 C 4.36 g/m*3 2.1 C 0 km/h
99 13-02-2008 19:47:02 1.9 C 4.42 g/m*3 1.9 C 0 km/h
100 13-02-2008 19:59:02 1.7 C 4.36 g/m*3 1.7 C 0 km/h
Sensor: Nr:Datum:Temp:Abs-Feuchte:Windchill:Wind:
Aussen-T/F 101 13-02-2008 20:11:01 1.5 C 4.35 g/m*3 1.5 C 0 km/h
102 13-02-2008 20:23:02 1.4 C 4.32 g/m*3 1.4 C 0 km/h
103 13-02-2008 20:35:02 1.2 C 4.31 g/m*3 1.2 C 0 km/h
104 13-02-2008 20:47:02 1 C 4.26 g/m*3 1 C 0 km/h
105 13-02-2008 20:59:02 0.8 C 4.25 g/m*3 0.8 C 0 km/h
106 13-02-2008 21:11:02 0.6 C 4.24 g/m*3 0.6 C 0 km/h
107 13-02-2008 21:23:02 0.6 C 4.24 g/m*3 0.6 C 0 km/h
108 13-02-2008 21:35:02 0.4 C 4.18 g/m*3 0.4 C 0 km/h
109 13-02-2008 21:47:02 0.1 C 4.1 g/m*3 0.1 C 0 km/h
110 13-02-2008 21:59:02 0.1 C 4.1 g/m*3 0.1 C 0 km/h
111 13-02-2008 22:11:01 0 C 4.12 g/m*3 0 C 0 km/h
112 13-02-2008 22:23:02 -0.1 C 4.04 g/m*3 -0.1 C 0 km/h
113 13-02-2008 22:36:03 -0.1 C 4.09 g/m*3 -0.1 C 0 km/h
114 13-02-2008 22:48:03 -0.4 C 3.96 g/m*3 -0.4 C 0 km/h
115 13-02-2008 23:00:03 -0.4 C 4.01 g/m*3 -0.4 C 0 km/h
116 13-02-2008 23:12:03 -0.5 C 3.98 g/m*3 -0.5 C 0 km/h
117 13-02-2008 23:24:03 -0.7 C 3.92 g/m*3 -0.7 C 0 km/h
118 13-02-2008 23:36:03 -0.9 C 3.87 g/m*3 -0.9 C 0 km/h
119 13-02-2008 23:48:03 -0.9 C 3.87 g/m*3 -0.9 C 0 km/h
120 14-02-2008 00:00:03 -0.5 C 4.03 g/m*3 -0.5 C 0 km/h
121 14-02-2008 00:12:03 -0.2 C 4.16 g/m*3 -0.2 C 0 km/h
122 14-02-2008 00:24:03 0 C 4.26 g/m*3 0 C 0 km/h
123 14-02-2008 00:36:03 0 C 4.26 g/m*3 0 C 0 km/h
124 14-02-2008 00:48:03 -0.4 C 4.15 g/m*3 -0.4 C 0 km/h
125 14-02-2008 01:00:03 -0.2 C 4.25 g/m*3 -0.2 C 0 km/h
Sensor: Nr:Datum:Temp:Abs-Feuchte:Windchill:Wind:
Aussen-T/F 126 14-02-2008 01:12:03 0.1 C 4.34 g/m*3 0.1 C 0 km/h
127 14-02-2008 01:24:04 0.2 C 4.37 g/m*3 0.2 C 0 km/h
128 14-02-2008 01:36:04 -0.1 C 4.28 g/m*3 -0.1 C 0 km/h
129 14-02-2008 01:48:04 0 C 4.31 g/m*3 0 C 0 km/h
130 14-02-2008 02:00:04 0 C 4.31 g/m*3 0 C 0 km/h
131 14-02-2008 02:12:04 0 C 4.36 g/m*3 0 C 0 km/h
132 14-02-2008 02:24:04 0 C 4.36 g/m*3 0 C 0 km/h
133 14-02-2008 02:36:04 0.2 C 4.42 g/m*3 0.2 C 0 km/h
134 14-02-2008 02:48:04 0.4 C 4.53 g/m*3 0.4 C 0 km/h
135 14-02-2008 03:00:04 0.2 C 4.42 g/m*3 0.2 C 0 km/h
136 14-02-2008 03:12:04 0.1 C 4.39 g/m*3 0.1 C 0 km/h
137 14-02-2008 03:24:04 0.1 C 4.39 g/m*3 0.1 C 0 km/h
138 14-02-2008 03:36:04 0.2 C 4.47 g/m*3 0.2 C 0 km/h
139 14-02-2008 03:48:04 0.3 C 4.5 g/m*3 0.3 C 0 km/h
140 14-02-2008 04:00:04 0.3 C 4.5 g/m*3 0.3 C 0 km/h
141 14-02-2008 04:12:04 0.1 C 4.39 g/m*3 0.1 C 0 km/h
142 14-02-2008 04:24:04 -0.1 C 4.33 g/m*3 -0.1 C 0 km/h
143 14-02-2008 04:36:04 -0.1 C 4.38 g/m*3 -0.1 C 0 km/h
144 14-02-2008 04:48:04 -0.1 C 4.38 g/m*3 -0.1 C 0 km/h
145 14-02-2008 05:00:04 -0.1 C 4.43 g/m*3 -0.1 C 0 km/h
146 14-02-2008 05:12:05 0.1 C 4.49 g/m*3 0.1 C 0 km/h
147 14-02-2008 05:24:05 0.2 C 4.52 g/m*3 0.2 C 0 km/h
148 14-02-2008 05:36:05 0.2 C 4.52 g/m*3 0.2 C 0 km/h
149 14-02-2008 05:48:05 0.3 C 4.55 g/m*3 0.3 C 0 km/h
150 14-02-2008 06:00:05 0.1 C 4.49 g/m*3 0.1 C 0 km/h
Sensor: Nr:Datum:Temp:Abs-Feuchte:Windchill:Wind:
Aussen-T/F 151 14-02-2008 06:12:05 0.1 C 4.49 g/m*3 0.1 C 0 km/h
152 14-02-2008 06:24:05 0.2 C 4.52 g/m*3 0.2 C 0 km/h
153 14-02-2008 06:36:05 0.2 C 4.52 g/m*3 0.2 C 0 km/h
154 14-02-2008 06:48:05 0.1 C 4.49 g/m*3 0.1 C 0 km/h
155 14-02-2008 07:00:05 -0.2 C 4.4 g/m*3 -0.2 C 0 km/h
156 14-02-2008 07:12:05 -0.1 C 4.43 g/m*3 -0.1 C 0 km/h
157 14-02-2008 07:24:05 -0.1 C 4.47 g/m*3 -0.1 C 0 km/h
158 14-02-2008 07:36:05 0 C 4.51 g/m*3 0 C 0 km/h
159 14-02-2008 07:48:05 0.1 C 4.54 g/m*3 0.1 C 0 km/h
160 14-02-2008 08:00:05 0 C 4.51 g/m*3 0 C 0 km/h
161 14-02-2008 08:12:05 0.1 C 4.54 g/m*3 0.1 C 0 km/h
162 14-02-2008 08:24:05 0.1 C 4.54 g/m*3 0.1 C 0 km/h
163 14-02-2008 08:36:05 0 C 4.46 g/m*3 0 C 0 km/h
164 14-02-2008 08:48:05 0.2 C 4.52 g/m*3 0.2 C 0 km/h
165 14-02-2008 09:00:06 0 C 4.46 g/m*3 0 C 0 km/h
166 14-02-2008 09:12:03 0 C 4.46 g/m*3 0 C 0 km/h
167 14-02-2008 09:24:03 0 C 4.46 g/m*3 0 C 0 km/h
168 14-02-2008 09:36:02 -0.1 C 4.43 g/m*3 -0.1 C 0 km/h
169 14-02-2008 09:48:02 0 C 4.46 g/m*3 0 C 0 km/h
170 14-02-2008 10:00:02 0.2 C 4.52 g/m*3 0.2 C 0 km/h
171 14-02-2008 10:12:02 0.1 C 4.44 g/m*3 0.1 C 0 km/h
172 14-02-2008 10:24:02 0.3 C 4.5 g/m*3 0.3 C 0 km/h
173 14-02-2008 10:36:01 0.4 C 4.53 g/m*3 0.4 C 0 km/h
174 14-02-2008 10:48:01 0.3 C 4.45 g/m*3 0.3 C 0 km/h
175 14-02-2008 11:00:01 0.5 C 4.51 g/m*3 0.5 C 0 km/h
Sensor: Nr:Datum:Temp:Abs-Feuchte:Windchill:Wind:
Aussen-T/F 176 14-02-2008 11:12:02 0.7 C 4.58 g/m*3 0.7 C 0 km/h
177 14-02-2008 11:24:02 0.8 C 4.56 g/m*3 0.8 C 0 km/h
178 14-02-2008 11:36:01 1 C 4.57 g/m*3 1 C 0 km/h
179 14-02-2008 11:48:01 1 C 4.52 g/m*3 1 C 0 km/h
180 14-02-2008 12:00:01 1.2 C 4.53 g/m*3 1.2 C 0 km/h
181 14-02-2008 12:12:02 1.4 C 4.59 g/m*3 1.4 C 0 km/h
182 14-02-2008 12:24:02 1.3 C 4.45 g/m*3 1.3 C 0 km/h
183 14-02-2008 12:36:01 1.3 C 4.34 g/m*3 1.3 C 0 km/h
184 14-02-2008 12:48:02 1.5 C 4.35 g/m*3 1.5 C 0 km/h
185 14-02-2008 13:00:02 1.7 C 4.41 g/m*3 1.7 C 0 km/h
186 14-02-2008 13:12:01 1.9 C 4.42 g/m*3 1.9 C 0 km/h
187 14-02-2008 13:24:02 2 C 4.39 g/m*3 2 C 0 km/h
188 14-02-2008 13:36:02 2 C 4.33 g/m*3 2 C 0 km/h
189 14-02-2008 13:48:02 2.1 C 4.36 g/m*3 2.1 C 0 km/h
190 14-02-2008 14:00:03 2.2 C 4.39 g/m*3 2.2 C 0 km/h
191 14-02-2008 14:12:02 2.3 C 4.42 g/m*3 2.3 C 0 km/h
192 14-02-2008 14:24:02 2.3 C 4.42 g/m*3 2.3 C 0 km/h
193 14-02-2008 14:36:02 2.4 C 4.4 g/m*3 2.4 C 0 km/h
194 14-02-2008 14:48:02 2.4 C 4.4 g/m*3 2.4 C 0 km/h
195 14-02-2008 15:00:02 2.5 C 4.43 g/m*3 2.5 C 0 km/h
196 14-02-2008 15:12:01 2.3 C 4.31 g/m*3 2.3 C 0 km/h
197 14-02-2008 15:24:01 2.4 C 4.34 g/m*3 2.4 C 0 km/h
198 14-02-2008 15:36:02 2.4 C 4.34 g/m*3 2.4 C 0 km/h
199 14-02-2008 15:48:02 2.3 C 4.31 g/m*3 2.3 C 0 km/h
200 14-02-2008 16:00:02 2.3 C 4.31 g/m*3 2.3 C 0 km/h
Sensor: Nr:Datum:Temp:Abs-Feuchte:Windchill:Wind:
Aussen-T/F 201 14-02-2008 16:12:02 2.3 C 4.37 g/m*3 2.3 C 0 km/h
202 14-02-2008 16:24:02 2.3 C 4.31 g/m*3 2.3 C 0 km/h
203 14-02-2008 16:36:03 2.3 C 4.31 g/m*3 2.3 C 0 km/h
204 14-02-2008 16:48:02 2.3 C 4.31 g/m*3 2.3 C 0 km/h
205 14-02-2008 17:00:02 2.1 C 4.25 g/m*3 2.1 C 0 km/h
206 14-02-2008 17:12:02 2.1 C 4.31 g/m*3 2.1 C 0 km/h
207 14-02-2008 17:24:02 2 C 4.33 g/m*3 2 C 0 km/h
208 14-02-2008 17:36:02 2 C 4.33 g/m*3 2 C 0 km/h
209 14-02-2008 17:48:02 2.1 C 4.42 g/m*3 2.1 C 0 km/h
210 14-02-2008 18:00:02 2 C 4.39 g/m*3 2 C 0 km/h
211 14-02-2008 18:12:02 2 C 4.39 g/m*3 2 C 0 km/h
212 14-02-2008 18:24:02 2 C 4.39 g/m*3 2 C 0 km/h
213 14-02-2008 18:36:02 2 C 4.33 g/m*3 2 C 0 km/h
214 14-02-2008 18:48:02 1.8 C 4.33 g/m*3 1.8 C 0 km/h
215 14-02-2008 19:00:02 1.8 C 4.33 g/m*3 1.8 C 0 km/h
216 14-02-2008 19:12:02 1.8 C 4.33 g/m*3 1.8 C 0 km/h
217 14-02-2008 19:24:02 1.8 C 4.33 g/m*3 1.8 C 0 km/h
218 14-02-2008 19:36:02 1.8 C 4.33 g/m*3 1.8 C 0 km/h
219 14-02-2008 19:48:01 1.7 C 4.3 g/m*3 1.7 C 0 km/h
220 14-02-2008 20:00:01 1.6 C 4.27 g/m*3 1.6 C 0 km/h
221 14-02-2008 20:12:02 1.6 C 4.33 g/m*3 1.6 C 0 km/h
222 14-02-2008 20:24:02 1.6 C 4.33 g/m*3 1.6 C 0 km/h
223 14-02-2008 20:36:02 1.6 C 4.33 g/m*3 1.6 C 0 km/h
224 14-02-2008 20:48:02 1.5 C 4.3 g/m*3 1.5 C 0 km/h
225 14-02-2008 21:00:02 1.4 C 4.27 g/m*3 1.4 C 0 km/h
Sensor: Nr:Datum:Temp:Abs-Feuchte:Windchill:Wind:
Aussen-T/F 226 14-02-2008 21:12:02 1.5 C 4.3 g/m*3 1.5 C 0 km/h
227 14-02-2008 21:24:01 1.5 C 4.3 g/m*3 1.5 C 0 km/h
228 14-02-2008 21:36:02 1.4 C 4.27 g/m*3 1.4 C 0 km/h
229 14-02-2008 21:48:02 1.4 C 4.27 g/m*3 1.4 C 0 km/h
230 14-02-2008 22:00:02 1.3 C 4.24 g/m*3 1.3 C 0 km/h
231 14-02-2008 22:12:02 1.4 C 4.27 g/m*3 1.4 C 0 km/h
232 14-02-2008 22:24:02 1.4 C 4.27 g/m*3 1.4 C 0 km/h
233 14-02-2008 22:37:02 1.4 C 4.27 g/m*3 1.4 C 0 km/h
234 14-02-2008 22:49:02 1.3 C 4.29 g/m*3 1.3 C 0 km/h
235 14-02-2008 23:01:02 1.2 C 4.26 g/m*3 1.2 C 0 km/h
236 14-02-2008 23:13:02 1.2 C 4.31 g/m*3 1.2 C 0 km/h
237 14-02-2008 23:25:02 1.3 C 4.4 g/m*3 1.3 C 0 km/h
238 14-02-2008 23:37:02 1.4 C 4.43 g/m*3 1.4 C 0 km/h
239 14-02-2008 23:49:02 1.4 C 4.43 g/m*3 1.4 C 0 km/h
240 15-02-2008 00:01:02 1.4 C 4.43 g/m*3 1.4 C 0 km/h
241 15-02-2008 00:13:02 1.4 C 4.48 g/m*3 1.4 C 0 km/h
242 15-02-2008 00:25:03 1.4 C 4.48 g/m*3 1.4 C 0 km/h
243 15-02-2008 00:37:03 1.4 C 4.48 g/m*3 1.4 C 0 km/h
244 15-02-2008 00:49:03 1.4 C 4.48 g/m*3 1.4 C 0 km/h
245 15-02-2008 01:01:03 1.4 C 4.48 g/m*3 1.4 C 0 km/h
246 15-02-2008 01:13:03 1.3 C 4.45 g/m*3 1.3 C 0 km/h
247 15-02-2008 01:25:03 1.3 C 4.4 g/m*3 1.3 C 0 km/h
248 15-02-2008 01:37:03 1.2 C 4.37 g/m*3 1.2 C 0 km/h
249 15-02-2008 01:49:03 1.2 C 4.37 g/m*3 1.2 C 0 km/h
250 15-02-2008 02:01:03 1.1 C 4.34 g/m*3 1.1 C 0 km/h
Sensor: Nr:Datum:Temp:Abs-Feuchte:Windchill:Wind:
Aussen-T/F 251 15-02-2008 02:13:03 1.1 C 4.34 g/m*3 1.1 C 0 km/h
252 15-02-2008 02:25:03 1 C 4.31 g/m*3 1 C 0 km/h
253 15-02-2008 02:37:03 1.1 C 4.34 g/m*3 1.1 C 0 km/h
254 15-02-2008 02:49:03 1 C 4.26 g/m*3 1 C 0 km/h
255 15-02-2008 03:01:03 1.1 C 4.23 g/m*3 1.1 C 0 km/h
256 15-02-2008 03:13:03 1.2 C 4.16 g/m*3 1.2 C 0 km/h
257 15-02-2008 03:25:03 1.2 C 4.1 g/m*3 1.2 C 0 km/h
258 15-02-2008 03:37:03 1.2 C 4.1 g/m*3 1.2 C 0 km/h
259 15-02-2008 03:49:03 1.2 C 4.05 g/m*3 1.2 C 0 km/h
260 15-02-2008 04:01:03 1.2 C 4.05 g/m*3 1.2 C 0 km/h
261 15-02-2008 04:13:03 1.2 C 4.05 g/m*3 1.2 C 0 km/h
262 15-02-2008 04:25:03 1.3 C 4.03 g/m*3 1.3 C 0 km/h
263 15-02-2008 04:37:04 1.3 C 3.92 g/m*3 1.3 C 0 km/h
264 15-02-2008 04:49:04 1.3 C 3.87 g/m*3 1.3 C 0 km/h
265 15-02-2008 05:01:04 1.3 C 3.81 g/m*3 1.3 C 0 km/h
266 15-02-2008 05:13:04 1.3 C 3.76 g/m*3 1.3 C 0 km/h
267 15-02-2008 05:25:04 1.4 C 3.79 g/m*3 1.4 C 0 km/h
268 15-02-2008 05:37:04 1.4 C 3.73 g/m*3 1.4 C 0 km/h
269 15-02-2008 05:49:04 1.3 C 3.71 g/m*3 1.3 C 0 km/h
270 15-02-2008 06:01:04 1.3 C 3.66 g/m*3 1.3 C 0 km/h
271 15-02-2008 06:13:04 1.1 C 3.66 g/m*3 1.1 C 0 km/h
272 15-02-2008 06:25:04 1 C 3.74 g/m*3 1 C 0 km/h
273 15-02-2008 06:37:04 1 C 3.79 g/m*3 1 C 0 km/h
274 15-02-2008 06:49:04 0.9 C 3.87 g/m*3 0.9 C 0 km/h
275 15-02-2008 07:01:02 0.8 C 3.84 g/m*3 0.8 C 0 km/h
Sensor: Nr:Datum:Temp:Abs-Feuchte:Windchill:Wind:
Aussen-T/F 276 15-02-2008 07:13:02 0.8 C 3.89 g/m*3 0.8 C 0 km/h
277 15-02-2008 07:25:02 0.8 C 3.89 g/m*3 0.8 C 0 km/h
278 15-02-2008 07:37:02 0.8 C 3.89 g/m*3 0.8 C 0 km/h
279 15-02-2008 07:49:02 0.8 C 3.89 g/m*3 0.8 C 0 km/h
280 15-02-2008 08:01:02 0.9 C 3.97 g/m*3 0.9 C 0 km/h
281 15-02-2008 08:13:02 1 C 3.94 g/m*3 1 C 0 km/h
282 15-02-2008 08:25:02 1.1 C 3.97 g/m*3 1.1 C 0 km/h
283 15-02-2008 08:37:01 1.2 C 4 g/m*3 1.2 C 0 km/h
284 15-02-2008 08:49:02 1.4 C 4.05 g/m*3 1.4 C 0 km/h
285 15-02-2008 09:01:02 1.6 C 4.06 g/m*3 1.6 C 0 km/h
286 15-02-2008 09:13:02 1.9 C 4.14 g/m*3 1.9 C 0 km/h
287 15-02-2008 09:25:02 2.2 C 4.11 g/m*3 2.2 C 0 km/h
288 15-02-2008 09:37:01 2.6 C 4.11 g/m*3 2.6 C 0 km/h
289 15-02-2008 09:49:01 2.8 C 3.99 g/m*3 2.8 C 0 km/h
290 15-02-2008 10:01:02 2.9 C 3.72 g/m*3 2.9 C 0 km/h
291 15-02-2008 10:13:02 3.1 C 3.71 g/m*3 3.1 C 0 km/h
292 15-02-2008 10:25:02 3.3 C 3.64 g/m*3 3.3 C 0 km/h
293 15-02-2008 10:37:01 3.5 C 3.63 g/m*3 3.5 C 0 km/h
294 15-02-2008 10:49:01 3.7 C 3.49 g/m*3 3.7 C 0 km/h
295 15-02-2008 11:01:02 3.6 C 3.22 g/m*3 3.6 C 0 km/h
296 15-02-2008 11:13:02 3.6 C 3.22 g/m*3 3.6 C 0 km/h
297 15-02-2008 11:25:01 3.1 C 2.99 g/m*3 3.1 C 0 km/h
298 15-02-2008 11:37:01 3 C 2.97 g/m*3 3 C 0 km/h
299 15-02-2008 11:49:03 3.6 C 2.91 g/m*3 3.6 C 0 km/h
300 15-02-2008 12:01:02 3.6 C 2.79 g/m*3 3.6 C 0 km/h
Sensor: Nr:Datum:Temp:Abs-Feuchte:Windchill:Wind:
Aussen-T/F 301 15-02-2008 12:13:03 3.3 C 2.73 g/m*3 3.3 C 0 km/h
302 15-02-2008 12:25:02 3.7 C 2.87 g/m*3 3.7 C 0 km/h
303 15-02-2008 12:37:03 4.3 C 2.72 g/m*3 4.3 C 0 km/h
304 15-02-2008 12:49:02 4.8 C 2.75 g/m*3 4.8 C 0 km/h
305 15-02-2008 13:01:02 5.1 C 2.6 g/m*3 5.1 C 0 km/h
306 15-02-2008 13:13:02 5.3 C 2.43 g/m*3 5.3 C 0 km/h
307 15-02-2008 13:25:02 5.9 C 2.31 g/m*3 5.9 C 0 km/h
308 15-02-2008 13:37:02 6.7 C 2.13 g/m*3 6.7 C 0 km/h
309 15-02-2008 13:49:02 7.1 C 1.64 g/m*3 7.1 C 0 km/h
310 15-02-2008 14:01:01 7.3 C 1.58 g/m*3 7.3 C 0 km/h
311 15-02-2008 14:13:01 7.4 C 1.59 g/m*3 7.4 C 0 km/h
312 15-02-2008 14:25:01 7.9 C 1.64 g/m*3 7.9 C 0 km/h
313 15-02-2008 14:37:02 7.8 C 1.63 g/m*3 7.8 C 0 km/h
314 15-02-2008 14:49:02 8 C 1.65 g/m*3 8 C 0 km/h
315 15-02-2008 15:01:02 8 C 1.65 g/m*3 8 C 0 km/h
316 15-02-2008 15:13:02 7.9 C 1.64 g/m*3 7.9 C 0 km/h
317 15-02-2008 15:25:02 7.8 C 1.63 g/m*3 7.8 C 0 km/h
318 15-02-2008 15:37:02 7.6 C 1.61 g/m*3 7.6 C 0 km/h
319 15-02-2008 15:49:02 7.7 C 1.62 g/m*3 7.7 C 0 km/h
320 15-02-2008 16:01:02 7.4 C 1.59 g/m*3 7.4 C 0 km/h
321 15-02-2008 16:13:02 7.6 C 1.61 g/m*3 7.6 C 0 km/h
322 15-02-2008 16:25:02 7.3 C 1.58 g/m*3 7.3 C 0 km/h
323 15-02-2008 16:37:02 7.4 C 1.59 g/m*3 7.4 C 0 km/h
324 15-02-2008 16:49:01 7 C 1.55 g/m*3 7 C 0 km/h
325 15-02-2008 17:01:02 6.5 C 1.87 g/m*3 6.5 C 0 km/h
Sensor: Nr:Datum:Temp:Abs-Feuchte:Windchill:Wind:
Aussen-T/F 326 15-02-2008 17:13:02 5.6 C 1.84 g/m*3 5.6 C 0 km/h
327 15-02-2008 17:25:02 4.8 C 1.81 g/m*3 4.8 C 0 km/h
328 15-02-2008 17:37:01 4.2 C 2 g/m*3 4.2 C 0 km/h
329 15-02-2008 17:49:01 3.6 C 2.17 g/m*3 3.6 C 0 km/h
330 15-02-2008 18:01:02 3.1 C 2.21 g/m*3 3.1 C 0 km/h
331 15-02-2008 18:13:02 2.7 C 2.27 g/m*3 2.7 C 0 km/h
332 15-02-2008 18:25:01 2.4 C 2.23 g/m*3 2.4 C 0 km/h
333 15-02-2008 18:37:01 2.1 C 2.24 g/m*3 2.1 C 0 km/h
334 15-02-2008 18:49:01 1.7 C 2.29 g/m*3 1.7 C 0 km/h
335 15-02-2008 19:01:02 1.5 C 2.2 g/m*3 1.5 C 0 km/h
336 15-02-2008 19:13:02 1.2 C 2.21 g/m*3 1.2 C 0 km/h
337 15-02-2008 19:25:02 0.9 C 2.22 g/m*3 0.9 C 0 km/h
338 15-02-2008 19:37:01 0.6 C 2.27 g/m*3 0.6 C 0 km/h
339 15-02-2008 19:49:01 0.3 C 2.28 g/m*3 0.3 C 0 km/h
340 15-02-2008 20:01:02 0.3 C 2.23 g/m*3 0.3 C 0 km/h
341 15-02-2008 20:13:02 0.2 C 2.26 g/m*3 0.2 C 0 km/h
342 15-02-2008 20:25:02 0 C 2.18 g/m*3 0 C 0 km/h
343 15-02-2008 20:37:01 0.1 C 2.2 g/m*3 0.1 C 0 km/h
344 15-02-2008 20:49:01 0 C 2.23 g/m*3 0 C 0 km/h
345 15-02-2008 21:01:02 0.1 C 2.15 g/m*3 0.1 C 0 km/h
346 15-02-2008 21:13:02 -0.3 C 2.18 g/m*3 -0.3 C 0 km/h
347 15-02-2008 21:25:02 -0.4 C 2.17 g/m*3 -0.4 C 0 km/h
348 15-02-2008 21:37:01 -0.4 C 2.12 g/m*3 -0.4 C 0 km/h
349 15-02-2008 21:49:02 -0.6 C 2.18 g/m*3 -0.6 C 0 km/h
350 15-02-2008 22:01:02 -0.5 C 2.15 g/m*3 -0.5 C 0 km/h
Sensor: Nr:Datum:Temp:Abs-Feuchte:Windchill:Wind:
Aussen-T/F 351 15-02-2008 22:13:02 -0.5 C 2.11 g/m*3 -0.5 C 0 km/h
352 15-02-2008 22:26:04 -0.8 C 2.15 g/m*3 -0.8 C 0 km/h
353 15-02-2008 22:38:04 -0.9 C 2.14 g/m*3 -0.9 C 0 km/h
354 15-02-2008 22:50:04 -1.1 C 2.11 g/m*3 -1.1 C 0 km/h
355 15-02-2008 23:02:04 -1.3 C 2.12 g/m*3 -1.3 C 0 km/h
356 15-02-2008 23:14:04 -1.4 C 2.15 g/m*3 -1.4 C 0 km/h
357 15-02-2008 23:26:04 -1.5 C 2.18 g/m*3 -1.5 C 0 km/h
358 15-02-2008 23:38:04 -1.7 C 2.24 g/m*3 -1.7 C 0 km/h
359 15-02-2008 23:50:04 -1.9 C 2.21 g/m*3 -1.9 C 0 km/h
360 16-02-2008 00:02:04 -1.9 C 2.21 g/m*3 -1.9 C 0 km/h
361 16-02-2008 00:14:04 -2 C 2.19 g/m*3 -2 C 0 km/h
362 16-02-2008 00:26:04 -2 C 2.15 g/m*3 -2 C 0 km/h
363 16-02-2008 00:38:04 -2 C 2.15 g/m*3 -2 C 0 km/h
364 16-02-2008 00:50:04 -2.1 C 2.09 g/m*3 -2.1 C 0 km/h
365 16-02-2008 01:02:04 -2.2 C 2.16 g/m*3 -2.2 C 0 km/h
366 16-02-2008 01:14:04 -2.3 C 2.19 g/m*3 -2.3 C 0 km/h
367 16-02-2008 01:26:04 -2.4 C 2.25 g/m*3 -2.4 C 0 km/h
368 16-02-2008 01:38:05 -2.5 C 2.28 g/m*3 -2.5 C 0 km/h
369 16-02-2008 01:50:05 -2.6 C 2.22 g/m*3 -2.6 C 0 km/h
370 16-02-2008 02:02:05 -2.9 C 2.18 g/m*3 -2.9 C 0 km/h
371 16-02-2008 02:14:05 -3 C 2.2 g/m*3 -3 C 0 km/h
372 16-02-2008 02:26:05 -3.1 C 2.18 g/m*3 -3.1 C 0 km/h
373 16-02-2008 02:38:05 -3.1 C 2.22 g/m*3 -3.1 C 0 km/h
374 16-02-2008 02:50:05 -3.2 C 2.21 g/m*3 -3.2 C 0 km/h
375 16-02-2008 03:02:05 -3.3 C 2.19 g/m*3 -3.3 C 0 km/h
Sensor: Nr:Datum:Temp:Abs-Feuchte:Windchill:Wind:
Aussen-T/F 376 16-02-2008 03:14:05 -3.3 C 2.27 g/m*3 -3.3 C 0 km/h
377 16-02-2008 03:26:05 -3.2 C 2.32 g/m*3 -3.2 C 0 km/h
378 16-02-2008 03:38:05 -3.3 C 2.27 g/m*3 -3.3 C 0 km/h
379 16-02-2008 03:50:05 -3.4 C 2.21 g/m*3 -3.4 C 0 km/h
380 16-02-2008 04:02:05 -3.4 C 2.21 g/m*3 -3.4 C 0 km/h
381 16-02-2008 04:14:05 -3.5 C 2.2 g/m*3 -3.5 C 0 km/h
382 16-02-2008 04:26:05 -3.7 C 2.21 g/m*3 -3.7 C 0 km/h
383 16-02-2008 04:38:05 -3.7 C 2.21 g/m*3 -3.7 C 0 km/h
384 16-02-2008 04:50:05 -3.7 C 2.21 g/m*3 -3.7 C 0 km/h
385 16-02-2008 05:02:05 -3.8 C 2.15 g/m*3 -3.8 C 0 km/h
386 16-02-2008 05:14:05 -3.8 C 2.15 g/m*3 -3.8 C 0 km/h
387 16-02-2008 05:26:05 -3.8 C 2.12 g/m*3 -3.8 C 0 km/h
388 16-02-2008 05:38:05 -3.9 C 2.06 g/m*3 -3.9 C 0 km/h
389 16-02-2008 05:50:06 -3.8 C 2.08 g/m*3 -3.8 C 0 km/h
390 16-02-2008 06:02:06 -3.9 C 2.06 g/m*3 -3.9 C 0 km/h
391 16-02-2008 06:14:06 -4.1 C 2.07 g/m*3 -4.1 C 0 km/h
392 16-02-2008 06:26:06 -4.2 C 2.06 g/m*3 -4.2 C 0 km/h
393 16-02-2008 06:38:06 -4.2 C 2.06 g/m*3 -4.2 C 0 km/h
394 16-02-2008 06:50:06 -4.2 C 2.06 g/m*3 -4.2 C 0 km/h
395 16-02-2008 07:02:06 -4.2 C 2.02 g/m*3 -4.2 C 0 km/h
396 16-02-2008 07:14:06 -4.3 C 2.01 g/m*3 -4.3 C 0 km/h
397 16-02-2008 07:26:06 -4.5 C 1.98 g/m*3 -4.5 C 0 km/h
398 16-02-2008 07:38:04 -4.6 C 2 g/m*3 -4.6 C 0 km/h
399 16-02-2008 07:50:02 -4.6 C 2 g/m*3 -4.6 C 0 km/h
400 16-02-2008 08:02:02 -4.7 C 2.09 g/m*3 -4.7 C 0 km/h
Sensor: Nr:Datum:Temp:Abs-Feuchte:Windchill:Wind:
Aussen-T/F 401 16-02-2008 08:14:02 -4.9 C 2.06 g/m*3 -4.9 C 0 km/h
402 16-02-2008 08:26:02 -5 C 2.08 g/m*3 -5 C 0 km/h
403 16-02-2008 08:38:02 -4.9 C 2.13 g/m*3 -4.9 C 0 km/h
404 16-02-2008 08:50:02 -4.7 C 2.23 g/m*3 -4.7 C 0 km/h
405 16-02-2008 09:02:02 -4.8 C 2.21 g/m*3 -4.8 C 0 km/h
406 16-02-2008 09:14:02 -4.7 C 2.26 g/m*3 -4.7 C 0 km/h
407 16-02-2008 09:26:02 -4.3 C 2.29 g/m*3 -4.3 C 0 km/h
408 16-02-2008 09:38:01 -4.1 C 2.29 g/m*3 -4.1 C 0 km/h
409 16-02-2008 09:50:01 -3.9 C 2.28 g/m*3 -3.9 C 0 km/h
410 16-02-2008 10:02:02 -3.7 C 2.24 g/m*3 -3.7 C 0 km/h
411 16-02-2008 10:14:02 -3.5 C 2.24 g/m*3 -3.5 C 0 km/h
412 16-02-2008 10:26:01 -3.2 C 2.28 g/m*3 -3.2 C 0 km/h
413 16-02-2008 10:38:01 -2.6 C 2.34 g/m*3 -2.6 C 0 km/h
414 16-02-2008 10:50:02 -1.9 C 2.21 g/m*3 -1.9 C 0 km/h
415 16-02-2008 11:02:02 -1.2 C 2.01 g/m*3 -1.2 C 0 km/h
416 16-02-2008 11:14:02 -0.7 C 1.98 g/m*3 -0.7 C 0 km/h
417 16-02-2008 11:26:02 -0.2 C 1.86 g/m*3 -0.2 C 0 km/h
418 16-02-2008 11:38:01 0.1 C 1.76 g/m*3 0.1 C 0 km/h
419 16-02-2008 11:50:02 0.4 C 1.74 g/m*3 0.4 C 0 km/h
420 16-02-2008 12:02:02 0.7 C 1.83 g/m*3 0.7 C 0 km/h
421 16-02-2008 12:14:02 1.2 C 1.68 g/m*3 1.2 C 0 km/h
422 16-02-2008 12:26:01 1.6 C 1.62 g/m*3 1.6 C 0 km/h
423 16-02-2008 12:38:02 2.2 C 1.69 g/m*3 2.2 C 0 km/h
424 16-02-2008 12:50:03 2.6 C 1.45 g/m*3 2.6 C 0 km/h
425 16-02-2008 13:02:02 3 C 1.19 g/m*3 3 C 0 km/h
Sensor: Nr:Datum:Temp:Abs-Feuchte:Windchill:Wind:
Aussen-T/F 426 16-02-2008 13:14:02 3.5 C 1.23 g/m*3 3.5 C 0 km/h
427 16-02-2008 13:26:02 4 C 1.27 g/m*3 4 C 0 km/h
428 16-02-2008 13:38:02 4.3 C 1.3 g/m*3 4.3 C 0 km/h
429 16-02-2008 13:50:02 4.6 C 1.32 g/m*3 4.6 C 0 km/h
430 16-02-2008 14:02:01 5 C 1.36 g/m*3 5 C 0 km/h
431 16-02-2008 14:14:01 5.5 C 1.4 g/m*3 5.5 C 0 km/h
432 16-02-2008 14:26:01 5.8 C 1.43 g/m*3 5.8 C 0 km/h
433 16-02-2008 14:38:02 6.2 C 1.47 g/m*3 6.2 C 0 km/h
434 16-02-2008 14:50:02 6.4 C 1.49 g/m*3 6.4 C 0 km/h
435 16-02-2008 15:02:02 6.9 C 1.54 g/m*3 6.9 C 0 km/h
436 16-02-2008 15:14:02 7.3 C 1.58 g/m*3 7.3 C 0 km/h
437 16-02-2008 15:26:02 7.3 C 1.58 g/m*3 7.3 C 0 km/h
438 16-02-2008 15:38:02 7.5 C 1.6 g/m*3 7.5 C 0 km/h
439 16-02-2008 15:50:02 7.5 C 1.6 g/m*3 7.5 C 0 km/h
440 16-02-2008 16:02:02 7.4 C 1.59 g/m*3 7.4 C 0 km/h
441 16-02-2008 16:14:02 7.1 C 1.56 g/m*3 7.1 C 0 km/h
442 16-02-2008 16:26:02 6.8 C 1.53 g/m*3 6.8 C 0 km/h
443 16-02-2008 16:38:02 6.8 C 1.53 g/m*3 6.8 C 0 km/h
444 16-02-2008 16:50:02 5.9 C 1.44 g/m*3 5.9 C 0 km/h
445 16-02-2008 17:02:02 5.7 C 1.42 g/m*3 5.7 C 0 km/h
446 16-02-2008 17:14:02 4.8 C 1.34 g/m*3 4.8 C 0 km/h
447 16-02-2008 17:26:02 4.1 C 1.28 g/m*3 4.1 C 0 km/h
448 16-02-2008 17:38:02 3.2 C 1.21 g/m*3 3.2 C 0 km/h
449 16-02-2008 17:50:02 2.2 C 1.13 g/m*3 2.2 C 0 km/h
450 16-02-2008 18:02:03 1.4 C 1.33 g/m*3 1.4 C 0 km/h
Sensor: Nr:Datum:Temp:Abs-Feuchte:Windchill:Wind:
Aussen-T/F 451 16-02-2008 18:14:03 0.8 C 1.69 g/m*3 0.8 C 0 km/h
452 16-02-2008 18:26:02 0.5 C 1.65 g/m*3 0.5 C 0 km/h
453 16-02-2008 18:38:02 0.3 C 1.63 g/m*3 0.3 C 0 km/h
454 16-02-2008 18:50:02 0.2 C 1.67 g/m*3 0.2 C 0 km/h
455 16-02-2008 19:02:03 0.1 C 1.61 g/m*3 0.1 C 0 km/h
456 16-02-2008 19:14:03 0 C 1.7 g/m*3 0 C 0 km/h
457 16-02-2008 19:26:02 -0.1 C 1.78 g/m*3 -0.1 C 0 km/h
458 16-02-2008 19:38:02 -0.5 C 1.78 g/m*3 -0.5 C 0 km/h
459 16-02-2008 19:50:02 -0.6 C 1.81 g/m*3 -0.6 C 0 km/h
460 16-02-2008 20:02:02 -0.8 C 1.88 g/m*3 -0.8 C 0 km/h
461 16-02-2008 20:14:02 -0.9 C 1.91 g/m*3 -0.9 C 0 km/h
462 16-02-2008 20:26:02 -1.1 C 1.93 g/m*3 -1.1 C 0 km/h
463 16-02-2008 20:38:02 -1.3 C 1.86 g/m*3 -1.3 C 0 km/h
464 16-02-2008 20:50:02 -1.5 C 1.92 g/m*3 -1.5 C 0 km/h
465 16-02-2008 21:02:02 -1.6 C 1.95 g/m*3 -1.6 C 0 km/h
466 16-02-2008 21:14:02 -1.7 C 1.94 g/m*3 -1.7 C 0 km/h
467 16-02-2008 21:26:02 -1.9 C 1.91 g/m*3 -1.9 C 0 km/h
468 16-02-2008 21:38:02 -2 C 1.9 g/m*3 -2 C 0 km/h
469 16-02-2008 21:50:02 -2.1 C 1.93 g/m*3 -2.1 C 0 km/h
470 16-02-2008 22:02:02 -2.3 C 1.94 g/m*3 -2.3 C 0 km/h
471 16-02-2008 22:14:02 -2.4 C 1.93 g/m*3 -2.4 C 0 km/h
472 16-02-2008 22:26:02 -2.5 C 1.95 g/m*3 -2.5 C 0 km/h
473 16-02-2008 22:38:02 -2.7 C 2.01 g/m*3 -2.7 C 0 km/h
474 16-02-2008 22:50:02 -2.8 C 1.99 g/m*3 -2.8 C 0 km/h
475 16-02-2008 23:02:02 -2.9 C 2.02 g/m*3 -2.9 C 0 km/h
Sensor: Nr:Datum:Temp:Abs-Feuchte:Windchill:Wind:
Aussen-T/F 476 16-02-2008 23:14:02 -3 C 2.04 g/m*3 -3 C 0 km/h
477 16-02-2008 23:26:02 -3.2 C 2.05 g/m*3 -3.2 C 0 km/h
478 16-02-2008 23:38:02 -3.3 C 2 g/m*3 -3.3 C 0 km/h
479 16-02-2008 23:50:02 -3.4 C 1.99 g/m*3 -3.4 C 0 km/h
480 17-02-2008 00:02:02 -3.7 C 1.94 g/m*3 -3.7 C 0 km/h
481 17-02-2008 00:14:02 -3.8 C 2 g/m*3 -3.8 C 0 km/h
482 17-02-2008 00:26:02 -3.9 C 1.99 g/m*3 -3.9 C 0 km/h
483 17-02-2008 00:38:02 -4 C 1.98 g/m*3 -4 C 0 km/h
484 17-02-2008 00:51:08 -4 C 2.01 g/m*3 -4 C 0 km/h
485 17-02-2008 01:03:08 -4 C 1.98 g/m*3 -4 C 0 km/h
486 17-02-2008 01:15:08 -4.1 C 1.89 g/m*3 -4.1 C 0 km/h
487 17-02-2008 01:27:08 -4.2 C 1.91 g/m*3 -4.2 C 0 km/h
488 17-02-2008 01:39:08 -4.1 C 1.96 g/m*3 -4.1 C 0 km/h
489 17-02-2008 01:51:08 -4.4 C 1.92 g/m*3 -4.4 C 0 km/h
490 17-02-2008 02:03:08 -4.6 C 1.86 g/m*3 -4.6 C 0 km/h
491 17-02-2008 02:15:08 -4.5 C 1.91 g/m*3 -4.5 C 0 km/h
492 17-02-2008 02:27:08 -4.5 C 1.91 g/m*3 -4.5 C 0 km/h
493 17-02-2008 02:39:08 -4.8 C 1.83 g/m*3 -4.8 C 0 km/h
494 17-02-2008 02:51:09 -4.8 C 1.87 g/m*3 -4.8 C 0 km/h
495 17-02-2008 03:03:09 -4.8 C 1.9 g/m*3 -4.8 C 0 km/h
496 17-02-2008 03:15:09 -5 C 1.84 g/m*3 -5 C 0 km/h
497 17-02-2008 03:27:09 -4.9 C 1.85 g/m*3 -4.9 C 0 km/h
498 17-02-2008 03:39:09 -5.1 C 1.79 g/m*3 -5.1 C 0 km/h
499 17-02-2008 03:51:09 -5 C 1.84 g/m*3 -5 C 0 km/h
500 17-02-2008 04:03:09 -5.1 C 1.83 g/m*3 -5.1 C 0 km/h
Sensor: Nr:Datum:Temp:Abs-Feuchte:Windchill:Wind:
Aussen-T/F 501 17-02-2008 04:15:09 -5.3 C 1.8 g/m*3 -5.3 C 0 km/h
502 17-02-2008 04:27:09 -5.5 C 1.74 g/m*3 -5.5 C 0 km/h
503 17-02-2008 04:39:09 -5.6 C 1.76 g/m*3 -5.6 C 0 km/h
504 17-02-2008 04:51:09 -5.7 C 1.78 g/m*3 -5.7 C 0 km/h
505 17-02-2008 05:03:09 -5.8 C 1.74 g/m*3 -5.8 C 0 km/h
506 17-02-2008 05:15:09 -5.6 C 1.83 g/m*3 -5.6 C 0 km/h
507 17-02-2008 05:27:09 -5.6 C 1.83 g/m*3 -5.6 C 0 km/h
508 17-02-2008 05:39:09 -5.7 C 1.81 g/m*3 -5.7 C 0 km/h
509 17-02-2008 05:51:09 -5.8 C 1.8 g/m*3 -5.8 C 0 km/h
510 17-02-2008 06:03:09 -6.1 C 1.73 g/m*3 -6.1 C 0 km/h
511 17-02-2008 06:15:09 -6.2 C 1.75 g/m*3 -6.2 C 0 km/h
512 17-02-2008 06:27:09 -6.3 C 1.74 g/m*3 -6.3 C 0 km/h
513 17-02-2008 06:39:09 -6.1 C 1.82 g/m*3 -6.1 C 0 km/h
514 17-02-2008 06:51:09 -6.3 C 1.8 g/m*3 -6.3 C 0 km/h
515 17-02-2008 07:03:10 -6.3 C 1.8 g/m*3 -6.3 C 0 km/h
516 17-02-2008 07:15:10 -6.3 C 1.8 g/m*3 -6.3 C 0 km/h
517 17-02-2008 07:27:10 -6.4 C 1.78 g/m*3 -6.4 C 0 km/h
518 17-02-2008 07:39:10 -6.6 C 1.76 g/m*3 -6.6 C 0 km/h
519 17-02-2008 07:51:10 -6.7 C 1.75 g/m*3 -6.7 C 0 km/h
520 17-02-2008 08:03:10 -6.8 C 1.76 g/m*3 -6.8 C 0 km/h
521 17-02-2008 08:15:10 -6.6 C 1.82 g/m*3 -6.6 C 0 km/h
522 17-02-2008 08:27:10 -6.4 C 1.88 g/m*3 -6.4 C 0 km/h
523 17-02-2008 08:39:03 -6.3 C 1.89 g/m*3 -6.3 C 0 km/h
524 17-02-2008 08:51:02 -6.3 C 1.92 g/m*3 -6.3 C 0 km/h
525 17-02-2008 09:03:01 -6.2 C 1.94 g/m*3 -6.2 C 0 km/h
Sensor: Nr:Datum:Temp:Abs-Feuchte:Windchill:Wind:
Aussen-T/F 526 17-02-2008 09:15:01 -6.2 C 1.94 g/m*3 -6.2 C 0 km/h
527 17-02-2008 09:27:01 -6 C 1.96 g/m*3 -6 C 0 km/h
528 17-02-2008 09:39:02 -5.9 C 1.95 g/m*3 -5.9 C 0 km/h
529 17-02-2008 09:51:02 -5.7 C 1.97 g/m*3 -5.7 C 0 km/h
530 17-02-2008 10:03:02 -5.4 C 2.02 g/m*3 -5.4 C 0 km/h
531 17-02-2008 10:15:02 -5.2 C 2.01 g/m*3 -5.2 C 0 km/h
532 17-02-2008 10:27:02 -4.5 C 2.08 g/m*3 -4.5 C 0 km/h
533 17-02-2008 10:39:02 -3.4 C 2.1 g/m*3 -3.4 C 0 km/h
534 17-02-2008 10:51:02 -3 C 2.12 g/m*3 -3 C 0 km/h
535 17-02-2008 11:03:01 -2.2 C 2.16 g/m*3 -2.2 C 0 km/h
536 17-02-2008 11:15:01 -1.3 C 2.26 g/m*3 -1.3 C 0 km/h
537 17-02-2008 11:27:01 -0.9 C 2.23 g/m*3 -0.9 C 0 km/h
538 17-02-2008 11:39:02 -0.7 C 2.17 g/m*3 -0.7 C 0 km/h
539 17-02-2008 11:51:02 -0.2 C 2.15 g/m*3 -0.2 C 0 km/h
540 17-02-2008 12:03:02 0.1 C 2.2 g/m*3 0.1 C 0 km/h
541 17-02-2008 12:15:01 0.5 C 2.21 g/m*3 0.5 C 0 km/h
542 17-02-2008 12:27:01 0.8 C 2.25 g/m*3 0.8 C 0 km/h
543 17-02-2008 12:39:02 1.4 C 2.19 g/m*3 1.4 C 0 km/h
544 17-02-2008 12:51:02 2 C 2.11 g/m*3 2 C 0 km/h
545 17-02-2008 13:03:01 2.4 C 2.11 g/m*3 2.4 C 0 km/h
546 17-02-2008 13:15:01 3.1 C 2.09 g/m*3 3.1 C 0 km/h
547 17-02-2008 13:27:01 3.6 C 1.98 g/m*3 3.6 C 0 km/h
548 17-02-2008 13:39:02 4.7 C 2 g/m*3 4.7 C 0 km/h
549 17-02-2008 13:51:03 5.1 C 1.85 g/m*3 5.1 C 0 km/h
550 17-02-2008 14:03:02 5.5 C 1.9 g/m*3 5.5 C 0 km/h
Sensor: Nr:Datum:Temp:Abs-Feuchte:Windchill:Wind:
Aussen-T/F 551 17-02-2008 14:15:02 6 C 1.81 g/m*3 6 C 0 km/h
552 17-02-2008 14:27:02 6.3 C 1.85 g/m*3 6.3 C 0 km/h
553 17-02-2008 14:39:02 7.1 C 1.56 g/m*3 7.1 C 0 km/h
554 17-02-2008 14:51:02 7.3 C 1.58 g/m*3 7.3 C 0 km/h
555 17-02-2008 15:03:02 8.2 C 1.67 g/m*3 8.2 C 0 km/h
556 17-02-2008 15:15:02 7.7 C 1.62 g/m*3 7.7 C 0 km/h
557 17-02-2008 15:27:02 9 C 1.76 g/m*3 9 C 0 km/h
558 17-02-2008 15:39:02 8.2 C 1.67 g/m*3 8.2 C 0 km/h
559 17-02-2008 15:51:02 8.2 C 1.67 g/m*3 8.2 C 0 km/h
560 17-02-2008 16:03:02 7.4 C 1.59 g/m*3 7.4 C 0 km/h
561 17-02-2008 16:15:02 7.6 C 1.61 g/m*3 7.6 C 0 km/h
562 17-02-2008 16:27:02 7.4 C 1.59 g/m*3 7.4 C 0 km/h
563 17-02-2008 16:39:02 7.6 C 1.61 g/m*3 7.6 C 0 km/h
564 17-02-2008 16:51:02 7.4 C 1.59 g/m*3 7.4 C 0 km/h
565 17-02-2008 17:03:02 6.9 C 1.54 g/m*3 6.9 C 0 km/h
566 17-02-2008 17:15:02 6.1 C 1.53 g/m*3 6.1 C 0 km/h
567 17-02-2008 17:27:02 5.1 C 1.71 g/m*3 5.1 C 0 km/h
568 17-02-2008 17:39:02 4.3 C 1.88 g/m*3 4.3 C 0 km/h
569 17-02-2008 17:51:02 3.5 C 2.03 g/m*3 3.5 C 0 km/h
570 17-02-2008 18:03:01 3 C 2.08 g/m*3 3 C 0 km/h
571 17-02-2008 18:15:01 2.6 C 2.2 g/m*3 2.6 C 0 km/h
572 17-02-2008 18:27:01 2.3 C 2.27 g/m*3 2.3 C 0 km/h
573 17-02-2008 18:39:02 2 C 2.22 g/m*3 2 C 0 km/h
574 17-02-2008 18:51:02 2.1 C 2.13 g/m*3 2.1 C 0 km/h
575 17-02-2008 19:03:02 1.5 C 2.09 g/m*3 1.5 C 0 km/h
Sensor: Nr:Datum:Temp:Abs-Feuchte:Windchill:Wind:
Aussen-T/F 576 17-02-2008 19:15:02 1.1 C 2.09 g/m*3 1.1 C 0 km/h
577 17-02-2008 19:27:02 0.9 C 2.17 g/m*3 0.9 C 0 km/h
578 17-02-2008 19:39:03 0.5 C 2.21 g/m*3 0.5 C 0 km/h
579 17-02-2008 19:51:01 0.2 C 2.21 g/m*3 0.2 C 0 km/h
580 17-02-2008 20:03:02 0.1 C 2.2 g/m*3 0.1 C 0 km/h
581 17-02-2008 20:15:02 -0.2 C 2.29 g/m*3 -0.2 C 0 km/h
582 17-02-2008 20:27:02 -0.2 C 2.2 g/m*3 -0.2 C 0 km/h
583 17-02-2008 20:39:01 -0.6 C 2.14 g/m*3 -0.6 C 0 km/h
584 17-02-2008 20:51:01 -0.5 C 2.11 g/m*3 -0.5 C 0 km/h
585 17-02-2008 21:03:02 -0.7 C 2.08 g/m*3 -0.7 C 0 km/h
586 17-02-2008 21:15:02 -0.9 C 2.23 g/m*3 -0.9 C 0 km/h
587 17-02-2008 21:27:02 -1 C 2.12 g/m*3 -1 C 0 km/h
588 17-02-2008 21:39:01 -1.1 C 2.07 g/m*3 -1.1 C 0 km/h
589 17-02-2008 21:51:01 -1.2 C 2.23 g/m*3 -1.2 C 0 km/h
590 17-02-2008 22:04:04 -1.4 C 2.15 g/m*3 -1.4 C 0 km/h
591 17-02-2008 22:16:04 -1.6 C 2.21 g/m*3 -1.6 C 0 km/h
592 17-02-2008 22:28:04 -1.7 C 2.15 g/m*3 -1.7 C 0 km/h
593 17-02-2008 22:40:04 -1.9 C 2.16 g/m*3 -1.9 C 0 km/h
594 17-02-2008 22:52:04 -2.1 C 2.13 g/m*3 -2.1 C 0 km/h
595 17-02-2008 23:04:04 -2.1 C 2.13 g/m*3 -2.1 C 0 km/h
596 17-02-2008 23:16:04 -2.3 C 2.1 g/m*3 -2.3 C 0 km/h
597 17-02-2008 23:28:04 -2.3 C 2.06 g/m*3 -2.3 C 0 km/h
598 17-02-2008 23:40:04 -2.2 C 2.08 g/m*3 -2.2 C 0 km/h
599 17-02-2008 23:52:04 -2.4 C 2.05 g/m*3 -2.4 C 0 km/h
600 18-02-2008 00:04:04 -2.6 C 2.06 g/m*3 -2.6 C 0 km/h
Sensor: Nr:Datum:Temp:Abs-Feuchte:Windchill:Wind:
Aussen-T/F 601 18-02-2008 00:16:04 -2.7 C 2.09 g/m*3 -2.7 C 0 km/h
602 18-02-2008 00:28:04 -2.8 C 2.07 g/m*3 -2.8 C 0 km/h
603 18-02-2008 00:40:04 -3 C 2.08 g/m*3 -3 C 0 km/h
604 18-02-2008 00:52:04 -3.3 C 2.08 g/m*3 -3.3 C 0 km/h
605 18-02-2008 01:04:05 -3.3 C 2.08 g/m*3 -3.3 C 0 km/h
606 18-02-2008 01:16:05 -3.3 C 2.08 g/m*3 -3.3 C 0 km/h
607 18-02-2008 01:28:05 -3.5 C 2.09 g/m*3 -3.5 C 0 km/h
608 18-02-2008 01:40:05 -3.8 C 2.04 g/m*3 -3.8 C 0 km/h
609 18-02-2008 01:52:05 -3.7 C 2.09 g/m*3 -3.7 C 0 km/h
610 18-02-2008 02:04:05 -3.6 C 2.11 g/m*3 -3.6 C 0 km/h
611 18-02-2008 02:16:05 -3.8 C 2.08 g/m*3 -3.8 C 0 km/h
612 18-02-2008 02:28:05 -3.9 C 2.1 g/m*3 -3.9 C 0 km/h
613 18-02-2008 02:40:05 -3.9 C 2.1 g/m*3 -3.9 C 0 km/h
614 18-02-2008 02:52:05 -4 C 2.12 g/m*3 -4 C 0 km/h
615 18-02-2008 03:04:05 -4.1 C 2.11 g/m*3 -4.1 C 0 km/h
616 18-02-2008 03:16:05 -4.1 C 2.11 g/m*3 -4.1 C 0 km/h
617 18-02-2008 03:28:05 -4.3 C 2.08 g/m*3 -4.3 C 0 km/h
618 18-02-2008 03:40:05 -4.2 C 2.13 g/m*3 -4.2 C 0 km/h
619 18-02-2008 03:52:05 -4.6 C 2.03 g/m*3 -4.6 C 0 km/h
620 18-02-2008 04:04:05 -4.4 C 2.1 g/m*3 -4.4 C 0 km/h
621 18-02-2008 04:16:05 -4.5 C 2.08 g/m*3 -4.5 C 0 km/h
622 18-02-2008 04:28:05 -4.6 C 2.07 g/m*3 -4.6 C 0 km/h
623 18-02-2008 04:40:05 -4.7 C 2.05 g/m*3 -4.7 C 0 km/h
624 18-02-2008 04:52:05 -4.9 C 2.06 g/m*3 -4.9 C 0 km/h
625 18-02-2008 05:04:06 -4.9 C 2.13 g/m*3 -4.9 C 0 km/h
Sensor: Nr:Datum:Temp:Abs-Feuchte:Windchill:Wind:
Aussen-T/F 626 18-02-2008 05:16:06 -5.1 C 2.06 g/m*3 -5.1 C 0 km/h
627 18-02-2008 05:28:06 -5.3 C 2.03 g/m*3 -5.3 C 0 km/h
628 18-02-2008 05:40:03 -5.4 C 2.02 g/m*3 -5.4 C 0 km/h
629 18-02-2008 05:52:02 -5.3 C 2.1 g/m*3 -5.3 C 0 km/h
630 18-02-2008 06:04:02 -5.3 C 2.17 g/m*3 -5.3 C 0 km/h
631 18-02-2008 06:16:01 -5.5 C 2.13 g/m*3 -5.5 C 0 km/h
632 18-02-2008 06:28:01 -5.4 C 2.15 g/m*3 -5.4 C 0 km/h
633 18-02-2008 06:40:01 -5.6 C 2.09 g/m*3 -5.6 C 0 km/h
634 18-02-2008 06:52:01 -5.5 C 2.13 g/m*3 -5.5 C 0 km/h
635 18-02-2008 07:04:01 -5.6 C 2.12 g/m*3 -5.6 C 0 km/h
636 18-02-2008 07:16:02 -5.9 C 2.04 g/m*3 -5.9 C 0 km/h
637 18-02-2008 07:28:02 -5.8 C 2.09 g/m*3 -5.8 C 0 km/h
638 18-02-2008 07:40:02 -5.7 C 2.14 g/m*3 -5.7 C 0 km/h
639 18-02-2008 07:52:02 -5.8 C 2.12 g/m*3 -5.8 C 0 km/h
640 18-02-2008 08:04:02 -5.8 C 2.12 g/m*3 -5.8 C 0 km/h
641 18-02-2008 08:16:02 -5.7 C 2.17 g/m*3 -5.7 C 0 km/h
642 18-02-2008 08:28:02 -5.5 C 2.2 g/m*3 -5.5 C 0 km/h
643 18-02-2008 08:40:02 -5.5 C 2.17 g/m*3 -5.5 C 0 km/h
644 18-02-2008 08:52:02 -5.4 C 2.18 g/m*3 -5.4 C 0 km/h
645 18-02-2008 09:04:02 -5.3 C 2.2 g/m*3 -5.3 C 0 km/h
646 18-02-2008 09:16:01 -5 C 2.25 g/m*3 -5 C 0 km/h
647 18-02-2008 09:28:01 -4.8 C 2.28 g/m*3 -4.8 C 0 km/h
648 18-02-2008 09:40:01 -4.6 C 2.28 g/m*3 -4.6 C 0 km/h
649 18-02-2008 09:52:02 -4.3 C 2.33 g/m*3 -4.3 C 0 km/h
650 18-02-2008 10:04:02 -4 C 2.34 g/m*3 -4 C 0 km/h
Sensor: Nr:Datum:Temp:Abs-Feuchte:Windchill:Wind:
Aussen-T/F 651 18-02-2008 10:16:02 -3.8 C 2.34 g/m*3 -3.8 C 0 km/h
652 18-02-2008 10:28:02 -3.4 C 2.41 g/m*3 -3.4 C 0 km/h
653 18-02-2008 10:40:02 -2.7 C 2.53 g/m*3 -2.7 C 0 km/h
654 18-02-2008 10:52:02 -2.2 C 2.54 g/m*3 -2.2 C 0 km/h
655 18-02-2008 11:04:02 -1.7 C 2.58 g/m*3 -1.7 C 0 km/h
656 18-02-2008 11:16:02 -1.3 C 2.61 g/m*3 -1.3 C 0 km/h
657 18-02-2008 11:28:02 -0.4 C 2.64 g/m*3 -0.4 C 0 km/h
658 18-02-2008 11:40:02 0 C 2.52 g/m*3 0 C 0 km/h
659 18-02-2008 11:52:02 0.4 C 2.49 g/m*3 0.4 C 0 km/h
660 18-02-2008 12:04:02 0.9 C 2.53 g/m*3 0.9 C 0 km/h
661 18-02-2008 12:16:02 1.7 C 2.45 g/m*3 1.7 C 0 km/h
662 18-02-2008 12:28:02 2.1 C 2.46 g/m*3 2.1 C 0 km/h
663 18-02-2008 12:40:02 2.8 C 2.35 g/m*3 2.8 C 0 km/h
664 18-02-2008 12:52:02 3.8 C 2.38 g/m*3 3.8 C 0 km/h
665 18-02-2008 13:04:02 5 C 2.11 g/m*3 5 C 0 km/h
666 18-02-2008 13:16:02 5.9 C 1.95 g/m*3 5.9 C 0 km/h
667 18-02-2008 13:28:02 6.9 C 1.54 g/m*3 6.9 C 0 km/h
668 18-02-2008 13:40:02 7.3 C 1.58 g/m*3 7.3 C 0 km/h
669 18-02-2008 13:52:01 7.9 C 1.64 g/m*3 7.9 C 0 km/h
670 18-02-2008 14:04:01 8.1 C 1.66 g/m*3 8.1 C 0 km/h
671 18-02-2008 14:16:01 8.2 C 1.67 g/m*3 8.2 C 0 km/h
672 18-02-2008 14:28:01 8.7 C 1.73 g/m*3 8.7 C 0 km/h
673 18-02-2008 14:40:02 9.3 C 1.8 g/m*3 9.3 C 0 km/h
674 18-02-2008 14:52:02 9.7 C 1.84 g/m*3 9.7 C 0 km/h
675 18-02-2008 15:04:02 9.8 C 1.86 g/m*3 9.8 C 0 km/h
Sensor: Nr:Datum:Temp:Abs-Feuchte:Windchill:Wind:
Aussen-T/F 676 18-02-2008 15:16:02 10.2 C 1.9 g/m*3 10.2 C 0 km/h
677 18-02-2008 15:28:02 9.8 C 1.86 g/m*3 9.8 C 0 km/h
678 18-02-2008 15:40:02 9.6 C 1.83 g/m*3 9.6 C 0 km/h
679 18-02-2008 15:52:02 9.8 C 1.86 g/m*3 9.8 C 0 km/h
680 18-02-2008 16:04:02 10.1 C 1.89 g/m*3 10.1 C 0 km/h
681 18-02-2008 16:16:01 9.5 C 1.82 g/m*3 9.5 C 0 km/h
682 18-02-2008 16:28:01 9 C 1.76 g/m*3 9 C 0 km/h
683 18-02-2008 16:40:01 8.8 C 1.74 g/m*3 8.8 C 0 km/h
684 18-02-2008 16:52:01 8.1 C 1.66 g/m*3 8.1 C 0 km/h
685 18-02-2008 17:04:02 7.8 C 1.63 g/m*3 7.8 C 0 km/h
686 18-02-2008 17:16:02 7.2 C 1.57 g/m*3 7.2 C 0 km/h
687 18-02-2008 17:28:02 6.5 C 1.5 g/m*3 6.5 C 0 km/h
688 18-02-2008 17:40:01 5.6 C 1.41 g/m*3 5.6 C 0 km/h
689 18-02-2008 17:52:02 4.7 C 1.33 g/m*3 4.7 C 0 km/h
690 18-02-2008 18:04:02 4.2 C 1.29 g/m*3 4.2 C 0 km/h
691 18-02-2008 18:16:01 3.4 C 1.22 g/m*3 3.4 C 0 km/h
692 18-02-2008 18:28:01 2.9 C 1.18 g/m*3 2.9 C 0 km/h
693 18-02-2008 18:40:02 2.4 C 1.43 g/m*3 2.4 C 0 km/h
694 18-02-2008 18:52:02 2.2 C 1.52 g/m*3 2.2 C 0 km/h
695 18-02-2008 19:04:01 2 C 1.5 g/m*3 2 C 0 km/h
696 18-02-2008 19:16:01 1.5 C 1.61 g/m*3 1.5 C 0 km/h
697 18-02-2008 19:28:01 1.1 C 1.78 g/m*3 1.1 C 0 km/h
698 18-02-2008 19:40:01 0.8 C 1.64 g/m*3 0.8 C 0 km/h
699 18-02-2008 19:52:02 0.6 C 1.72 g/m*3 0.6 C 0 km/h
700 18-02-2008 20:04:02 0.5 C 1.5 g/m*3 0.5 C 0 km/h
Sensor: Nr:Datum:Temp:Abs-Feuchte:Windchill:Wind:
Aussen-T/F 701 18-02-2008 20:16:02 0.3 C 1.58 g/m*3 0.3 C 0 km/h
702 18-02-2008 20:28:03 0.1 C 1.56 g/m*3 0.1 C 0 km/h
703 18-02-2008 20:40:03 -0.2 C 1.58 g/m*3 -0.2 C 0 km/h
704 18-02-2008 20:52:02 -0.2 C 1.53 g/m*3 -0.2 C 0 km/h
705 18-02-2008 21:04:02 -0.2 C 1.58 g/m*3 -0.2 C 0 km/h
706 18-02-2008 21:16:02 -0.6 C 1.63 g/m*3 -0.6 C 0 km/h
707 18-02-2008 21:28:02 -0.8 C 1.7 g/m*3 -0.8 C 0 km/h
708 18-02-2008 21:40:03 -1 C 1.81 g/m*3 -1 C 0 km/h
709 18-02-2008 21:52:01 -1.2 C 1.83 g/m*3 -1.2 C 0 km/h
710 18-02-2008 22:04:02 -1.3 C 1.86 g/m*3 -1.3 C 0 km/h
711 18-02-2008 22:16:02 -1.3 C 1.9 g/m*3 -1.3 C 0 km/h
712 18-02-2008 22:28:02 -1.5 C 1.88 g/m*3 -1.5 C 0 km/h
713 18-02-2008 22:40:02 -1.6 C 1.78 g/m*3 -1.6 C 0 km/h
714 18-02-2008 22:52:02 -1.8 C 1.71 g/m*3 -1.8 C 0 km/h
715 18-02-2008 23:04:02 -1.8 C 1.75 g/m*3 -1.8 C 0 km/h
716 18-02-2008 23:16:02 -1.9 C 1.7 g/m*3 -1.9 C 0 km/h
717 18-02-2008 23:28:02 -2.1 C 1.67 g/m*3 -2.1 C 0 km/h
718 18-02-2008 23:40:02 -2.3 C 1.65 g/m*3 -2.3 C 0 km/h
719 18-02-2008 23:52:02 -2.3 C 1.69 g/m*3 -2.3 C 0 km/h
720 19-02-2008 00:04:02 -2.4 C 1.68 g/m*3 -2.4 C 0 km/h
721 19-02-2008 00:16:02 -2.4 C 1.72 g/m*3 -2.4 C 0 km/h
722 19-02-2008 00:28:02 -2.5 C 1.75 g/m*3 -2.5 C 0 km/h
723 19-02-2008 00:40:02 -2.6 C 1.74 g/m*3 -2.6 C 0 km/h
724 19-02-2008 00:52:02 -2.7 C 1.77 g/m*3 -2.7 C 0 km/h
725 19-02-2008 01:04:02 -2.4 C 1.84 g/m*3 -2.4 C 0 km/h
Sensor: Nr:Datum:Temp:Abs-Feuchte:Windchill:Wind:
Aussen-T/F 726 19-02-2008 01:16:03 -2.4 C 1.84 g/m*3 -2.4 C 0 km/h
727 19-02-2008 01:28:03 -2.6 C 1.82 g/m*3 -2.6 C 0 km/h
728 19-02-2008 01:40:03 -2.8 C 1.79 g/m*3 -2.8 C 0 km/h
729 19-02-2008 01:52:03 -3.1 C 1.79 g/m*3 -3.1 C 0 km/h
730 19-02-2008 02:04:03 -3.1 C 1.79 g/m*3 -3.1 C 0 km/h
731 19-02-2008 02:16:03 -3.1 C 1.83 g/m*3 -3.1 C 0 km/h
732 19-02-2008 02:28:03 -3.2 C 1.82 g/m*3 -3.2 C 0 km/h
733 19-02-2008 02:40:03 -3.3 C 1.81 g/m*3 -3.3 C 0 km/h
734 19-02-2008 02:52:03 -3.4 C 1.83 g/m*3 -3.4 C 0 km/h
735 19-02-2008 03:04:03 -3.5 C 1.82 g/m*3 -3.5 C 0 km/h
736 19-02-2008 03:16:03 -3.7 C 1.79 g/m*3 -3.7 C 0 km/h
737 19-02-2008 03:28:03 -3.8 C 1.82 g/m*3 -3.8 C 0 km/h
738 19-02-2008 03:40:03 -4 C 1.83 g/m*3 -4 C 0 km/h
739 19-02-2008 03:52:03 -4.1 C 1.82 g/m*3 -4.1 C 0 km/h
740 19-02-2008 04:04:03 -4.1 C 1.82 g/m*3 -4.1 C 0 km/h
741 19-02-2008 04:16:03 -4.1 C 1.89 g/m*3 -4.1 C 0 km/h
742 19-02-2008 04:28:03 -4.2 C 1.88 g/m*3 -4.2 C 0 km/h
743 19-02-2008 04:40:03 -4.2 C 1.91 g/m*3 -4.2 C 0 km/h
744 19-02-2008 04:52:03 -4.4 C 1.88 g/m*3 -4.4 C 0 km/h
745 19-02-2008 05:04:03 -4.4 C 1.88 g/m*3 -4.4 C 0 km/h
746 19-02-2008 05:16:01 -4.4 C 1.92 g/m*3 -4.4 C 0 km/h
747 19-02-2008 05:28:01 -4.4 C 1.92 g/m*3 -4.4 C 0 km/h
748 19-02-2008 05:40:02 -4.5 C 1.94 g/m*3 -4.5 C 0 km/h
749 19-02-2008 05:52:01 -4.6 C 1.93 g/m*3 -4.6 C 0 km/h
750 19-02-2008 06:04:02 -4.7 C 1.91 g/m*3 -4.7 C 0 km/h
Sensor: Nr:Datum:Temp:Abs-Feuchte:Windchill:Wind:
Aussen-T/F 751 19-02-2008 06:16:01 -4.9 C 1.89 g/m*3 -4.9 C 0 km/h
752 19-02-2008 06:28:01 -4.9 C 1.95 g/m*3 -4.9 C 0 km/h
753 19-02-2008 06:40:01 -4.7 C 2.05 g/m*3 -4.7 C 0 km/h
754 19-02-2008 06:52:01 -5 C 1.97 g/m*3 -5 C 0 km/h
755 19-02-2008 07:04:02 -5.1 C 1.96 g/m*3 -5.1 C 0 km/h
756 19-02-2008 07:16:01 -5 C 1.97 g/m*3 -5 C 0 km/h
757 19-02-2008 07:28:01 -5 C 1.97 g/m*3 -5 C 0 km/h
758 19-02-2008 07:40:01 -5.2 C 1.95 g/m*3 -5.2 C 0 km/h
759 19-02-2008 07:52:01 -5.1 C 1.99 g/m*3 -5.1 C 0 km/h
760 19-02-2008 08:04:02 -5.1 C 2.03 g/m*3 -5.1 C 0 km/h
761 19-02-2008 08:16:01 -5.1 C 2.03 g/m*3 -5.1 C 0 km/h
762 19-02-2008 08:28:01 -5 C 2.04 g/m*3 -5 C 0 km/h
763 19-02-2008 08:40:01 -5 C 2.04 g/m*3 -5 C 0 km/h
764 19-02-2008 08:52:01 -4.7 C 2.09 g/m*3 -4.7 C 0 km/h
765 19-02-2008 09:04:02 -4.6 C 2.1 g/m*3 -4.6 C 0 km/h
766 19-02-2008 09:16:01 -4.5 C 2.12 g/m*3 -4.5 C 0 km/h
767 19-02-2008 09:28:02 -4.2 C 2.13 g/m*3 -4.2 C 0 km/h
768 19-02-2008 09:40:01 -4.1 C 2.11 g/m*3 -4.1 C 0 km/h
769 19-02-2008 09:52:01 -3.9 C 2.1 g/m*3 -3.9 C 0 km/h
770 19-02-2008 10:04:01 -3.7 C 2.13 g/m*3 -3.7 C 0 km/h
771 19-02-2008 10:16:02 -3.4 C 2.18 g/m*3 -3.4 C 0 km/h
772 19-02-2008 10:28:02 -2.8 C 2.19 g/m*3 -2.8 C 0 km/h
773 19-02-2008 10:40:02 -2.2 C 2.24 g/m*3 -2.2 C 0 km/h
774 19-02-2008 10:52:02 -1.6 C 2.21 g/m*3 -1.6 C 0 km/h
775 19-02-2008 11:04:01 -1.1 C 2.24 g/m*3 -1.1 C 0 km/h
Sensor: Nr:Datum:Temp:Abs-Feuchte:Windchill:Wind:
Aussen-T/F 776 19-02-2008 11:16:01 -0.5 C 2.34 g/m*3 -0.5 C 0 km/h
777 19-02-2008 11:28:01 0.2 C 2.46 g/m*3 0.2 C 0 km/h
778 19-02-2008 11:40:02 0.8 C 2.51 g/m*3 0.8 C 0 km/h
779 19-02-2008 11:52:02 1.8 C 2.52 g/m*3 1.8 C 0 km/h
780 19-02-2008 12:04:01 1.9 C 2.54 g/m*3 1.9 C 0 km/h
781 19-02-2008 12:16:01 2.3 C 2.55 g/m*3 2.3 C 0 km/h
782 19-02-2008 12:28:01 2.9 C 2.66 g/m*3 2.9 C 0 km/h
783 19-02-2008 12:40:01 3.7 C 2.68 g/m*3 3.7 C 0 km/h
784 19-02-2008 12:52:01 4.4 C 2.74 g/m*3 4.4 C 0 km/h
785 19-02-2008 13:04:02 5.1 C 2.67 g/m*3 5.1 C 0 km/h
786 19-02-2008 13:16:01 5.7 C 2.63 g/m*3 5.7 C 0 km/h
787 19-02-2008 13:28:01 6.9 C 2.62 g/m*3 6.9 C 0 km/h
788 19-02-2008 13:40:01 7.6 C 2.58 g/m*3 7.6 C 0 km/h
789 19-02-2008 13:52:01 8.1 C 2.58 g/m*3 8.1 C 0 km/h
790 19-02-2008 14:04:02 8.7 C 2.59 g/m*3 8.7 C 0 km/h
791 19-02-2008 14:17:01 9.2 C 2.5 g/m*3 9.2 C 0 km/h
792 19-02-2008 14:29:01 9.6 C 2.47 g/m*3 9.6 C 0 km/h
793 19-02-2008 14:40:02 10.1 C 2.46 g/m*3 10.1 C 0 km/h
794 19-02-2008 14:52:02 10.1 C 2.36 g/m*3 10.1 C 0 km/h
795 19-02-2008 15:04:01 10.6 C 2.54 g/m*3 10.6 C 0 km/h
796 19-02-2008 15:17:01 11 C 2.5 g/m*3 11 C 0 km/h
797 19-02-2008 15:29:01 11.4 C 2.57 g/m*3 11.4 C 0 km/h
798 19-02-2008 15:40:02 11.3 C 2.55 g/m*3 11.3 C 0 km/h
799 19-02-2008 15:52:02 11.1 C 2.52 g/m*3 11.1 C 0 km/h
800 19-02-2008 16:04:02 10.9 C 2.49 g/m*3 10.9 C 0 km/h
Sensor: Nr:Datum:Temp:Abs-Feuchte:Windchill:Wind:
Aussen-T/F 801 19-02-2008 16:17:01 11 C 2.6 g/m*3 11 C 0 km/h
802 19-02-2008 16:28:01 11.6 C 2.7 g/m*3 11.6 C 0 km/h
803 19-02-2008 16:41:01 11.7 C 2.72 g/m*3 11.7 C 0 km/h
804 19-02-2008 16:53:01 11.2 C 2.53 g/m*3 11.2 C 0 km/h
805 19-02-2008 17:04:02 11.2 C 2.74 g/m*3 11.2 C 0 km/h
806 19-02-2008 17:17:01 10.7 C 2.75 g/m*3 10.7 C 0 km/h
807 19-02-2008 17:29:01 9.6 C 2.75 g/m*3 9.6 C 0 km/h
808 19-02-2008 17:41:01 8.6 C 2.92 g/m*3 8.6 C 0 km/h
809 19-02-2008 17:53:01 7.2 C 2.9 g/m*3 7.2 C 0 km/h
810 19-02-2008 18:05:01 6.6 C 3.02 g/m*3 6.6 C 0 km/h
811 19-02-2008 18:17:01 5.6 C 3.04 g/m*3 5.6 C 0 km/h
812 19-02-2008 18:29:01 5 C 3.06 g/m*3 5 C 0 km/h
813 19-02-2008 18:40:02 4.7 C 3.2 g/m*3 4.7 C 0 km/h
814 19-02-2008 18:53:01 4.5 C 3.29 g/m*3 4.5 C 0 km/h
815 19-02-2008 19:05:02 4.3 C 3.37 g/m*3 4.3 C 0 km/h
816 19-02-2008 19:17:01 3.8 C 3.39 g/m*3 3.8 C 0 km/h
817 19-02-2008 19:29:01 3.5 C 3.44 g/m*3 3.5 C 0 km/h
818 19-02-2008 19:41:01 3.3 C 3.52 g/m*3 3.3 C 0 km/h
819 19-02-2008 19:53:01 3 C 3.51 g/m*3 3 C 0 km/h
820 19-02-2008 20:05:02 2.7 C 3.5 g/m*3 2.7 C 0 km/h
821 19-02-2008 20:17:01 2.5 C 3.51 g/m*3 2.5 C 0 km/h
822 19-02-2008 20:29:01 2.4 C 3.54 g/m*3 2.4 C 0 km/h
823 19-02-2008 20:41:01 2.1 C 3.52 g/m*3 2.1 C 0 km/h
824 19-02-2008 20:53:01 1.8 C 3.51 g/m*3 1.8 C 0 km/h
825 19-02-2008 21:05:01 1.6 C 3.51 g/m*3 1.6 C 0 km/h
Sensor: Nr:Datum:Temp:Abs-Feuchte:Windchill:Wind:
Aussen-T/F 826 19-02-2008 21:17:01 1.3 C 3.44 g/m*3 1.3 C 0 km/h
827 19-02-2008 21:29:01 1.1 C 3.4 g/m*3 1.1 C 0 km/h
828 19-02-2008 21:41:02 1 C 3.43 g/m*3 1 C 0 km/h
829 19-02-2008 21:53:51 0.7 C 3.41 g/m*3 0.7 C 0 km/h
830 19-02-2008 22:05:52 0.4 C 3.34 g/m*3 0.4 C 0 km/h
831 19-02-2008 22:17:52 0.4 C 3.39 g/m*3 0.4 C 0 km/h
832 19-02-2008 22:29:52 0.2 C 3.39 g/m*3 0.2 C 0 km/h
833 19-02-2008 22:41:52 0.1 C 3.42 g/m*3 0.1 C 0 km/h
834 19-02-2008 22:53:52 -0.1 C 3.42 g/m*3 -0.1 C 0 km/h
835 19-02-2008 23:05:52 -0.2 C 3.44 g/m*3 -0.2 C 0 km/h
836 19-02-2008 23:17:52 -0.4 C 3.39 g/m*3 -0.4 C 0 km/h
837 19-02-2008 23:29:52 -0.6 C 3.35 g/m*3 -0.6 C 0 km/h
838 19-02-2008 23:41:52 -0.6 C 3.39 g/m*3 -0.6 C 0 km/h
839 19-02-2008 23:53:52 -0.9 C 3.32 g/m*3 -0.9 C 0 km/h
840 20-02-2008 00:05:52 -1 C 3.35 g/m*3 -1 C 0 km/h
841 20-02-2008 00:17:52 -1.1 C 3.32 g/m*3 -1.1 C 0 km/h
842 20-02-2008 00:29:52 -1.2 C 3.3 g/m*3 -1.2 C 0 km/h
843 20-02-2008 00:41:52 -1.2 C 3.3 g/m*3 -1.2 C 0 km/h
844 20-02-2008 00:53:52 -1.3 C 3.28 g/m*3 -1.3 C 0 km/h
845 20-02-2008 01:05:52 -1.4 C 3.25 g/m*3 -1.4 C 0 km/h
846 20-02-2008 01:17:52 -1.7 C 3.19 g/m*3 -1.7 C 0 km/h
847 20-02-2008 01:29:53 -1.7 C 3.23 g/m*3 -1.7 C 0 km/h
848 20-02-2008 01:41:53 -1.8 C 3.21 g/m*3 -1.8 C 0 km/h
849 20-02-2008 01:53:53 -1.8 C 3.25 g/m*3 -1.8 C 0 km/h
850 20-02-2008 02:05:53 -1.8 C 3.25 g/m*3 -1.8 C 0 km/h
Sensor: Nr:Datum:Temp:Abs-Feuchte:Windchill:Wind:
Aussen-T/F 851 20-02-2008 02:17:53 -1.9 C 3.27 g/m*3 -1.9 C 0 km/h
852 20-02-2008 02:29:53 -2 C 3.25 g/m*3 -2 C 0 km/h
853 20-02-2008 02:41:53 -2.1 C 3.22 g/m*3 -2.1 C 0 km/h
854 20-02-2008 02:53:53 -2.3 C 3.18 g/m*3 -2.3 C 0 km/h
855 20-02-2008 03:05:53 -2.5 C 3.13 g/m*3 -2.5 C 0 km/h
856 20-02-2008 03:17:53 -2.5 C 3.13 g/m*3 -2.5 C 0 km/h
857 20-02-2008 03:29:53 -2.5 C 3.13 g/m*3 -2.5 C 0 km/h
858 20-02-2008 03:41:53 -2.7 C 3.09 g/m*3 -2.7 C 0 km/h
859 20-02-2008 03:53:53 -2.7 C 3.13 g/m*3 -2.7 C 0 km/h
860 20-02-2008 04:05:53 -2.6 C 3.15 g/m*3 -2.6 C 0 km/h
861 20-02-2008 04:17:53 -2.7 C 3.13 g/m*3 -2.7 C 0 km/h
862 20-02-2008 04:29:53 -2.7 C 3.17 g/m*3 -2.7 C 0 km/h
863 20-02-2008 04:41:53 -2.3 C 3.3 g/m*3 -2.3 C 0 km/h
864 20-02-2008 04:53:53 -2.1 C 3.35 g/m*3 -2.1 C 0 km/h
865 20-02-2008 05:05:54 -2.1 C 3.31 g/m*3 -2.1 C 0 km/h
866 20-02-2008 05:17:54 -1.9 C 3.35 g/m*3 -1.9 C 0 km/h
867 20-02-2008 05:29:54 -1.7 C 3.36 g/m*3 -1.7 C 0 km/h
868 20-02-2008 05:41:54 -1.6 C 3.34 g/m*3 -1.6 C 0 km/h
869 20-02-2008 05:53:54 -1.5 C 3.32 g/m*3 -1.5 C 0 km/h
870 20-02-2008 06:05:54 -1.5 C 3.27 g/m*3 -1.5 C 0 km/h
871 20-02-2008 06:17:54 -1.4 C 3.3 g/m*3 -1.4 C 0 km/h
872 20-02-2008 06:29:54 -1.4 C 3.25 g/m*3 -1.4 C 0 km/h
873 20-02-2008 06:41:54 -1.3 C 3.28 g/m*3 -1.3 C 0 km/h
874 20-02-2008 06:53:54 -1.2 C 3.3 g/m*3 -1.2 C 0 km/h
875 20-02-2008 07:05:02 -1.1 C 3.32 g/m*3 -1.1 C 0 km/h
Sensor: Nr:Datum:Temp:Abs-Feuchte:Windchill:Wind:
Aussen-T/F 876 20-02-2008 07:17:02 -1 C 3.3 g/m*3 -1 C 0 km/h
877 20-02-2008 07:29:02 -0.9 C 3.37 g/m*3 -0.9 C 0 km/h
878 20-02-2008 07:41:02 -0.8 C 3.35 g/m*3 -0.8 C 0 km/h
879 20-02-2008 07:53:02 -0.7 C 3.42 g/m*3 -0.7 C 0 km/h
880 20-02-2008 08:05:01 -0.7 C 3.42 g/m*3 -0.7 C 0 km/h
881 20-02-2008 08:17:02 -0.7 C 3.42 g/m*3 -0.7 C 0 km/h
882 20-02-2008 08:29:02 -0.5 C 3.46 g/m*3 -0.5 C 0 km/h
883 20-02-2008 08:41:02 -0.4 C 3.49 g/m*3 -0.4 C 0 km/h
884 20-02-2008 08:53:02 -0.3 C 3.56 g/m*3 -0.3 C 0 km/h
885 20-02-2008 09:05:02 -0.1 C 3.56 g/m*3 -0.1 C 0 km/h
886 20-02-2008 09:17:02 0 C 3.59 g/m*3 0 C 0 km/h
887 20-02-2008 09:29:02 0.4 C 3.69 g/m*3 0.4 C 0 km/h
888 20-02-2008 09:41:02 0.6 C 3.74 g/m*3 0.6 C 0 km/h
889 20-02-2008 09:53:02 0.6 C 3.74 g/m*3 0.6 C 0 km/h
890 20-02-2008 10:05:02 0.6 C 3.74 g/m*3 0.6 C 0 km/h
891 20-02-2008 10:17:02 0.8 C 3.84 g/m*3 0.8 C 0 km/h
892 20-02-2008 10:29:02 1.1 C 3.87 g/m*3 1.1 C 0 km/h
893 20-02-2008 10:41:03 1.3 C 4.03 g/m*3 1.3 C 0 km/h
894 20-02-2008 10:53:02 1.6 C 4.16 g/m*3 1.6 C 0 km/h
895 20-02-2008 11:05:02 2.1 C 4.36 g/m*3 2.1 C 0 km/h
896 20-02-2008 11:17:02 2.2 C 4.45 g/m*3 2.2 C 0 km/h
897 20-02-2008 11:29:02 2.3 C 4.54 g/m*3 2.3 C 0 km/h
898 20-02-2008 11:41:02 2.9 C 4.96 g/m*3 2.9 C 0 km/h
899 20-02-2008 11:53:01 3.1 C 5.03 g/m*3 3.1 C 0 km/h
900 20-02-2008 12:05:01 3.3 C 5.16 g/m*3 3.3 C 0 km/h
Sensor: Nr:Datum:Temp:Abs-Feuchte:Windchill:Wind:
Aussen-T/F 901 20-02-2008 12:17:02 3.3 C 5.16 g/m*3 3.3 C 0 km/h
902 20-02-2008 12:29:02 3.2 C 5.12 g/m*3 3.2 C 0 km/h
903 20-02-2008 12:41:02 3.3 C 5.16 g/m*3 3.3 C 0 km/h
904 20-02-2008 12:53:02 3.4 C 5.19 g/m*3 3.4 C 0 km/h
905 20-02-2008 13:05:02 3.7 C 5.36 g/m*3 3.7 C 0 km/h
906 20-02-2008 13:17:01 3.9 C 5.43 g/m*3 3.9 C 0 km/h
907 20-02-2008 13:29:01 4.2 C 5.48 g/m*3 4.2 C 0 km/h
908 20-02-2008 13:41:02 4.3 C 5.45 g/m*3 4.3 C 0 km/h
909 20-02-2008 13:53:01 4.1 C 5.38 g/m*3 4.1 C 0 km/h
910 20-02-2008 14:05:02 4 C 5.34 g/m*3 4 C 0 km/h
911 20-02-2008 14:17:02 3.9 C 5.43 g/m*3 3.9 C 0 km/h
912 20-02-2008 14:29:02 3.9 C 5.43 g/m*3 3.9 C 0 km/h
913 20-02-2008 14:41:02 3.9 C 5.43 g/m*3 3.9 C 0 km/h
914 20-02-2008 14:53:02 3.9 C 5.49 g/m*3 3.9 C 0 km/h
915 20-02-2008 15:05:02 4 C 5.47 g/m*3 4 C 0 km/h
916 20-02-2008 15:17:02 4.2 C 5.54 g/m*3 4.2 C 0 km/h
917 20-02-2008 15:29:02 4.2 C 5.61 g/m*3 4.2 C 0 km/h
918 20-02-2008 15:41:02 4 C 5.53 g/m*3 4 C 0 km/h
919 20-02-2008 15:53:02 4 C 5.53 g/m*3 4 C 0 km/h
920 20-02-2008 16:05:02 3.9 C 5.56 g/m*3 3.9 C 0 km/h
921 20-02-2008 16:17:02 3.8 C 5.52 g/m*3 3.8 C 0 km/h
922 20-02-2008 16:29:02 3.8 C 5.52 g/m*3 3.8 C 0 km/h
923 20-02-2008 16:41:01 3.8 C 5.52 g/m*3 3.8 C 0 km/h
924 20-02-2008 16:53:01 3.9 C 5.62 g/m*3 3.9 C 0 km/h
925 20-02-2008 17:05:02 4 C 5.66 g/m*3 4 C 0 km/h
Sensor: Nr:Datum:Temp:Abs-Feuchte:Windchill:Wind:
Aussen-T/F 926 20-02-2008 17:17:02 4 C 5.66 g/m*3 4 C 0 km/h
927 20-02-2008 17:29:02 4.2 C 5.8 g/m*3 4.2 C 0 km/h
928 20-02-2008 17:41:02 4.2 C 5.86 g/m*3 4.2 C 0 km/h
929 20-02-2008 17:53:02 4 C 5.79 g/m*3 4 C 0 km/h
930 20-02-2008 18:05:02 4 C 5.79 g/m*3 4 C 0 km/h
931 20-02-2008 18:17:01 4.2 C 5.86 g/m*3 4.2 C 0 km/h
932 20-02-2008 18:29:01 4.2 C 5.93 g/m*3 4.2 C 0 km/h
933 20-02-2008 18:41:01 4.2 C 5.93 g/m*3 4.2 C 0 km/h
934 20-02-2008 18:53:01 4.3 C 5.97 g/m*3 4.3 C 0 km/h
935 20-02-2008 19:05:02 4.8 C 6.24 g/m*3 4.8 C 0 km/h
936 20-02-2008 19:17:02 4.9 C 6.28 g/m*3 4.9 C 0 km/h
937 20-02-2008 19:29:02 5.1 C 6.29 g/m*3 5.1 C 0 km/h
938 20-02-2008 19:41:02 5.1 C 6.29 g/m*3 5.1 C 0 km/h
939 20-02-2008 19:53:02 5.2 C 6.27 g/m*3 5.2 C 0 km/h
940 20-02-2008 20:05:02 5.1 C 6.22 g/m*3 5.1 C 0 km/h
941 20-02-2008 20:17:02 5.3 C 6.31 g/m*3 5.3 C 0 km/h
942 20-02-2008 20:29:02 5.4 C 6.35 g/m*3 5.4 C 0 km/h
943 20-02-2008 20:41:02 5.4 C 6.35 g/m*3 5.4 C 0 km/h
944 20-02-2008 20:53:01 5.4 C 6.35 g/m*3 5.4 C 0 km/h
945 20-02-2008 21:05:02 5.2 C 6.2 g/m*3 5.2 C 0 km/h
946 20-02-2008 21:17:02 4.9 C 6.14 g/m*3 4.9 C 0 km/h
947 20-02-2008 21:29:02 4.7 C 6.06 g/m*3 4.7 C 0 km/h
948 20-02-2008 21:41:02 4.5 C 5.98 g/m*3 4.5 C 0 km/h
949 20-02-2008 21:53:02 4.4 C 6.01 g/m*3 4.4 C 0 km/h
950 20-02-2008 22:05:02 4.4 C 6.01 g/m*3 4.4 C 0 km/h
Sensor: Nr:Datum:Temp:Abs-Feuchte:Windchill:Wind:
Aussen-T/F 951 20-02-2008 22:17:02 4.4 C 6.07 g/m*3 4.4 C 0 km/h
952 20-02-2008 22:29:02 4.1 C 5.95 g/m*3 4.1 C 0 km/h
953 20-02-2008 22:41:01 4.1 C 5.95 g/m*3 4.1 C 0 km/h
954 20-02-2008 22:53:01 3.8 C 5.9 g/m*3 3.8 C 0 km/h
955 20-02-2008 23:05:01 3.7 C 5.86 g/m*3 3.7 C 0 km/h
956 20-02-2008 23:17:01 3.6 C 5.82 g/m*3 3.6 C 0 km/h
957 20-02-2008 23:29:02 3.4 C 5.8 g/m*3 3.4 C 0 km/h
958 20-02-2008 23:41:02 3.4 C 5.8 g/m*3 3.4 C 0 km/h
959 20-02-2008 23:53:02 3.3 C 5.76 g/m*3 3.3 C 0 km/h
960 21-02-2008 00:05:02 3.4 C 5.8 g/m*3 3.4 C 0 km/h
961 21-02-2008 00:17:02 3.2 C 5.72 g/m*3 3.2 C 0 km/h
962 21-02-2008 00:29:02 3 C 5.65 g/m*3 3 C 0 km/h
963 21-02-2008 00:41:02 2.7 C 5.54 g/m*3 2.7 C 0 km/h
964 21-02-2008 00:53:02 2.6 C 5.5 g/m*3 2.6 C 0 km/h
965 21-02-2008 01:05:02 2.4 C 5.42 g/m*3 2.4 C 0 km/h
966 21-02-2008 01:17:02 2.2 C 5.35 g/m*3 2.2 C 0 km/h
967 21-02-2008 01:29:02 2 C 5.28 g/m*3 2 C 0 km/h
968 21-02-2008 01:41:02 2 C 5.28 g/m*3 2 C 0 km/h
969 21-02-2008 01:53:02 2 C 5.28 g/m*3 2 C 0 km/h
970 21-02-2008 02:05:02 1.7 C 5.17 g/m*3 1.7 C 0 km/h
971 21-02-2008 02:17:02 1.5 C 5.1 g/m*3 1.5 C 0 km/h
972 21-02-2008 02:29:02 1.6 C 5.14 g/m*3 1.6 C 0 km/h
973 21-02-2008 02:41:02 1.6 C 5.14 g/m*3 1.6 C 0 km/h
974 21-02-2008 02:53:02 1.4 C 5.07 g/m*3 1.4 C 0 km/h
975 21-02-2008 03:05:02 1.2 C 5 g/m*3 1.2 C 0 km/h
Sensor: Nr:Datum:Temp:Abs-Feuchte:Windchill:Wind:
Aussen-T/F 976 21-02-2008 03:17:03 1.1 C 4.96 g/m*3 1.1 C 0 km/h
977 21-02-2008 03:29:03 1.1 C 4.96 g/m*3 1.1 C 0 km/h
978 21-02-2008 03:41:03 1.1 C 4.96 g/m*3 1.1 C 0 km/h
979 21-02-2008 03:53:03 0.8 C 4.86 g/m*3 0.8 C 0 km/h
980 21-02-2008 04:05:03 0.9 C 4.9 g/m*3 0.9 C 0 km/h
981 21-02-2008 04:17:03 2 C 5.28 g/m*3 2 C 0 km/h
982 21-02-2008 04:29:03 2.3 C 5.39 g/m*3 2.3 C 0 km/h
983 21-02-2008 04:41:03 2.7 C 5.54 g/m*3 2.7 C 0 km/h
984 21-02-2008 04:53:03 2.7 C 5.54 g/m*3 2.7 C 0 km/h
985 21-02-2008 05:05:03 2.6 C 5.5 g/m*3 2.6 C 0 km/h
986 21-02-2008 05:17:03 3 C 5.65 g/m*3 3 C 0 km/h
987 21-02-2008 05:29:03 3.3 C 5.76 g/m*3 3.3 C 0 km/h
988 21-02-2008 05:41:03 3.1 C 5.69 g/m*3 3.1 C 0 km/h
989 21-02-2008 05:53:03 3.2 C 5.72 g/m*3 3.2 C 0 km/h
990 21-02-2008 06:05:03 3.3 C 5.76 g/m*3 3.3 C 0 km/h
991 21-02-2008 06:17:03 3.4 C 5.8 g/m*3 3.4 C 0 km/h
992 21-02-2008 06:29:03 3.7 C 5.92 g/m*3 3.7 C 0 km/h
993 21-02-2008 06:41:03 4 C 6.04 g/m*3 4 C 0 km/h
994 21-02-2008 06:53:02 4.1 C 6.08 g/m*3 4.1 C 0 km/h
995 21-02-2008 07:05:02 4 C 6.04 g/m*3 4 C 0 km/h
996 21-02-2008 07:17:02 4.2 C 6.12 g/m*3 4.2 C 0 km/h
997 21-02-2008 07:29:02 4.3 C 6.16 g/m*3 4.3 C 0 km/h
998 21-02-2008 07:41:01 4.4 C 6.14 g/m*3 4.4 C 0 km/h
999 21-02-2008 07:53:01 4.5 C 6.11 g/m*3 4.5 C 0 km/h
1000 21-02-2008 08:05:01 4.6 C 6.15 g/m*3 4.6 C 0 km/h
Sensor: Nr:Datum:Temp:Abs-Feuchte:Windchill:Wind:
Aussen-T/F 1001 21-02-2008 08:17:02 4.6 C 6.09 g/m*3 4.6 C 0 km/h
1002 21-02-2008 08:29:02 4.6 C 6.02 g/m*3 4.6 C 0 km/h
1003 21-02-2008 08:41:02 4.7 C 6 g/m*3 4.7 C 0 km/h
1004 21-02-2008 08:53:02 4.7 C 5.93 g/m*3 4.7 C 0 km/h
1005 21-02-2008 09:05:01 4.8 C 5.97 g/m*3 4.8 C 0 km/h
1006 21-02-2008 09:17:01 5 C 5.91 g/m*3 5 C 0 km/h
1007 21-02-2008 09:29:01 5.1 C 5.88 g/m*3 5.1 C 0 km/h
1008 21-02-2008 09:41:01 5.2 C 5.92 g/m*3 5.2 C 0 km/h
1009 21-02-2008 09:53:01 5.4 C 5.93 g/m*3 5.4 C 0 km/h
1010 21-02-2008 10:05:02 5.6 C 6.01 g/m*3 5.6 C 0 km/h
1011 21-02-2008 10:17:01 5.8 C 6.02 g/m*3 5.8 C 0 km/h
1012 21-02-2008 10:29:01 6.1 C 6.06 g/m*3 6.1 C 0 km/h
1013 21-02-2008 10:41:01 6.2 C 6.1 g/m*3 6.2 C 0 km/h
1014 21-02-2008 10:53:01 6.3 C 6.07 g/m*3 6.3 C 0 km/h
1015 21-02-2008 11:05:02 6.5 C 6.15 g/m*3 6.5 C 0 km/h
1016 21-02-2008 11:17:01 6.7 C 6.23 g/m*3 6.7 C 0 km/h
1017 21-02-2008 11:29:01 7 C 6.28 g/m*3 7 C 0 km/h
1018 21-02-2008 11:41:01 7.3 C 6.4 g/m*3 7.3 C 0 km/h
1019 21-02-2008 11:53:01 8.2 C 6.36 g/m*3 8.2 C 0 km/h
1020 21-02-2008 12:05:02 8.6 C 6.1 g/m*3 8.6 C 0 km/h
1021 21-02-2008 12:17:02 8.8 C 6.01 g/m*3 8.8 C 0 km/h
1022 21-02-2008 12:29:02 9.1 C 6.03 g/m*3 9.1 C 0 km/h
1023 21-02-2008 12:41:01 9.3 C 5.84 g/m*3 9.3 C 0 km/h
1024 21-02-2008 12:53:01 9.3 C 5.75 g/m*3 9.3 C 0 km/h
1025 21-02-2008 13:05:03 9.5 C 5.83 g/m*3 9.5 C 0 km/h
Sensor: Nr:Datum:Temp:Abs-Feuchte:Windchill:Wind:
Aussen-T/F 1026 21-02-2008 13:17:02 9.6 C 5.77 g/m*3 9.6 C 0 km/h
1027 21-02-2008 13:29:02 9.7 C 5.81 g/m*3 9.7 C 0 km/h
1028 21-02-2008 13:41:02 10.4 C 5.69 g/m*3 10.4 C 0 km/h
1029 21-02-2008 13:53:02 10.6 C 5.47 g/m*3 10.6 C 0 km/h
1030 21-02-2008 14:05:01 11.2 C 5.47 g/m*3 11.2 C 0 km/h
1031 21-02-2008 14:17:01 11 C 5.31 g/m*3 11 C 0 km/h
1032 21-02-2008 14:29:01 11 C 5.31 g/m*3 11 C 0 km/h
1033 21-02-2008 14:41:01 10.8 C 5.44 g/m*3 10.8 C 0 km/h
1034 21-02-2008 14:53:01 10.8 C 5.44 g/m*3 10.8 C 0 km/h
1035 21-02-2008 15:05:01 11 C 5.41 g/m*3 11 C 0 km/h
1036 21-02-2008 15:17:02 10.9 C 5.37 g/m*3 10.9 C 0 km/h
1037 21-02-2008 15:29:02 11.2 C 5.17 g/m*3 11.2 C 0 km/h
1038 21-02-2008 15:41:01 11.2 C 5.07 g/m*3 11.2 C 0 km/h
1039 21-02-2008 15:53:02 11.2 C 5.17 g/m*3 11.2 C 0 km/h
1040 21-02-2008 16:05:01 11 C 5.1 g/m*3 11 C 0 km/h
1041 21-02-2008 16:17:01 11 C 5.2 g/m*3 11 C 0 km/h
1042 21-02-2008 16:29:01 11 C 5.2 g/m*3 11 C 0 km/h
1043 21-02-2008 16:41:02 10.9 C 5.27 g/m*3 10.9 C 0 km/h
1044 21-02-2008 16:53:02 10.5 C 5.24 g/m*3 10.5 C 0 km/h
1045 21-02-2008 17:05:02 10.2 C 5.23 g/m*3 10.2 C 0 km/h
1046 21-02-2008 17:17:01 10 C 5.17 g/m*3 10 C 0 km/h
1047 21-02-2008 17:29:02 9.9 C 5.23 g/m*3 9.9 C 0 km/h
1048 21-02-2008 17:41:01 9.7 C 5.25 g/m*3 9.7 C 0 km/h
1049 21-02-2008 17:53:01 9.6 C 5.22 g/m*3 9.6 C 0 km/h
1050 21-02-2008 18:05:01 9.6 C 5.22 g/m*3 9.6 C 0 km/h
Sensor: Nr:Datum:Temp:Abs-Feuchte:Windchill:Wind:
Aussen-T/F 1051 21-02-2008 18:17:02 9.5 C 5.19 g/m*3 9.5 C 0 km/h
1052 21-02-2008 18:29:02 9.4 C 5.16 g/m*3 9.4 C 0 km/h
1053 21-02-2008 18:41:02 9.3 C 5.12 g/m*3 9.3 C 0 km/h
1054 21-02-2008 18:53:02 9.2 C 5.18 g/m*3 9.2 C 0 km/h
1055 21-02-2008 19:05:01 9.1 C 5.23 g/m*3 9.1 C 0 km/h
1056 21-02-2008 19:17:02 9.1 C 5.23 g/m*3 9.1 C 0 km/h
1057 21-02-2008 19:29:02 9.1 C 5.15 g/m*3 9.1 C 0 km/h
1058 21-02-2008 19:41:02 9.1 C 5.15 g/m*3 9.1 C 0 km/h
1059 21-02-2008 19:53:02 9.1 C 5.23 g/m*3 9.1 C 0 km/h
1060 21-02-2008 20:05:02 8.9 C 5.34 g/m*3 8.9 C 0 km/h
1061 21-02-2008 20:17:01 8.6 C 5.5 g/m*3 8.6 C 0 km/h
1062 21-02-2008 20:29:01 8.5 C 5.55 g/m*3 8.5 C 0 km/h
1063 21-02-2008 20:41:01 8.6 C 5.5 g/m*3 8.6 C 0 km/h
1064 21-02-2008 20:53:01 8.6 C 5.41 g/m*3 8.6 C 0 km/h
1065 21-02-2008 21:05:01 8.6 C 5.5 g/m*3 8.6 C 0 km/h
1066 21-02-2008 21:17:02 8.4 C 5.68 g/m*3 8.4 C 0 km/h
1067 21-02-2008 21:29:02 8.4 C 5.77 g/m*3 8.4 C 0 km/h
1068 21-02-2008 21:41:02 8.4 C 5.77 g/m*3 8.4 C 0 km/h
1069 21-02-2008 21:53:02 8.4 C 5.85 g/m*3 8.4 C 0 km/h
1070 21-02-2008 22:06:03 8.4 C 5.85 g/m*3 8.4 C 0 km/h
1071 21-02-2008 22:18:03 8.4 C 5.94 g/m*3 8.4 C 0 km/h
1072 21-02-2008 22:30:03 8.4 C 5.94 g/m*3 8.4 C 0 km/h
1073 21-02-2008 22:42:03 8.4 C 6.02 g/m*3 8.4 C 0 km/h
1074 21-02-2008 22:54:03 8.5 C 6.06 g/m*3 8.5 C 0 km/h
1075 21-02-2008 23:06:03 8.5 C 6.06 g/m*3 8.5 C 0 km/h
Sensor: Nr:Datum:Temp:Abs-Feuchte:Windchill:Wind:
Aussen-T/F 1076 21-02-2008 23:18:03 8.4 C 6.11 g/m*3 8.4 C 0 km/h
1077 21-02-2008 23:30:03 8.2 C 6.2 g/m*3 8.2 C 0 km/h
1078 21-02-2008 23:42:03 8 C 6.37 g/m*3 8 C 0 km/h
1079 21-02-2008 23:54:03 7.9 C 6.65 g/m*3 7.9 C 0 km/h
1080 22-02-2008 00:06:03 7.8 C 6.77 g/m*3 7.8 C 0 km/h
1081 22-02-2008 00:18:03 7.7 C 6.81 g/m*3 7.7 C 0 km/h
1082 22-02-2008 00:30:03 7.8 C 6.94 g/m*3 7.8 C 0 km/h
1083 22-02-2008 00:42:03 7.8 C 6.94 g/m*3 7.8 C 0 km/h
1084 22-02-2008 00:54:03 7.9 C 6.9 g/m*3 7.9 C 0 km/h
1085 22-02-2008 01:06:04 7.9 C 6.9 g/m*3 7.9 C 0 km/h
1086 22-02-2008 01:18:04 7.8 C 6.86 g/m*3 7.8 C 0 km/h
1087 22-02-2008 01:30:04 7.8 C 6.94 g/m*3 7.8 C 0 km/h
1088 22-02-2008 01:42:04 7.8 C 6.94 g/m*3 7.8 C 0 km/h
1089 22-02-2008 01:54:04 7.8 C 6.94 g/m*3 7.8 C 0 km/h
1090 22-02-2008 02:06:04 7.9 C 6.98 g/m*3 7.9 C 0 km/h
1091 22-02-2008 02:18:04 8.4 C 6.96 g/m*3 8.4 C 0 km/h
1092 22-02-2008 02:30:04 8.5 C 6.66 g/m*3 8.5 C 0 km/h
1093 22-02-2008 02:42:04 8.5 C 6.57 g/m*3 8.5 C 0 km/h
1094 22-02-2008 02:54:04 8.6 C 6.53 g/m*3 8.6 C 0 km/h
1095 22-02-2008 03:06:04 8.7 C 6.49 g/m*3 8.7 C 0 km/h
1096 22-02-2008 03:18:04 9.1 C 6.39 g/m*3 9.1 C 0 km/h
1097 22-02-2008 03:30:04 8.8 C 6.35 g/m*3 8.8 C 0 km/h
1098 22-02-2008 03:42:04 8.8 C 6.27 g/m*3 8.8 C 0 km/h
1099 22-02-2008 03:54:04 8.8 C 6.27 g/m*3 8.8 C 0 km/h
1100 22-02-2008 04:06:04 9.1 C 6.21 g/m*3 9.1 C 0 km/h
Sensor: Nr:Datum:Temp:Abs-Feuchte:Windchill:Wind:
Aussen-T/F 1101 22-02-2008 04:18:04 9.1 C 6.21 g/m*3 9.1 C 0 km/h
1102 22-02-2008 04:30:04 9 C 6.26 g/m*3 9 C 0 km/h
1103 22-02-2008 04:42:04 9 C 6.35 g/m*3 9 C 0 km/h
1104 22-02-2008 04:54:04 9.2 C 6.34 g/m*3 9.2 C 0 km/h
1105 22-02-2008 05:06:05 9.2 C 6.25 g/m*3 9.2 C 0 km/h
1106 22-02-2008 05:18:05 9.2 C 6.25 g/m*3 9.2 C 0 km/h
1107 22-02-2008 05:30:05 9.3 C 6.29 g/m*3 9.3 C 0 km/h
1108 22-02-2008 05:42:05 9.1 C 6.21 g/m*3 9.1 C 0 km/h
1109 22-02-2008 05:54:05 9.2 C 6.25 g/m*3 9.2 C 0 km/h
1110 22-02-2008 06:06:05 9.1 C 6.12 g/m*3 9.1 C 0 km/h
1111 22-02-2008 06:18:05 9.1 C 6.12 g/m*3 9.1 C 0 km/h
1112 22-02-2008 06:30:05 9.2 C 6.16 g/m*3 9.2 C 0 km/h
1113 22-02-2008 06:42:05 9.2 C 6.25 g/m*3 9.2 C 0 km/h
1114 22-02-2008 06:54:05 9.3 C 6.2 g/m*3 9.3 C 0 km/h
1115 22-02-2008 07:06:02 9.2 C 6.07 g/m*3 9.2 C 0 km/h
1116 22-02-2008 07:18:03 9.2 C 6.07 g/m*3 9.2 C 0 km/h
1117 22-02-2008 07:30:03 9.3 C 5.93 g/m*3 9.3 C 0 km/h
1118 22-02-2008 07:42:03 9.2 C 5.8 g/m*3 9.2 C 0 km/h
1119 22-02-2008 07:54:01 9.3 C 5.84 g/m*3 9.3 C 0 km/h
1120 22-02-2008 08:06:02 9.3 C 5.75 g/m*3 9.3 C 0 km/h
1121 22-02-2008 08:18:02 9.3 C 5.66 g/m*3 9.3 C 0 km/h
1122 22-02-2008 08:30:02 9.4 C 5.61 g/m*3 9.4 C 0 km/h
1123 22-02-2008 08:42:01 9.5 C 5.64 g/m*3 9.5 C 0 km/h
1124 22-02-2008 08:54:02 9.5 C 5.64 g/m*3 9.5 C 0 km/h
1125 22-02-2008 09:06:02 9.6 C 5.59 g/m*3 9.6 C 0 km/h
Sensor: Nr:Datum:Temp:Abs-Feuchte:Windchill:Wind:
Aussen-T/F 1126 22-02-2008 09:18:01 9.6 C 5.5 g/m*3 9.6 C 0 km/h
1127 22-02-2008 09:30:01 9.7 C 5.53 g/m*3 9.7 C 0 km/h
1128 22-02-2008 09:42:01 9.7 C 5.53 g/m*3 9.7 C 0 km/h
1129 22-02-2008 09:54:02 9.8 C 5.47 g/m*3 9.8 C 0 km/h
1130 22-02-2008 10:06:01 9.9 C 5.51 g/m*3 9.9 C 0 km/h
1131 22-02-2008 10:18:02 10.1 C 5.48 g/m*3 10.1 C 0 km/h
1132 22-02-2008 10:30:02 10.1 C 5.48 g/m*3 10.1 C 0 km/h
1133 22-02-2008 10:42:02 10.3 C 5.46 g/m*3 10.3 C 0 km/h
1134 22-02-2008 10:54:02 10.3 C 5.46 g/m*3 10.3 C 0 km/h
1135 22-02-2008 11:06:02 10.2 C 5.42 g/m*3 10.2 C 0 km/h
1136 22-02-2008 11:18:02 10.4 C 5.49 g/m*3 10.4 C 0 km/h
1137 22-02-2008 11:30:02 10.4 C 5.4 g/m*3 10.4 C 0 km/h
1138 22-02-2008 11:42:02 10.5 C 5.53 g/m*3 10.5 C 0 km/h
1139 22-02-2008 11:54:02 10.5 C 5.53 g/m*3 10.5 C 0 km/h
1140 22-02-2008 12:06:03 10.6 C 5.56 g/m*3 10.6 C 0 km/h
1141 22-02-2008 12:18:02 10.6 C 5.56 g/m*3 10.6 C 0 km/h
1142 22-02-2008 12:30:02 10.8 C 5.54 g/m*3 10.8 C 0 km/h
1143 22-02-2008 12:42:02 10.5 C 5.53 g/m*3 10.5 C 0 km/h
1144 22-02-2008 12:54:02 10.7 C 5.6 g/m*3 10.7 C 0 km/h
1145 22-02-2008 13:06:02 10.6 C 5.56 g/m*3 10.6 C 0 km/h
1146 22-02-2008 13:18:01 10.4 C 5.49 g/m*3 10.4 C 0 km/h
1147 22-02-2008 13:30:01 10.5 C 5.53 g/m*3 10.5 C 0 km/h
1148 22-02-2008 13:42:02 10.4 C 5.49 g/m*3 10.4 C 0 km/h
1149 22-02-2008 13:54:01 10.6 C 5.56 g/m*3 10.6 C 0 km/h
1150 22-02-2008 14:06:02 10.6 C 5.56 g/m*3 10.6 C 0 km/h
Sensor: Nr:Datum:Temp:Abs-Feuchte:Windchill:Wind:
Aussen-T/F 1151 22-02-2008 14:18:02 10.4 C 5.49 g/m*3 10.4 C 0 km/h
1152 22-02-2008 14:30:02 10.5 C 5.43 g/m*3 10.5 C 0 km/h
1153 22-02-2008 14:42:02 10.6 C 5.47 g/m*3 10.6 C 0 km/h
1154 22-02-2008 14:54:02 10.5 C 5.43 g/m*3 10.5 C 0 km/h
1155 22-02-2008 15:06:02 10.4 C 5.4 g/m*3 10.4 C 0 km/h
1156 22-02-2008 15:18:02 10.3 C 5.36 g/m*3 10.3 C 0 km/h
1157 22-02-2008 15:30:02 10.2 C 5.42 g/m*3 10.2 C 0 km/h
1158 22-02-2008 15:42:02 10 C 5.36 g/m*3 10 C 0 km/h
1159 22-02-2008 15:54:02 10.1 C 5.39 g/m*3 10.1 C 0 km/h
1160 22-02-2008 16:06:02 10.2 C 5.42 g/m*3 10.2 C 0 km/h
1161 22-02-2008 16:18:02 10.1 C 5.39 g/m*3 10.1 C 0 km/h
1162 22-02-2008 16:30:02 10.1 C 5.48 g/m*3 10.1 C 0 km/h
1163 22-02-2008 16:42:01 10.1 C 5.48 g/m*3 10.1 C 0 km/h
1164 22-02-2008 16:54:02 10 C 5.54 g/m*3 10 C 0 km/h
1165 22-02-2008 17:06:02 10.1 C 5.58 g/m*3 10.1 C 0 km/h
1166 22-02-2008 17:18:02 10 C 5.54 g/m*3 10 C 0 km/h
1167 22-02-2008 17:30:03 10 C 5.54 g/m*3 10 C 0 km/h
1168 22-02-2008 17:42:01 10 C 5.54 g/m*3 10 C 0 km/h
1169 22-02-2008 17:54:02 10 C 5.54 g/m*3 10 C 0 km/h
1170 22-02-2008 18:06:02 10 C 5.64 g/m*3 10 C 0 km/h
1171 22-02-2008 18:18:02 9.9 C 5.7 g/m*3 9.9 C 0 km/h
1172 22-02-2008 18:30:02 10 C 5.64 g/m*3 10 C 0 km/h
1173 22-02-2008 18:42:02 10 C 5.64 g/m*3 10 C 0 km/h
1174 22-02-2008 18:54:02 10 C 5.64 g/m*3 10 C 0 km/h
1175 22-02-2008 19:06:02 10 C 5.64 g/m*3 10 C 0 km/h
Sensor: Nr:Datum:Temp:Abs-Feuchte:Windchill:Wind:
Aussen-T/F 1176 22-02-2008 19:18:02 10.2 C 5.61 g/m*3 10.2 C 0 km/h
1177 22-02-2008 19:30:02 10.4 C 5.59 g/m*3 10.4 C 0 km/h
1178 22-02-2008 19:42:02 10.4 C 5.59 g/m*3 10.4 C 0 km/h
1179 22-02-2008 19:54:02 10.3 C 5.55 g/m*3 10.3 C 0 km/h
1180 22-02-2008 20:06:03 10.4 C 5.59 g/m*3 10.4 C 0 km/h
1181 22-02-2008 20:18:02 10.3 C 5.55 g/m*3 10.3 C 0 km/h
1182 22-02-2008 20:30:03 10.3 C 5.55 g/m*3 10.3 C 0 km/h
1183 22-02-2008 20:42:02 10.2 C 5.61 g/m*3 10.2 C 0 km/h
1184 22-02-2008 20:54:02 10.2 C 5.61 g/m*3 10.2 C 0 km/h
1185 22-02-2008 21:06:01 10.1 C 5.58 g/m*3 10.1 C 0 km/h
1186 22-02-2008 21:18:02 10.4 C 5.59 g/m*3 10.4 C 0 km/h
1187 22-02-2008 21:30:02 10.4 C 5.59 g/m*3 10.4 C 0 km/h
1188 22-02-2008 21:43:03 10.4 C 5.59 g/m*3 10.4 C 0 km/h
1189 22-02-2008 21:55:03 10.4 C 5.59 g/m*3 10.4 C 0 km/h
1190 22-02-2008 22:07:03 10.4 C 5.59 g/m*3 10.4 C 0 km/h
1191 22-02-2008 22:19:03 10.4 C 5.59 g/m*3 10.4 C 0 km/h
1192 22-02-2008 22:31:03 10.4 C 5.69 g/m*3 10.4 C 0 km/h
1193 22-02-2008 22:43:03 10.4 C 5.69 g/m*3 10.4 C 0 km/h
1194 22-02-2008 22:55:03 10.4 C 5.69 g/m*3 10.4 C 0 km/h
1195 22-02-2008 23:07:03 10.4 C 5.69 g/m*3 10.4 C 0 km/h
1196 22-02-2008 23:19:03 10.4 C 5.69 g/m*3 10.4 C 0 km/h
1197 22-02-2008 23:31:03 10.6 C 5.76 g/m*3 10.6 C 0 km/h
1198 22-02-2008 23:43:04 10.7 C 5.8 g/m*3 10.7 C 0 km/h
1199 22-02-2008 23:55:04 10.7 C 5.8 g/m*3 10.7 C 0 km/h
1200 23-02-2008 00:07:04 10.7 C 5.89 g/m*3 10.7 C 0 km/h
Sensor: Nr:Datum:Temp:Abs-Feuchte:Windchill:Wind:
Aussen-T/F 1201 23-02-2008 00:19:04 10.6 C 5.86 g/m*3 10.6 C 0 km/h
1202 23-02-2008 00:31:04 10.6 C 5.86 g/m*3 10.6 C 0 km/h
1203 23-02-2008 00:43:04 10.5 C 5.92 g/m*3 10.5 C 0 km/h
1204 23-02-2008 00:55:04 10.4 C 5.88 g/m*3 10.4 C 0 km/h
1205 23-02-2008 01:07:04 10.2 C 5.9 g/m*3 10.2 C 0 km/h
1206 23-02-2008 01:19:04 9.8 C 5.94 g/m*3 9.8 C 0 km/h
1207 23-02-2008 01:31:04 9.5 C 5.92 g/m*3 9.5 C 0 km/h
1208 23-02-2008 01:43:04 9.4 C 5.97 g/m*3 9.4 C 0 km/h
1209 23-02-2008 01:55:04 9.6 C 6.05 g/m*3 9.6 C 0 km/h
1210 23-02-2008 02:07:04 9.9 C 5.88 g/m*3 9.9 C 0 km/h
1211 23-02-2008 02:19:04 10.3 C 5.65 g/m*3 10.3 C 0 km/h
1212 23-02-2008 02:31:04 10.4 C 5.49 g/m*3 10.4 C 0 km/h
1213 23-02-2008 02:43:04 10.1 C 5.39 g/m*3 10.1 C 0 km/h
1214 23-02-2008 02:55:04 9.8 C 5.47 g/m*3 9.8 C 0 km/h
1215 23-02-2008 03:07:04 9.4 C 5.52 g/m*3 9.4 C 0 km/h
1216 23-02-2008 03:19:04 9.3 C 5.57 g/m*3 9.3 C 0 km/h
1217 23-02-2008 03:31:04 9.1 C 5.59 g/m*3 9.1 C 0 km/h
1218 23-02-2008 03:43:05 9 C 5.64 g/m*3 9 C 0 km/h
1219 23-02-2008 03:55:05 8.6 C 5.67 g/m*3 8.6 C 0 km/h
1220 23-02-2008 04:07:05 8.4 C 5.68 g/m*3 8.4 C 0 km/h
1221 23-02-2008 04:19:03 8.3 C 5.73 g/m*3 8.3 C 0 km/h
1222 23-02-2008 04:31:02 8.2 C 5.69 g/m*3 8.2 C 0 km/h
1223 23-02-2008 04:43:02 8.1 C 5.74 g/m*3 8.1 C 0 km/h
1224 23-02-2008 04:55:01 8.2 C 5.78 g/m*3 8.2 C 0 km/h
1225 23-02-2008 05:07:02 8 C 5.7 g/m*3 8 C 0 km/h
Sensor: Nr:Datum:Temp:Abs-Feuchte:Windchill:Wind:
Aussen-T/F 1226 23-02-2008 05:19:02 7.8 C 5.79 g/m*3 7.8 C 0 km/h
1227 23-02-2008 05:31:02 7.5 C 5.76 g/m*3 7.5 C 0 km/h
1228 23-02-2008 05:43:02 7.4 C 5.81 g/m*3 7.4 C 0 km/h
1229 23-02-2008 05:55:02 7.3 C 5.85 g/m*3 7.3 C 0 km/h
1230 23-02-2008 06:07:02 7.2 C 5.89 g/m*3 7.2 C 0 km/h
1231 23-02-2008 06:19:01 7.1 C 5.85 g/m*3 7.1 C 0 km/h
1232 23-02-2008 06:31:02 6.9 C 5.93 g/m*3 6.9 C 0 km/h
1233 23-02-2008 06:43:02 6.9 C 6 g/m*3 6.9 C 0 km/h
1234 23-02-2008 06:55:02 6.9 C 6 g/m*3 6.9 C 0 km/h
1235 23-02-2008 07:07:01 6.9 C 6.08 g/m*3 6.9 C 0 km/h
1236 23-02-2008 07:19:02 6.8 C 6.04 g/m*3 6.8 C 0 km/h
1237 23-02-2008 07:31:01 6.9 C 6.08 g/m*3 6.9 C 0 km/h
1238 23-02-2008 07:43:02 6.9 C 6.08 g/m*3 6.9 C 0 km/h
1239 23-02-2008 07:55:02 6.9 C 6.08 g/m*3 6.9 C 0 km/h
1240 23-02-2008 08:07:02 6.9 C 6.08 g/m*3 6.9 C 0 km/h
1241 23-02-2008 08:19:02 6.8 C 6.04 g/m*3 6.8 C 0 km/h
1242 23-02-2008 08:31:02 7 C 6.04 g/m*3 7 C 0 km/h
1243 23-02-2008 08:43:02 7.2 C 6.12 g/m*3 7.2 C 0 km/h
1244 23-02-2008 08:55:02 7.3 C 6.08 g/m*3 7.3 C 0 km/h
1245 23-02-2008 09:07:02 7.4 C 6.04 g/m*3 7.4 C 0 km/h
1246 23-02-2008 09:19:02 7.5 C 6.08 g/m*3 7.5 C 0 km/h
1247 23-02-2008 09:31:02 7.7 C 6.16 g/m*3 7.7 C 0 km/h
1248 23-02-2008 09:43:02 7.9 C 6.24 g/m*3 7.9 C 0 km/h
1249 23-02-2008 09:55:02 8 C 6.2 g/m*3 8 C 0 km/h
1250 23-02-2008 10:07:01 8.4 C 6.28 g/m*3 8.4 C 0 km/h
Sensor: Nr:Datum:Temp:Abs-Feuchte:Windchill:Wind:
Aussen-T/F 1251 23-02-2008 10:19:02 8.6 C 6.27 g/m*3 8.6 C 0 km/h
1252 23-02-2008 10:31:01 8.9 C 6.31 g/m*3 8.9 C 0 km/h
1253 23-02-2008 10:43:01 9.4 C 6.24 g/m*3 9.4 C 0 km/h
1254 23-02-2008 10:55:02 9.7 C 5.99 g/m*3 9.7 C 0 km/h
1255 23-02-2008 11:07:01 10 C 5.73 g/m*3 10 C 0 km/h
1256 23-02-2008 11:19:02 10.1 C 5.58 g/m*3 10.1 C 0 km/h
1257 23-02-2008 11:31:02 10.2 C 5.52 g/m*3 10.2 C 0 km/h
1258 23-02-2008 11:43:02 10.4 C 5.59 g/m*3 10.4 C 0 km/h
1259 23-02-2008 11:55:02 10.8 C 5.63 g/m*3 10.8 C 0 km/h
1260 23-02-2008 12:07:02 11.2 C 5.27 g/m*3 11.2 C 0 km/h
1261 23-02-2008 12:19:02 11.3 C 5.1 g/m*3 11.3 C 0 km/h
1262 23-02-2008 12:31:02 11.3 C 5.1 g/m*3 11.3 C 0 km/h
1263 23-02-2008 12:43:02 11.8 C 5.05 g/m*3 11.8 C 0 km/h
1264 23-02-2008 12:55:02 12.3 C 4.89 g/m*3 12.3 C 0 km/h
1265 23-02-2008 13:07:03 12.6 C 4.98 g/m*3 12.6 C 0 km/h
1266 23-02-2008 13:19:02 12.7 C 4.79 g/m*3 12.7 C 0 km/h
1267 23-02-2008 13:31:02 12.7 C 4.79 g/m*3 12.7 C 0 km/h
1268 23-02-2008 13:43:02 12.7 C 4.79 g/m*3 12.7 C 0 km/h
1269 23-02-2008 13:55:01 13.2 C 4.71 g/m*3 13.2 C 0 km/h
1270 23-02-2008 14:07:03 13.4 C 4.65 g/m*3 13.4 C 0 km/h
1271 23-02-2008 14:19:02 13.8 C 4.65 g/m*3 13.8 C 0 km/h
1272 23-02-2008 14:31:01 14 C 4.46 g/m*3 14 C 0 km/h
1273 23-02-2008 14:43:01 14.1 C 4.49 g/m*3 14.1 C 0 km/h
1274 23-02-2008 14:55:01 14.1 C 4.61 g/m*3 14.1 C 0 km/h
1275 23-02-2008 15:07:01 13.9 C 4.68 g/m*3 13.9 C 0 km/h
Sensor: Nr:Datum:Temp:Abs-Feuchte:Windchill:Wind:
Aussen-T/F 1276 23-02-2008 15:19:02 14.1 C 4.61 g/m*3 14.1 C 0 km/h
1277 23-02-2008 15:31:01 14.2 C 4.64 g/m*3 14.2 C 0 km/h
1278 23-02-2008 15:43:01 13.9 C 4.56 g/m*3 13.9 C 0 km/h
1279 23-02-2008 15:55:02 13.6 C 4.71 g/m*3 13.6 C 0 km/h
1280 23-02-2008 16:07:01 13.5 C 4.68 g/m*3 13.5 C 0 km/h
1281 23-02-2008 16:19:02 13.4 C 4.65 g/m*3 13.4 C 0 km/h
1282 23-02-2008 16:31:02 13.4 C 4.65 g/m*3 13.4 C 0 km/h
1283 23-02-2008 16:43:02 13.1 C 4.68 g/m*3 13.1 C 0 km/h
1284 23-02-2008 16:55:02 12.8 C 4.82 g/m*3 12.8 C 0 km/h
1285 23-02-2008 17:07:03 13 C 4.76 g/m*3 13 C 0 km/h
1286 23-02-2008 17:19:02 12.9 C 4.96 g/m*3 12.9 C 0 km/h
1287 23-02-2008 17:31:02 12.8 C 5.04 g/m*3 12.8 C 0 km/h
1288 23-02-2008 17:43:02 12.4 C 5.03 g/m*3 12.4 C 0 km/h
1289 23-02-2008 17:55:02 11.9 C 4.98 g/m*3 11.9 C 0 km/h
1290 23-02-2008 18:07:02 11.4 C 5.13 g/m*3 11.4 C 0 km/h
1291 23-02-2008 18:19:03 10.8 C 5.24 g/m*3 10.8 C 0 km/h
1292 23-02-2008 18:31:03 10.2 C 5.23 g/m*3 10.2 C 0 km/h
1293 23-02-2008 18:43:03 9.8 C 5.29 g/m*3 9.8 C 0 km/h
1294 23-02-2008 18:55:02 9.6 C 5.31 g/m*3 9.6 C 0 km/h
1295 23-02-2008 19:07:02 9.4 C 5.34 g/m*3 9.4 C 0 km/h
1296 23-02-2008 19:19:02 9.3 C 5.39 g/m*3 9.3 C 0 km/h
1297 23-02-2008 19:31:02 9.2 C 5.36 g/m*3 9.2 C 0 km/h
1298 23-02-2008 19:43:02 8.8 C 5.31 g/m*3 8.8 C 0 km/h
1299 23-02-2008 19:55:02 8.6 C 5.41 g/m*3 8.6 C 0 km/h
1300 23-02-2008 20:07:02 8.4 C 5.43 g/m*3 8.4 C 0 km/h
Sensor: Nr:Datum:Temp:Abs-Feuchte:Windchill:Wind:
Aussen-T/F 1301 23-02-2008 20:19:02 8.2 C 5.36 g/m*3 8.2 C 0 km/h
1302 23-02-2008 20:31:03 8 C 5.37 g/m*3 8 C 0 km/h
1303 23-02-2008 20:43:03 7.9 C 5.5 g/m*3 7.9 C 0 km/h
1304 23-02-2008 20:55:02 7.7 C 5.43 g/m*3 7.7 C 0 km/h
1305 23-02-2008 21:07:02 7.4 C 5.33 g/m*3 7.4 C 0 km/h
1306 23-02-2008 21:19:01 7.3 C 5.37 g/m*3 7.3 C 0 km/h
1307 23-02-2008 21:31:02 7.2 C 5.42 g/m*3 7.2 C 0 km/h
1308 23-02-2008 21:43:02 7.1 C 5.38 g/m*3 7.1 C 0 km/h
1309 23-02-2008 21:55:02 6.8 C 5.35 g/m*3 6.8 C 0 km/h
1310 23-02-2008 22:07:01 6.6 C 5.36 g/m*3 6.6 C 0 km/h
1311 23-02-2008 22:20:02 6.5 C 5.32 g/m*3 6.5 C 0 km/h
1312 23-02-2008 22:32:02 6.2 C 5.29 g/m*3 6.2 C 0 km/h
1313 23-02-2008 22:44:02 5.9 C 5.26 g/m*3 5.9 C 0 km/h
1314 23-02-2008 22:56:02 5.9 C 5.34 g/m*3 5.9 C 0 km/h
1315 23-02-2008 23:08:02 5.8 C 5.3 g/m*3 5.8 C 0 km/h
1316 23-02-2008 23:20:02 5.7 C 5.34 g/m*3 5.7 C 0 km/h
1317 23-02-2008 23:32:02 5.7 C 5.41 g/m*3 5.7 C 0 km/h
1318 23-02-2008 23:44:02 5.7 C 5.48 g/m*3 5.7 C 0 km/h
1319 23-02-2008 23:56:02 5.4 C 5.37 g/m*3 5.4 C 0 km/h
1320 24-02-2008 00:08:02 5.3 C 5.34 g/m*3 5.3 C 0 km/h
1321 24-02-2008 00:20:02 5.3 C 5.41 g/m*3 5.3 C 0 km/h
1322 24-02-2008 00:32:02 5.3 C 5.48 g/m*3 5.3 C 0 km/h
1323 24-02-2008 00:44:02 5.1 C 5.4 g/m*3 5.1 C 0 km/h
1324 24-02-2008 00:56:02 4.8 C 5.3 g/m*3 4.8 C 0 km/h
1325 24-02-2008 01:08:02 4.8 C 5.3 g/m*3 4.8 C 0 km/h
Sensor: Nr:Datum:Temp:Abs-Feuchte:Windchill:Wind:
Aussen-T/F 1326 24-02-2008 01:20:02 4.6 C 5.29 g/m*3 4.6 C 0 km/h
1327 24-02-2008 01:32:02 4.6 C 5.36 g/m*3 4.6 C 0 km/h
1328 24-02-2008 01:44:02 4.5 C 5.32 g/m*3 4.5 C 0 km/h
1329 24-02-2008 01:56:03 4.3 C 5.25 g/m*3 4.3 C 0 km/h
1330 24-02-2008 02:08:03 4.3 C 5.32 g/m*3 4.3 C 0 km/h
1331 24-02-2008 02:20:03 4.1 C 5.25 g/m*3 4.1 C 0 km/h
1332 24-02-2008 02:32:03 4 C 5.21 g/m*3 4 C 0 km/h
1333 24-02-2008 02:44:03 3.8 C 5.21 g/m*3 3.8 C 0 km/h
1334 24-02-2008 02:56:03 3.6 C 5.14 g/m*3 3.6 C 0 km/h
1335 24-02-2008 03:08:03 3.5 C 5.1 g/m*3 3.5 C 0 km/h
1336 24-02-2008 03:20:03 3.4 C 5.13 g/m*3 3.4 C 0 km/h
1337 24-02-2008 03:32:03 3.3 C 5.1 g/m*3 3.3 C 0 km/h
1338 24-02-2008 03:44:03 3.1 C 5.03 g/m*3 3.1 C 0 km/h
1339 24-02-2008 03:56:03 3 C 4.99 g/m*3 3 C 0 km/h
1340 24-02-2008 04:08:03 2.8 C 4.99 g/m*3 2.8 C 0 km/h
1341 24-02-2008 04:20:03 2.7 C 4.95 g/m*3 2.7 C 0 km/h
1342 24-02-2008 04:32:03 2.6 C 4.86 g/m*3 2.6 C 0 km/h
1343 24-02-2008 04:44:03 2.5 C 4.83 g/m*3 2.5 C 0 km/h
1344 24-02-2008 04:56:03 2.6 C 4.92 g/m*3 2.6 C 0 km/h
1345 24-02-2008 05:08:03 2.5 C 4.94 g/m*3 2.5 C 0 km/h
1346 24-02-2008 05:20:03 2.4 C 4.91 g/m*3 2.4 C 0 km/h
1347 24-02-2008 05:32:03 2.3 C 4.88 g/m*3 2.3 C 0 km/h
1348 24-02-2008 05:44:03 2.1 C 4.81 g/m*3 2.1 C 0 km/h
1349 24-02-2008 05:56:03 2.1 C 4.81 g/m*3 2.1 C 0 km/h
1350 24-02-2008 06:08:04 2.1 C 4.81 g/m*3 2.1 C 0 km/h
Sensor: Nr:Datum:Temp:Abs-Feuchte:Windchill:Wind:
Aussen-T/F 1351 24-02-2008 06:20:04 1.9 C 4.8 g/m*3 1.9 C 0 km/h
1352 24-02-2008 06:32:04 1.8 C 4.77 g/m*3 1.8 C 0 km/h
1353 24-02-2008 06:44:04 1.9 C 4.86 g/m*3 1.9 C 0 km/h
1354 24-02-2008 06:56:04 1.8 C 4.82 g/m*3 1.8 C 0 km/h
1355 24-02-2008 07:08:04 1.8 C 4.82 g/m*3 1.8 C 0 km/h
1356 24-02-2008 07:20:04 1.8 C 4.88 g/m*3 1.8 C 0 km/h
1357 24-02-2008 07:32:04 1.6 C 4.81 g/m*3 1.6 C 0 km/h
1358 24-02-2008 07:44:04 1.7 C 4.85 g/m*3 1.7 C 0 km/h
1359 24-02-2008 07:56:04 1.8 C 4.88 g/m*3 1.8 C 0 km/h
1360 24-02-2008 08:08:04 2.1 C 4.98 g/m*3 2.1 C 0 km/h
1361 24-02-2008 08:20:04 2.2 C 5.01 g/m*3 2.2 C 0 km/h
1362 24-02-2008 08:32:04 2.7 C 5.24 g/m*3 2.7 C 0 km/h
1363 24-02-2008 08:44:04 3.2 C 5.42 g/m*3 3.2 C 0 km/h
1364 24-02-2008 08:56:04 3.6 C 5.63 g/m*3 3.6 C 0 km/h
1365 24-02-2008 09:08:04 4.1 C 5.76 g/m*3 4.1 C 0 km/h
1366 24-02-2008 09:20:04 4.5 C 5.98 g/m*3 4.5 C 0 km/h
1367 24-02-2008 09:32:04 4.8 C 6.1 g/m*3 4.8 C 0 km/h
1368 24-02-2008 09:44:04 5 C 6.05 g/m*3 5 C 0 km/h
1369 24-02-2008 09:56:02 5.1 C 6.02 g/m*3 5.1 C 0 km/h
1370 24-02-2008 10:08:02 5.2 C 5.99 g/m*3 5.2 C 0 km/h
1371 24-02-2008 10:20:02 5.6 C 6.08 g/m*3 5.6 C 0 km/h
1372 24-02-2008 10:32:02 5.7 C 5.98 g/m*3 5.7 C 0 km/h
1373 24-02-2008 10:44:02 5.8 C 6.02 g/m*3 5.8 C 0 km/h
1374 24-02-2008 10:56:01 6.1 C 5.92 g/m*3 6.1 C 0 km/h
1375 24-02-2008 11:08:02 6.9 C 6.08 g/m*3 6.9 C 0 km/h
Sensor: Nr:Datum:Temp:Abs-Feuchte:Windchill:Wind:
Aussen-T/F 1376 24-02-2008 11:20:02 7 C 5.89 g/m*3 7 C 0 km/h
1377 24-02-2008 11:32:02 7.4 C 6.04 g/m*3 7.4 C 0 km/h
1378 24-02-2008 11:44:02 7.9 C 5.91 g/m*3 7.9 C 0 km/h
1379 24-02-2008 11:56:02 8.2 C 5.86 g/m*3 8.2 C 0 km/h
1380 24-02-2008 12:08:02 8.4 C 5.85 g/m*3 8.4 C 0 km/h
1381 24-02-2008 12:20:02 8.9 C 5.87 g/m*3 8.9 C 0 km/h
1382 24-02-2008 12:32:02 8.2 C 5.44 g/m*3 8.2 C 0 km/h
1383 24-02-2008 12:44:02 8.3 C 5.65 g/m*3 8.3 C 0 km/h
1384 24-02-2008 12:56:02 8.4 C 5.68 g/m*3 8.4 C 0 km/h
1385 24-02-2008 13:08:02 8.2 C 5.69 g/m*3 8.2 C 0 km/h
1386 24-02-2008 13:20:02 8.7 C 5.88 g/m*3 8.7 C 0 km/h
1387 24-02-2008 13:32:01 9 C 5.73 g/m*3 9 C 0 km/h
1388 24-02-2008 13:44:01 9.9 C 5.98 g/m*3 9.9 C 0 km/h
1389 24-02-2008 13:56:02 10.8 C 6.03 g/m*3 10.8 C 0 km/h
1390 24-02-2008 14:08:03 11.5 C 5.89 g/m*3 11.5 C 0 km/h
1391 24-02-2008 14:20:02 12 C 5.75 g/m*3 12 C 0 km/h
1392 24-02-2008 14:32:02 12.7 C 5.79 g/m*3 12.7 C 0 km/h
1393 24-02-2008 14:44:02 13.3 C 5.55 g/m*3 13.3 C 0 km/h
1394 24-02-2008 14:56:02 13.7 C 5.45 g/m*3 13.7 C 0 km/h
1395 24-02-2008 15:08:02 14.3 C 5.41 g/m*3 14.3 C 0 km/h
1396 24-02-2008 15:20:02 14.2 C 5.49 g/m*3 14.2 C 0 km/h
1397 24-02-2008 15:32:02 14.3 C 5.41 g/m*3 14.3 C 0 km/h
1398 24-02-2008 15:44:02 14.7 C 5.41 g/m*3 14.7 C 0 km/h
1399 24-02-2008 15:56:02 14.4 C 5.32 g/m*3 14.4 C 0 km/h
1400 24-02-2008 16:08:02 15.1 C 5.42 g/m*3 15.1 C 0 km/h
Sensor: Nr:Datum:Temp:Abs-Feuchte:Windchill:Wind:
Aussen-T/F 1401 24-02-2008 16:20:02 14.8 C 5.45 g/m*3 14.8 C 0 km/h
1402 24-02-2008 16:32:02 14.5 C 5.6 g/m*3 14.5 C 0 km/h
1403 24-02-2008 16:44:02 14 C 5.55 g/m*3 14 C 0 km/h
1404 24-02-2008 16:56:01 13.9 C 5.63 g/m*3 13.9 C 0 km/h
1405 24-02-2008 17:08:02 14.1 C 5.46 g/m*3 14.1 C 0 km/h
1406 24-02-2008 17:20:03 13.6 C 5.53 g/m*3 13.6 C 0 km/h
1407 24-02-2008 17:32:02 13 C 5.56 g/m*3 13 C 0 km/h
1408 24-02-2008 17:44:02 12.4 C 5.68 g/m*3 12.4 C 0 km/h
1409 24-02-2008 17:56:02 11.4 C 5.85 g/m*3 11.4 C 0 km/h
1410 24-02-2008 18:08:01 10.3 C 5.84 g/m*3 10.3 C 0 km/h
1411 24-02-2008 18:20:01 9.7 C 5.99 g/m*3 9.7 C 0 km/h
1412 24-02-2008 18:32:01 9.4 C 5.97 g/m*3 9.4 C 0 km/h
1413 24-02-2008 18:44:01 9.1 C 6.12 g/m*3 9.1 C 0 km/h
1414 24-02-2008 18:56:02 9 C 6.08 g/m*3 9 C 0 km/h
1415 24-02-2008 19:08:02 8.7 C 6.14 g/m*3 8.7 C 0 km/h
1416 24-02-2008 19:20:02 8.4 C 6.02 g/m*3 8.4 C 0 km/h
1417 24-02-2008 19:32:02 8.1 C 5.91 g/m*3 8.1 C 0 km/h
1418 24-02-2008 19:44:02 8 C 6.04 g/m*3 8 C 0 km/h
1419 24-02-2008 19:56:02 7.9 C 6.24 g/m*3 7.9 C 0 km/h
1420 24-02-2008 20:08:02 7.7 C 6.08 g/m*3 7.7 C 0 km/h
1421 24-02-2008 20:20:02 7.5 C 5.92 g/m*3 7.5 C 0 km/h
1422 24-02-2008 20:32:02 7.3 C 6 g/m*3 7.3 C 0 km/h
1423 24-02-2008 20:44:02 6.9 C 6 g/m*3 6.9 C 0 km/h
1424 24-02-2008 20:56:02 6.6 C 5.81 g/m*3 6.6 C 0 km/h
1425 24-02-2008 21:08:02 6.4 C 5.89 g/m*3 6.4 C 0 km/h
Sensor: Nr:Datum:Temp:Abs-Feuchte:Windchill:Wind:
Aussen-T/F 1426 24-02-2008 21:20:03 6.2 C 5.81 g/m*3 6.2 C 0 km/h
1427 24-02-2008 21:32:02 6 C 5.73 g/m*3 6 C 0 km/h
1428 24-02-2008 21:44:03 6 C 5.88 g/m*3 6 C 0 km/h
1429 24-02-2008 21:56:02 5.9 C 5.91 g/m*3 5.9 C 0 km/h
1430 24-02-2008 22:08:02 5.7 C 5.84 g/m*3 5.7 C 0 km/h
1431 24-02-2008 22:21:02 5.5 C 5.83 g/m*3 5.5 C 0 km/h
1432 24-02-2008 22:33:02 5.5 C 5.83 g/m*3 5.5 C 0 km/h
1433 24-02-2008 22:45:03 5.6 C 5.94 g/m*3 5.6 C 0 km/h
1434 24-02-2008 22:57:03 5.2 C 5.71 g/m*3 5.2 C 0 km/h
1435 24-02-2008 23:09:03 5.1 C 5.68 g/m*3 5.1 C 0 km/h
1436 24-02-2008 23:21:03 4.9 C 5.6 g/m*3 4.9 C 0 km/h
1437 24-02-2008 23:33:03 4.9 C 5.67 g/m*3 4.9 C 0 km/h
1438 24-02-2008 23:45:03 5 C 5.64 g/m*3 5 C 0 km/h
1439 24-02-2008 23:57:03 4.9 C 5.74 g/m*3 4.9 C 0 km/h
1440 25-02-2008 00:09:03 4.8 C 5.77 g/m*3 4.8 C 0 km/h
1441 25-02-2008 00:21:03 5.1 C 5.88 g/m*3 5.1 C 0 km/h
1442 25-02-2008 00:33:03 5.3 C 6.03 g/m*3 5.3 C 0 km/h
1443 25-02-2008 00:45:03 5.2 C 5.99 g/m*3 5.2 C 0 km/h
1444 25-02-2008 00:57:03 5.2 C 5.99 g/m*3 5.2 C 0 km/h
1445 25-02-2008 01:09:03 5.4 C 6.14 g/m*3 5.4 C 0 km/h
1446 25-02-2008 01:21:03 5.3 C 6.03 g/m*3 5.3 C 0 km/h
1447 25-02-2008 01:33:03 5.5 C 6.18 g/m*3 5.5 C 0 km/h
1448 25-02-2008 01:45:03 5.3 C 6.03 g/m*3 5.3 C 0 km/h
1449 25-02-2008 01:57:03 6.7 C 6.61 g/m*3 6.7 C 0 km/h
1450 25-02-2008 02:09:03 7.1 C 6.4 g/m*3 7.1 C 0 km/h
Sensor: Nr:Datum:Temp:Abs-Feuchte:Windchill:Wind:
Aussen-T/F 1451 25-02-2008 02:21:03 7.3 C 6.16 g/m*3 7.3 C 0 km/h
1452 25-02-2008 02:33:03 7.5 C 6.16 g/m*3 7.5 C 0 km/h
1453 25-02-2008 02:45:04 7.6 C 6.12 g/m*3 7.6 C 0 km/h
1454 25-02-2008 02:57:04 7.6 C 6.12 g/m*3 7.6 C 0 km/h
1455 25-02-2008 03:09:04 7.6 C 6.04 g/m*3 7.6 C 0 km/h
1456 25-02-2008 03:21:04 7.8 C 6.04 g/m*3 7.8 C 0 km/h
1457 25-02-2008 03:33:04 7.9 C 6 g/m*3 7.9 C 0 km/h
1458 25-02-2008 03:45:04 8 C 5.87 g/m*3 8 C 0 km/h
1459 25-02-2008 03:57:04 8 C 5.87 g/m*3 8 C 0 km/h
1460 25-02-2008 04:09:04 8.1 C 5.91 g/m*3 8.1 C 0 km/h
1461 25-02-2008 04:21:04 8 C 6.04 g/m*3 8 C 0 km/h
1462 25-02-2008 04:33:04 8.2 C 6.11 g/m*3 8.2 C 0 km/h
1463 25-02-2008 04:45:04 8.2 C 6.11 g/m*3 8.2 C 0 km/h
1464 25-02-2008 04:57:04 8 C 6.28 g/m*3 8 C 0 km/h
1465 25-02-2008 05:09:04 8 C 6.45 g/m*3 8 C 0 km/h
1466 25-02-2008 05:21:04 7.9 C 6.65 g/m*3 7.9 C 0 km/h
1467 25-02-2008 05:33:04 8 C 6.7 g/m*3 8 C 0 km/h
1468 25-02-2008 05:45:04 7.9 C 6.82 g/m*3 7.9 C 0 km/h
1469 25-02-2008 05:57:04 7.9 C 6.9 g/m*3 7.9 C 0 km/h
1470 25-02-2008 06:09:04 7.8 C 6.86 g/m*3 7.8 C 0 km/h
1471 25-02-2008 06:21:04 7.8 C 6.86 g/m*3 7.8 C 0 km/h
1472 25-02-2008 06:33:05 7.9 C 6.98 g/m*3 7.9 C 0 km/h
1473 25-02-2008 06:45:05 8.1 C 6.91 g/m*3 8.1 C 0 km/h
1474 25-02-2008 06:57:05 8.2 C 6.87 g/m*3 8.2 C 0 km/h
1475 25-02-2008 07:09:02 8.2 C 6.78 g/m*3 8.2 C 0 km/h
Sensor: Nr:Datum:Temp:Abs-Feuchte:Windchill:Wind:
Aussen-T/F 1476 25-02-2008 07:21:02 8.2 C 6.78 g/m*3 8.2 C 0 km/h
1477 25-02-2008 07:33:03 8.1 C 6.74 g/m*3 8.1 C 0 km/h
1478 25-02-2008 07:45:03 8.1 C 6.82 g/m*3 8.1 C 0 km/h
1479 25-02-2008 07:57:03 8.1 C 6.82 g/m*3 8.1 C 0 km/h
1480 25-02-2008 08:09:02 8.2 C 6.87 g/m*3 8.2 C 0 km/h
1481 25-02-2008 08:21:02 8.2 C 6.95 g/m*3 8.2 C 0 km/h
1482 25-02-2008 08:33:02 8.2 C 6.87 g/m*3 8.2 C 0 km/h
1483 25-02-2008 08:45:02 8.5 C 7 g/m*3 8.5 C 0 km/h
1484 25-02-2008 08:57:02 8.5 C 6.83 g/m*3 8.5 C 0 km/h
1485 25-02-2008 09:09:03 8.7 C 6.4 g/m*3 8.7 C 0 km/h
1486 25-02-2008 09:21:02 8.9 C 6.31 g/m*3 8.9 C 0 km/h
1487 25-02-2008 09:33:02 8.9 C 6.13 g/m*3 8.9 C 0 km/h
1488 25-02-2008 09:45:02 9.1 C 6.12 g/m*3 9.1 C 0 km/h
1489 25-02-2008 09:57:02 9.1 C 5.94 g/m*3 9.1 C 0 km/h
1490 25-02-2008 10:09:02 9 C 5.82 g/m*3 9 C 0 km/h
1491 25-02-2008 10:21:02 9 C 5.73 g/m*3 9 C 0 km/h
1492 25-02-2008 10:33:02 9.1 C 5.86 g/m*3 9.1 C 0 km/h
1493 25-02-2008 10:45:02 9.3 C 5.84 g/m*3 9.3 C 0 km/h
1494 25-02-2008 10:57:03 9.5 C 5.92 g/m*3 9.5 C 0 km/h
1495 25-02-2008 11:09:01 9.5 C 5.73 g/m*3 9.5 C 0 km/h
1496 25-02-2008 11:21:02 9.8 C 5.57 g/m*3 9.8 C 0 km/h
1497 25-02-2008 11:33:01 9.8 C 5.29 g/m*3 9.8 C 0 km/h
1498 25-02-2008 11:45:02 10.2 C 5.42 g/m*3 10.2 C 0 km/h
1499 25-02-2008 11:57:02 10.9 C 5.17 g/m*3 10.9 C 0 km/h
1500 25-02-2008 12:09:02 10.4 C 5.11 g/m*3 10.4 C 0 km/h
Sensor: Nr:Datum:Temp:Abs-Feuchte:Windchill:Wind:
Aussen-T/F 1501 25-02-2008 12:21:02 10.4 C 5.3 g/m*3 10.4 C 0 km/h
1502 25-02-2008 12:33:02 11 C 5.1 g/m*3 11 C 0 km/h
1503 25-02-2008 12:45:03 11 C 5.1 g/m*3 11 C 0 km/h
1504 25-02-2008 12:57:04 11.2 C 5.07 g/m*3 11.2 C 0 km/h
1505 25-02-2008 13:09:02 11.5 C 5.06 g/m*3 11.5 C 0 km/h
1506 25-02-2008 13:21:02 12.4 C 5.03 g/m*3 12.4 C 0 km/h
1507 25-02-2008 13:33:03 12.8 C 5.04 g/m*3 12.8 C 0 km/h
1508 25-02-2008 13:45:02 13.1 C 4.79 g/m*3 13.1 C 0 km/h
1509 25-02-2008 13:57:02 14 C 4.95 g/m*3 14 C 0 km/h
1510 25-02-2008 14:09:02 14.7 C 4.78 g/m*3 14.7 C 0 km/h
1511 25-02-2008 14:21:02 14.8 C 4.81 g/m*3 14.8 C 0 km/h
1512 25-02-2008 14:33:02 14.6 C 4.63 g/m*3 14.6 C 0 km/h
1513 25-02-2008 14:45:02 14.9 C 4.59 g/m*3 14.9 C 0 km/h
1514 25-02-2008 14:57:02 15 C 4.49 g/m*3 15 C 0 km/h
1515 25-02-2008 15:09:02 14.8 C 4.56 g/m*3 14.8 C 0 km/h
1516 25-02-2008 15:21:01 15 C 4.74 g/m*3 15 C 0 km/h
1517 25-02-2008 15:33:02 15.3 C 4.57 g/m*3 15.3 C 0 km/h
1518 25-02-2008 15:45:02 15.6 C 4.52 g/m*3 15.6 C 0 km/h
1519 25-02-2008 15:57:02 15.8 C 4.44 g/m*3 15.8 C 0 km/h
1520 25-02-2008 16:09:02 15.9 C 4.47 g/m*3 15.9 C 0 km/h
1521 25-02-2008 16:21:02 15.9 C 4.33 g/m*3 15.9 C 0 km/h
1522 25-02-2008 16:33:02 14.8 C 4.43 g/m*3 14.8 C 0 km/h
1523 25-02-2008 16:45:02 14.3 C 4.55 g/m*3 14.3 C 0 km/h
1524 25-02-2008 16:57:02 13.9 C 5.15 g/m*3 13.9 C 0 km/h
1525 25-02-2008 17:09:02 13.5 C 5.26 g/m*3 13.5 C 0 km/h
Sensor: Nr:Datum:Temp:Abs-Feuchte:Windchill:Wind:
Aussen-T/F 1526 25-02-2008 17:21:02 13.2 C 5.51 g/m*3 13.2 C 0 km/h
1527 25-02-2008 17:33:02 12.7 C 5.57 g/m*3 12.7 C 0 km/h
1528 25-02-2008 17:45:01 12.2 C 5.61 g/m*3 12.2 C 0 km/h
1529 25-02-2008 17:57:01 11.7 C 5.75 g/m*3 11.7 C 0 km/h
1530 25-02-2008 18:09:02 11.1 C 5.74 g/m*3 11.1 C 0 km/h
1531 25-02-2008 18:21:01 10.8 C 5.83 g/m*3 10.8 C 0 km/h
1532 25-02-2008 18:33:02 10.7 C 5.89 g/m*3 10.7 C 0 km/h
1533 25-02-2008 18:45:02 10.4 C 5.88 g/m*3 10.4 C 0 km/h
1534 25-02-2008 18:57:02 10.4 C 5.98 g/m*3 10.4 C 0 km/h
1535 25-02-2008 19:09:02 10.6 C 5.95 g/m*3 10.6 C 0 km/h
1536 25-02-2008 19:21:01 10.6 C 5.95 g/m*3 10.6 C 0 km/h
1537 25-02-2008 19:33:01 10.5 C 5.92 g/m*3 10.5 C 0 km/h
1538 25-02-2008 19:45:03 10.5 C 6.01 g/m*3 10.5 C 0 km/h
1539 25-02-2008 19:57:03 10.5 C 6.01 g/m*3 10.5 C 0 km/h
1540 25-02-2008 20:09:02 10.7 C 6.09 g/m*3 10.7 C 0 km/h
1541 25-02-2008 20:21:02 10.7 C 6.09 g/m*3 10.7 C 0 km/h
1542 25-02-2008 20:33:03 10.6 C 6.05 g/m*3 10.6 C 0 km/h
1543 25-02-2008 20:45:02 10.6 C 6.15 g/m*3 10.6 C 0 km/h
1544 25-02-2008 20:57:02 10.7 C 6.09 g/m*3 10.7 C 0 km/h
1545 25-02-2008 21:09:02 10.8 C 6.13 g/m*3 10.8 C 0 km/h
1546 25-02-2008 21:21:02 10.8 C 6.03 g/m*3 10.8 C 0 km/h
1547 25-02-2008 21:33:02 10.5 C 6.01 g/m*3 10.5 C 0 km/h
1548 25-02-2008 21:45:02 10.1 C 6.05 g/m*3 10.1 C 0 km/h
1549 25-02-2008 21:57:02 10.1 C 6.15 g/m*3 10.1 C 0 km/h
1550 25-02-2008 22:09:02 10 C 6.11 g/m*3 10 C 0 km/h
Sensor: Nr:Datum:Temp:Abs-Feuchte:Windchill:Wind:
Aussen-T/F 1551 25-02-2008 22:21:02 10.1 C 6.24 g/m*3 10.1 C 0 km/h
1552 25-02-2008 22:33:02 10.1 C 6.24 g/m*3 10.1 C 0 km/h
1553 25-02-2008 22:45:02 10.2 C 6.38 g/m*3 10.2 C 0 km/h
1554 25-02-2008 22:57:02 10.2 C 6.38 g/m*3 10.2 C 0 km/h
1555 25-02-2008 23:09:02 10.2 C 6.38 g/m*3 10.2 C 0 km/h
1556 25-02-2008 23:21:02 10.1 C 6.34 g/m*3 10.1 C 0 km/h
1557 25-02-2008 23:33:02 10 C 6.3 g/m*3 10 C 0 km/h
1558 25-02-2008 23:45:02 10.1 C 6.43 g/m*3 10.1 C 0 km/h
1559 25-02-2008 23:57:02 10.2 C 6.38 g/m*3 10.2 C 0 km/h
1560 26-02-2008 00:09:02 10.3 C 6.42 g/m*3 10.3 C 0 km/h
1561 26-02-2008 00:21:02 10.4 C 6.55 g/m*3 10.4 C 0 km/h
1562 26-02-2008 00:33:02 10.5 C 6.6 g/m*3 10.5 C 0 km/h
1563 26-02-2008 00:45:02 10.4 C 6.55 g/m*3 10.4 C 0 km/h
1564 26-02-2008 00:57:02 10.5 C 6.6 g/m*3 10.5 C 0 km/h
1565 26-02-2008 01:09:02 10.1 C 6.52 g/m*3 10.1 C 0 km/h
1566 26-02-2008 01:21:02 9.7 C 6.55 g/m*3 9.7 C 0 km/h
1567 26-02-2008 01:33:02 9.4 C 6.6 g/m*3 9.4 C 0 km/h
1568 26-02-2008 01:45:01 9.7 C 6.82 g/m*3 9.7 C 0 km/h
1569 26-02-2008 01:57:01 10 C 6.77 g/m*3 10 C 0 km/h
1570 26-02-2008 02:09:01 9.8 C 6.77 g/m*3 9.8 C 0 km/h
1571 26-02-2008 02:21:02 9.7 C 6.82 g/m*3 9.7 C 0 km/h
1572 26-02-2008 02:33:02 9.9 C 6.82 g/m*3 9.9 C 0 km/h
1573 26-02-2008 02:46:03 10.2 C 6.85 g/m*3 10.2 C 0 km/h
1574 26-02-2008 02:58:03 10.4 C 6.84 g/m*3 10.4 C 0 km/h
1575 26-02-2008 03:10:03 10.8 C 6.82 g/m*3 10.8 C 0 km/h
Sensor: Nr:Datum:Temp:Abs-Feuchte:Windchill:Wind:
Aussen-T/F 1576 26-02-2008 03:22:03 10.7 C 6.68 g/m*3 10.7 C 0 km/h
1577 26-02-2008 03:34:02 10.7 C 6.78 g/m*3 10.7 C 0 km/h
1578 26-02-2008 03:46:02 10.6 C 6.73 g/m*3 10.6 C 0 km/h
1579 26-02-2008 03:58:02 10.5 C 6.69 g/m*3 10.5 C 0 km/h
1580 26-02-2008 04:10:02 10.4 C 6.75 g/m*3 10.4 C 0 km/h
1581 26-02-2008 04:22:02 10.5 C 6.89 g/m*3 10.5 C 0 km/h
1582 26-02-2008 04:34:02 10.5 C 6.89 g/m*3 10.5 C 0 km/h
1583 26-02-2008 04:46:02 10.5 C 6.79 g/m*3 10.5 C 0 km/h
1584 26-02-2008 04:58:02 10.4 C 6.75 g/m*3 10.4 C 0 km/h
1585 26-02-2008 05:10:01 10.3 C 6.7 g/m*3 10.3 C 0 km/h
1586 26-02-2008 05:22:02 10.6 C 6.83 g/m*3 10.6 C 0 km/h
1587 26-02-2008 05:34:02 10.6 C 6.73 g/m*3 10.6 C 0 km/h
1588 26-02-2008 05:46:02 10.5 C 6.69 g/m*3 10.5 C 0 km/h
1589 26-02-2008 05:58:02 10.4 C 6.75 g/m*3 10.4 C 0 km/h
1590 26-02-2008 06:10:03 10.4 C 6.75 g/m*3 10.4 C 0 km/h
1591 26-02-2008 06:22:02 10.4 C 6.65 g/m*3 10.4 C 0 km/h
1592 26-02-2008 06:34:02 10.4 C 6.55 g/m*3 10.4 C 0 km/h
1593 26-02-2008 06:46:01 10.4 C 6.55 g/m*3 10.4 C 0 km/h
1594 26-02-2008 06:58:01 10.3 C 6.51 g/m*3 10.3 C 0 km/h
1595 26-02-2008 07:10:01 10.1 C 6.43 g/m*3 10.1 C 0 km/h
1596 26-02-2008 07:22:02 10 C 6.39 g/m*3 10 C 0 km/h
1597 26-02-2008 07:34:01 10 C 6.39 g/m*3 10 C 0 km/h
1598 26-02-2008 07:46:02 10 C 6.39 g/m*3 10 C 0 km/h
1599 26-02-2008 07:58:02 10 C 6.39 g/m*3 10 C 0 km/h
1600 26-02-2008 08:10:01 10.2 C 6.47 g/m*3 10.2 C 0 km/h
Sensor: Nr:Datum:Temp:Abs-Feuchte:Windchill:Wind:
Aussen-T/F 1601 26-02-2008 08:22:02 10.5 C 6.5 g/m*3 10.5 C 0 km/h
1602 26-02-2008 08:34:02 10.8 C 6.42 g/m*3 10.8 C 0 km/h
1603 26-02-2008 08:46:02 11 C 6.31 g/m*3 11 C 0 km/h
1604 26-02-2008 08:58:02 11.1 C 6.14 g/m*3 11.1 C 0 km/h
1605 26-02-2008 09:10:02 11.4 C 5.95 g/m*3 11.4 C 0 km/h
1606 26-02-2008 09:22:02 11.7 C 5.86 g/m*3 11.7 C 0 km/h
1607 26-02-2008 09:34:02 11.9 C 5.82 g/m*3 11.9 C 0 km/h
1608 26-02-2008 09:46:02 12.2 C 5.5 g/m*3 12.2 C 0 km/h
1609 26-02-2008 09:58:02 12.6 C 5.42 g/m*3 12.6 C 0 km/h
1610 26-02-2008 10:10:02 13.1 C 5.25 g/m*3 13.1 C 0 km/h
1611 26-02-2008 10:22:02 13.5 C 5.26 g/m*3 13.5 C 0 km/h
1612 26-02-2008 10:34:02 13.5 C 5.26 g/m*3 13.5 C 0 km/h
1613 26-02-2008 10:46:01 13.5 C 5.26 g/m*3 13.5 C 0 km/h
1614 26-02-2008 10:58:01 13.7 C 5.33 g/m*3 13.7 C 0 km/h
1615 26-02-2008 11:10:01 13.7 C 5.33 g/m*3 13.7 C 0 km/h
1616 26-02-2008 11:22:02 13.8 C 5.36 g/m*3 13.8 C 0 km/h
1617 26-02-2008 11:34:01 13.7 C 5.45 g/m*3 13.7 C 0 km/h
1618 26-02-2008 11:46:02 13.7 C 5.45 g/m*3 13.7 C 0 km/h
1619 26-02-2008 11:58:02 13.6 C 5.41 g/m*3 13.6 C 0 km/h
1620 26-02-2008 12:10:01 13.5 C 5.5 g/m*3 13.5 C 0 km/h
1621 26-02-2008 12:22:02 13.4 C 5.46 g/m*3 13.4 C 0 km/h
1622 26-02-2008 12:34:02 13.4 C 5.58 g/m*3 13.4 C 0 km/h
1623 26-02-2008 12:46:02 13.4 C 5.58 g/m*3 13.4 C 0 km/h
1624 26-02-2008 12:58:02 13.4 C 5.58 g/m*3 13.4 C 0 km/h
1625 26-02-2008 13:10:02 13.4 C 5.7 g/m*3 13.4 C 0 km/h
Sensor: Nr:Datum:Temp:Abs-Feuchte:Windchill:Wind:
Aussen-T/F 1626 26-02-2008 13:22:02 13.4 C 5.81 g/m*3 13.4 C 0 km/h
1627 26-02-2008 13:34:02 13.4 C 5.81 g/m*3 13.4 C 0 km/h
1628 26-02-2008 13:46:02 13.5 C 5.97 g/m*3 13.5 C 0 km/h
1629 26-02-2008 13:58:02 13.5 C 6.08 g/m*3 13.5 C 0 km/h
1630 26-02-2008 14:10:02 13.5 C 6.08 g/m*3 13.5 C 0 km/h
1631 26-02-2008 14:22:03 13.4 C 6.04 g/m*3 13.4 C 0 km/h
1632 26-02-2008 14:34:02 13.4 C 6.16 g/m*3 13.4 C 0 km/h
1633 26-02-2008 14:46:02 13.4 C 6.16 g/m*3 13.4 C 0 km/h
1634 26-02-2008 14:58:02 13.4 C 6.16 g/m*3 13.4 C 0 km/h
1635 26-02-2008 15:10:01 13.2 C 6.09 g/m*3 13.2 C 0 km/h
1636 26-02-2008 15:22:02 13.2 C 6.2 g/m*3 13.2 C 0 km/h
1637 26-02-2008 15:34:01 13.1 C 6.05 g/m*3 13.1 C 0 km/h
1638 26-02-2008 15:46:02 13 C 6.12 g/m*3 13 C 0 km/h
1639 26-02-2008 15:58:02 12.9 C 6.2 g/m*3 12.9 C 0 km/h
1640 26-02-2008 16:10:01 12.8 C 6.16 g/m*3 12.8 C 0 km/h
1641 26-02-2008 16:22:02 12.7 C 6.23 g/m*3 12.7 C 0 km/h
1642 26-02-2008 16:34:02 12.4 C 6.45 g/m*3 12.4 C 0 km/h
1643 26-02-2008 16:46:02 12 C 6.5 g/m*3 12 C 0 km/h
1644 26-02-2008 16:58:02 12 C 6.5 g/m*3 12 C 0 km/h
1645 26-02-2008 17:10:02 11.8 C 6.63 g/m*3 11.8 C 0 km/h
1646 26-02-2008 17:22:02 11.8 C 6.74 g/m*3 11.8 C 0 km/h
1647 26-02-2008 17:34:02 11.2 C 6.99 g/m*3 11.2 C 0 km/h
1648 26-02-2008 17:46:01 10.9 C 7.16 g/m*3 10.9 C 0 km/h
1649 26-02-2008 17:58:01 10.8 C 7.22 g/m*3 10.8 C 0 km/h
1650 26-02-2008 18:10:01 10.5 C 7.37 g/m*3 10.5 C 0 km/h
Sensor: Nr:Datum:Temp:Abs-Feuchte:Windchill:Wind:
Aussen-T/F 1651 26-02-2008 18:22:01 10.4 C 7.61 g/m*3 10.4 C 0 km/h
1652 26-02-2008 18:34:02 10.4 C 7.61 g/m*3 10.4 C 0 km/h
1653 26-02-2008 18:46:02 10.5 C 7.57 g/m*3 10.5 C 0 km/h
1654 26-02-2008 18:58:02 10.4 C 7.52 g/m*3 10.4 C 0 km/h
1655 26-02-2008 19:10:02 10.4 C 7.52 g/m*3 10.4 C 0 km/h
1656 26-02-2008 19:22:02 10.5 C 7.57 g/m*3 10.5 C 0 km/h
1657 26-02-2008 19:34:02 10.5 C 7.57 g/m*3 10.5 C 0 km/h
1658 26-02-2008 19:46:02 10.3 C 7.57 g/m*3 10.3 C 0 km/h
1659 26-02-2008 19:58:02 10.1 C 7.66 g/m*3 10.1 C 0 km/h
1660 26-02-2008 20:10:02 10.1 C 7.75 g/m*3 10.1 C 0 km/h
1661 26-02-2008 20:22:02 10.1 C 7.75 g/m*3 10.1 C 0 km/h
1662 26-02-2008 20:34:02 10.2 C 7.8 g/m*3 10.2 C 0 km/h
1663 26-02-2008 20:46:02 10.1 C 7.75 g/m*3 10.1 C 0 km/h
1664 26-02-2008 20:58:02 9.8 C 7.33 g/m*3 9.8 C 0 km/h
1665 26-02-2008 21:10:03 9.7 C 6.27 g/m*3 9.7 C 0 km/h
1666 26-02-2008 21:22:03 9.3 C 6.2 g/m*3 9.3 C 0 km/h
1667 26-02-2008 21:34:02 9.4 C 6.15 g/m*3 9.4 C 0 km/h
1668 26-02-2008 21:46:02 9.2 C 6.16 g/m*3 9.2 C 0 km/h
1669 26-02-2008 21:58:02 9.3 C 6.2 g/m*3 9.3 C 0 km/h
1670 26-02-2008 22:10:02 9.3 C 6.29 g/m*3 9.3 C 0 km/h
1671 26-02-2008 22:23:03 9.2 C 6.16 g/m*3 9.2 C 0 km/h
1672 26-02-2008 22:35:04 9 C 6.17 g/m*3 9 C 0 km/h
1673 26-02-2008 22:47:04 8.9 C 6.22 g/m*3 8.9 C 0 km/h
1674 26-02-2008 22:59:04 8.6 C 6.02 g/m*3 8.6 C 0 km/h
1675 26-02-2008 23:11:04 8.7 C 5.97 g/m*3 8.7 C 0 km/h
Sensor: Nr:Datum:Temp:Abs-Feuchte:Windchill:Wind:
Aussen-T/F 1676 26-02-2008 23:23:04 8.4 C 5.94 g/m*3 8.4 C 0 km/h
1677 26-02-2008 23:35:04 8.1 C 5.91 g/m*3 8.1 C 0 km/h
1678 26-02-2008 23:47:04 8.1 C 5.74 g/m*3 8.1 C 0 km/h
1679 26-02-2008 23:59:04 8 C 5.79 g/m*3 8 C 0 km/h
1680 27-02-2008 00:11:04 7.8 C 5.63 g/m*3 7.8 C 0 km/h
1681 27-02-2008 00:23:04 7.8 C 5.14 g/m*3 7.8 C 0 km/h
1682 27-02-2008 00:35:04 7.6 C 5.08 g/m*3 7.6 C 0 km/h
1683 27-02-2008 00:47:04 7.6 C 4.91 g/m*3 7.6 C 0 km/h
1684 27-02-2008 00:59:04 7.8 C 4.82 g/m*3 7.8 C 0 km/h
1685 27-02-2008 01:11:04 7.6 C 4.67 g/m*3 7.6 C 0 km/h
1686 27-02-2008 01:23:04 7.4 C 4.69 g/m*3 7.4 C 0 km/h
1687 27-02-2008 01:35:04 7.4 C 4.69 g/m*3 7.4 C 0 km/h
1688 27-02-2008 01:47:04 7.5 C 4.72 g/m*3 7.5 C 0 km/h
1689 27-02-2008 01:59:04 7.4 C 4.69 g/m*3 7.4 C 0 km/h
1690 27-02-2008 02:11:04 7.4 C 4.69 g/m*3 7.4 C 0 km/h
1691 27-02-2008 02:23:04 7.4 C 4.69 g/m*3 7.4 C 0 km/h
1692 27-02-2008 02:35:04 7.3 C 4.66 g/m*3 7.3 C 0 km/h
1693 27-02-2008 02:47:05 7.1 C 4.68 g/m*3 7.1 C 0 km/h
1694 27-02-2008 02:59:05 6.9 C 4.77 g/m*3 6.9 C 0 km/h
1695 27-02-2008 03:11:05 6.9 C 4.77 g/m*3 6.9 C 0 km/h
1696 27-02-2008 03:23:05 6.9 C 4.62 g/m*3 6.9 C 0 km/h
1697 27-02-2008 03:35:05 6.9 C 4.54 g/m*3 6.9 C 0 km/h
1698 27-02-2008 03:47:05 7 C 4.42 g/m*3 7 C 0 km/h
1699 27-02-2008 03:59:05 6.9 C 4.46 g/m*3 6.9 C 0 km/h
1700 27-02-2008 04:11:05 6.9 C 4.54 g/m*3 6.9 C 0 km/h
Sensor: Nr:Datum:Temp:Abs-Feuchte:Windchill:Wind:
Aussen-T/F 1701 27-02-2008 04:23:05 6.9 C 4.54 g/m*3 6.9 C 0 km/h
1702 27-02-2008 04:35:05 6.9 C 4.54 g/m*3 6.9 C 0 km/h
1703 27-02-2008 04:47:05 6.7 C 4.64 g/m*3 6.7 C 0 km/h
1704 27-02-2008 04:59:05 6.4 C 4.69 g/m*3 6.4 C 0 km/h
1705 27-02-2008 05:11:05 6.3 C 4.74 g/m*3 6.3 C 0 km/h
1706 27-02-2008 05:23:05 6.2 C 4.78 g/m*3 6.2 C 0 km/h
1707 27-02-2008 05:35:05 5.9 C 4.76 g/m*3 5.9 C 0 km/h
1708 27-02-2008 05:47:05 5.9 C 4.76 g/m*3 5.9 C 0 km/h
1709 27-02-2008 05:59:05 5.7 C 4.77 g/m*3 5.7 C 0 km/h
1710 27-02-2008 06:11:05 5.4 C 4.81 g/m*3 5.4 C 0 km/h
1711 27-02-2008 06:23:05 5.4 C 4.81 g/m*3 5.4 C 0 km/h
1712 27-02-2008 06:35:05 5.6 C 4.81 g/m*3 5.6 C 0 km/h
1713 27-02-2008 06:47:06 5.6 C 4.81 g/m*3 5.6 C 0 km/h
1714 27-02-2008 06:59:06 5.6 C 4.81 g/m*3 5.6 C 0 km/h
1715 27-02-2008 07:11:03 5.6 C 4.81 g/m*3 5.6 C 0 km/h
1716 27-02-2008 07:23:02 5.4 C 4.81 g/m*3 5.4 C 0 km/h
1717 27-02-2008 07:35:03 5.2 C 4.75 g/m*3 5.2 C 0 km/h
1718 27-02-2008 07:47:03 5.1 C 4.79 g/m*3 5.1 C 0 km/h
1719 27-02-2008 07:59:03 5.1 C 4.86 g/m*3 5.1 C 0 km/h
1720 27-02-2008 08:11:02 5.2 C 4.82 g/m*3 5.2 C 0 km/h
1721 27-02-2008 08:23:02 5.9 C 4.83 g/m*3 5.9 C 0 km/h
1722 27-02-2008 08:35:03 6.3 C 4.66 g/m*3 6.3 C 0 km/h
1723 27-02-2008 08:47:03 6.4 C 4.69 g/m*3 6.4 C 0 km/h
1724 27-02-2008 08:59:03 6.8 C 4.82 g/m*3 6.8 C 0 km/h
1725 27-02-2008 09:11:02 6.7 C 4.71 g/m*3 6.7 C 0 km/h
Sensor: Nr:Datum:Temp:Abs-Feuchte:Windchill:Wind:
Aussen-T/F 1726 27-02-2008 09:23:02 6.8 C 4.74 g/m*3 6.8 C 0 km/h
1727 27-02-2008 09:35:03 6.9 C 4.7 g/m*3 6.9 C 0 km/h
1728 27-02-2008 09:47:02 7 C 4.65 g/m*3 7 C 0 km/h
1729 27-02-2008 09:59:02 7.4 C 4.69 g/m*3 7.4 C 0 km/h
1730 27-02-2008 10:11:02 7.5 C 4.64 g/m*3 7.5 C 0 km/h
1731 27-02-2008 10:23:02 7.8 C 4.57 g/m*3 7.8 C 0 km/h
1732 27-02-2008 10:35:02 8.5 C 4.53 g/m*3 8.5 C 0 km/h
1733 27-02-2008 10:47:02 8.9 C 4.47 g/m*3 8.9 C 0 km/h
1734 27-02-2008 10:59:02 8.8 C 4.35 g/m*3 8.8 C 0 km/h
1735 27-02-2008 11:11:02 8.7 C 4.41 g/m*3 8.7 C 0 km/h
1736 27-02-2008 11:23:02 8.9 C 4.38 g/m*3 8.9 C 0 km/h
1737 27-02-2008 11:35:01 9 C 4.32 g/m*3 9 C 0 km/h
1738 27-02-2008 11:47:01 9.2 C 4.38 g/m*3 9.2 C 0 km/h
1739 27-02-2008 11:59:01 9.4 C 4.25 g/m*3 9.4 C 0 km/h
1740 27-02-2008 12:11:02 9.8 C 4.18 g/m*3 9.8 C 0 km/h
1741 27-02-2008 12:23:02 9.6 C 3.94 g/m*3 9.6 C 0 km/h
1742 27-02-2008 12:35:01 9.8 C 4.18 g/m*3 9.8 C 0 km/h
1743 27-02-2008 12:47:01 9.8 C 4.18 g/m*3 9.8 C 0 km/h
1744 27-02-2008 12:59:01 10 C 4.04 g/m*3 10 C 0 km/h
1745 27-02-2008 13:11:02 10.1 C 4.07 g/m*3 10.1 C 0 km/h
1746 27-02-2008 13:23:01 10 C 3.85 g/m*3 10 C 0 km/h
1747 27-02-2008 13:35:02 10 C 3.95 g/m*3 10 C 0 km/h
1748 27-02-2008 13:47:03 10.4 C 3.86 g/m*3 10.4 C 0 km/h
1749 27-02-2008 13:59:03 10.4 C 3.95 g/m*3 10.4 C 0 km/h
1750 27-02-2008 14:11:02 10.1 C 3.97 g/m*3 10.1 C 0 km/h
Sensor: Nr:Datum:Temp:Abs-Feuchte:Windchill:Wind:
Aussen-T/F 1751 27-02-2008 14:23:02 10.1 C 3.88 g/m*3 10.1 C 0 km/h
1752 27-02-2008 14:35:03 10.1 C 3.88 g/m*3 10.1 C 0 km/h
1753 27-02-2008 14:47:02 11.3 C 3.98 g/m*3 11.3 C 0 km/h
1754 27-02-2008 14:59:02 10.9 C 3.98 g/m*3 10.9 C 0 km/h
1755 27-02-2008 15:11:02 11.8 C 3.89 g/m*3 11.8 C 0 km/h
1756 27-02-2008 15:23:02 11.2 C 3.75 g/m*3 11.2 C 0 km/h
1757 27-02-2008 15:35:02 10.9 C 3.68 g/m*3 10.9 C 0 km/h
1758 27-02-2008 15:47:02 11.1 C 3.73 g/m*3 11.1 C 0 km/h
1759 27-02-2008 15:59:02 10.6 C 3.9 g/m*3 10.6 C 0 km/h
1760 27-02-2008 16:11:02 10.7 C 3.83 g/m*3 10.7 C 0 km/h
1761 27-02-2008 16:23:02 10.6 C 3.71 g/m*3 10.6 C 0 km/h
1762 27-02-2008 16:35:02 10.8 C 3.66 g/m*3 10.8 C 0 km/h
1763 27-02-2008 16:47:02 11 C 3.5 g/m*3 11 C 0 km/h
1764 27-02-2008 16:59:02 10.7 C 3.54 g/m*3 10.7 C 0 km/h
1765 27-02-2008 17:11:01 10.8 C 3.85 g/m*3 10.8 C 0 km/h
1766 27-02-2008 17:23:02 10.6 C 3.71 g/m*3 10.6 C 0 km/h
1767 27-02-2008 17:35:02 10.4 C 3.66 g/m*3 10.4 C 0 km/h
1768 27-02-2008 17:47:02 10.1 C 3.69 g/m*3 10.1 C 0 km/h
1769 27-02-2008 17:59:02 9.7 C 3.87 g/m*3 9.7 C 0 km/h
1770 27-02-2008 18:11:01 9.3 C 4.04 g/m*3 9.3 C 0 km/h
1771 27-02-2008 18:23:01 8.8 C 4.09 g/m*3 8.8 C 0 km/h
1772 27-02-2008 18:35:02 8.6 C 4.04 g/m*3 8.6 C 0 km/h
1773 27-02-2008 18:47:01 8.3 C 4.05 g/m*3 8.3 C 0 km/h
1774 27-02-2008 18:59:01 7.9 C 4.11 g/m*3 7.9 C 0 km/h
1775 27-02-2008 19:11:02 7.6 C 4.11 g/m*3 7.6 C 0 km/h
Sensor: Nr:Datum:Temp:Abs-Feuchte:Windchill:Wind:
Aussen-T/F 1776 27-02-2008 19:23:01 7.3 C 4.03 g/m*3 7.3 C 0 km/h
1777 27-02-2008 19:35:01 7.1 C 4.06 g/m*3 7.1 C 0 km/h
1778 27-02-2008 19:47:01 6.9 C 4.08 g/m*3 6.9 C 0 km/h
1779 27-02-2008 19:59:01 6.7 C 4.1 g/m*3 6.7 C 0 km/h
1780 27-02-2008 20:11:02 6.6 C 4.08 g/m*3 6.6 C 0 km/h
1781 27-02-2008 20:23:01 6.8 C 4.13 g/m*3 6.8 C 0 km/h
1782 27-02-2008 20:35:01 6.6 C 4.15 g/m*3 6.6 C 0 km/h
1783 27-02-2008 20:47:01 6.3 C 4.15 g/m*3 6.3 C 0 km/h
1784 27-02-2008 20:59:01 6 C 4.14 g/m*3 6 C 0 km/h
1785 27-02-2008 21:11:01 5.9 C 4.33 g/m*3 5.9 C 0 km/h
1786 27-02-2008 21:23:02 5.8 C 4.37 g/m*3 5.8 C 0 km/h
1787 27-02-2008 21:35:01 5.7 C 4.34 g/m*3 5.7 C 0 km/h
1788 27-02-2008 21:47:02 5.7 C 4.34 g/m*3 5.7 C 0 km/h
1789 27-02-2008 21:59:02 5.3 C 4.3 g/m*3 5.3 C 0 km/h
1790 27-02-2008 22:11:02 5.1 C 4.31 g/m*3 5.1 C 0 km/h
1791 27-02-2008 22:23:01 5 C 4.35 g/m*3 5 C 0 km/h
1792 27-02-2008 22:35:02 5 C 4.35 g/m*3 5 C 0 km/h
1793 27-02-2008 22:47:02 5 C 4.35 g/m*3 5 C 0 km/h
1794 27-02-2008 22:59:02 5.1 C 4.38 g/m*3 5.1 C 0 km/h
1795 27-02-2008 23:11:01 5.4 C 4.4 g/m*3 5.4 C 0 km/h
1796 27-02-2008 23:24:02 5.5 C 4.42 g/m*3 5.5 C 0 km/h
1797 27-02-2008 23:36:02 5.6 C 4.45 g/m*3 5.6 C 0 km/h
1798 27-02-2008 23:48:02 5.7 C 4.41 g/m*3 5.7 C 0 km/h
1799 28-02-2008 00:00:02 5.7 C 4.41 g/m*3 5.7 C 0 km/h
1800 28-02-2008 00:12:02 5.7 C 4.48 g/m*3 5.7 C 0 km/h
Sensor: Nr:Datum:Temp:Abs-Feuchte:Windchill:Wind:
Aussen-T/F 1801 28-02-2008 00:24:02 5.7 C 4.48 g/m*3 5.7 C 0 km/h
1802 28-02-2008 00:36:02 5.8 C 4.51 g/m*3 5.8 C 0 km/h
1803 28-02-2008 00:48:02 5.8 C 4.51 g/m*3 5.8 C 0 km/h
1804 28-02-2008 01:00:02 5.8 C 4.51 g/m*3 5.8 C 0 km/h
1805 28-02-2008 01:12:02 5.9 C 4.54 g/m*3 5.9 C 0 km/h
1806 28-02-2008 01:24:03 6 C 4.5 g/m*3 6 C 0 km/h
1807 28-02-2008 01:36:03 6 C 4.5 g/m*3 6 C 0 km/h
1808 28-02-2008 01:48:03 5.9 C 4.54 g/m*3 5.9 C 0 km/h
1809 28-02-2008 02:00:03 5.9 C 4.61 g/m*3 5.9 C 0 km/h
1810 28-02-2008 02:12:03 5.8 C 4.58 g/m*3 5.8 C 0 km/h
1811 28-02-2008 02:24:03 5.7 C 4.63 g/m*3 5.7 C 0 km/h
1812 28-02-2008 02:36:03 5.3 C 4.57 g/m*3 5.3 C 0 km/h
1813 28-02-2008 02:48:03 5 C 4.48 g/m*3 5 C 0 km/h
1814 28-02-2008 03:00:03 4.9 C 4.59 g/m*3 4.9 C 0 km/h
1815 28-02-2008 03:12:03 4.8 C 4.56 g/m*3 4.8 C 0 km/h
1816 28-02-2008 03:24:03 4.7 C 4.53 g/m*3 4.7 C 0 km/h
1817 28-02-2008 03:36:03 4.5 C 4.47 g/m*3 4.5 C 0 km/h
1818 28-02-2008 03:48:03 4.4 C 4.51 g/m*3 4.4 C 0 km/h
1819 28-02-2008 04:00:03 4 C 4.39 g/m*3 4 C 0 km/h
1820 28-02-2008 04:12:03 3.9 C 4.48 g/m*3 3.9 C 0 km/h
1821 28-02-2008 04:24:03 4.1 C 4.48 g/m*3 4.1 C 0 km/h
1822 28-02-2008 04:36:03 4.2 C 4.57 g/m*3 4.2 C 0 km/h
1823 28-02-2008 04:48:03 4.3 C 4.67 g/m*3 4.3 C 0 km/h
1824 28-02-2008 05:00:03 4.4 C 4.7 g/m*3 4.4 C 0 km/h
1825 28-02-2008 05:12:04 4.3 C 4.67 g/m*3 4.3 C 0 km/h
Sensor: Nr:Datum:Temp:Abs-Feuchte:Windchill:Wind:
Aussen-T/F 1826 28-02-2008 05:24:04 4.5 C 4.73 g/m*3 4.5 C 0 km/h
1827 28-02-2008 05:36:04 4.1 C 4.61 g/m*3 4.1 C 0 km/h
1828 28-02-2008 05:48:04 4.3 C 4.67 g/m*3 4.3 C 0 km/h
1829 28-02-2008 06:00:04 4.5 C 4.67 g/m*3 4.5 C 0 km/h
1830 28-02-2008 06:12:04 4.4 C 4.57 g/m*3 4.4 C 0 km/h
1831 28-02-2008 06:24:04 4.7 C 4.66 g/m*3 4.7 C 0 km/h
1832 28-02-2008 06:36:04 4.8 C 4.56 g/m*3 4.8 C 0 km/h
1833 28-02-2008 06:48:04 4.9 C 4.59 g/m*3 4.9 C 0 km/h
1834 28-02-2008 07:00:04 4.9 C 4.66 g/m*3 4.9 C 0 km/h
1835 28-02-2008 07:12:02 5 C 4.55 g/m*3 5 C 0 km/h
1836 28-02-2008 07:24:02 5.1 C 4.58 g/m*3 5.1 C 0 km/h
1837 28-02-2008 07:36:01 5.2 C 4.54 g/m*3 5.2 C 0 km/h
1838 28-02-2008 07:48:02 5.1 C 4.58 g/m*3 5.1 C 0 km/h
1839 28-02-2008 08:00:02 5.3 C 4.64 g/m*3 5.3 C 0 km/h
1840 28-02-2008 08:12:02 5.5 C 4.64 g/m*3 5.5 C 0 km/h
1841 28-02-2008 08:24:02 5.6 C 4.67 g/m*3 5.6 C 0 km/h
1842 28-02-2008 08:36:02 5.8 C 4.66 g/m*3 5.8 C 0 km/h
1843 28-02-2008 08:48:02 5.8 C 4.73 g/m*3 5.8 C 0 km/h
1844 28-02-2008 09:00:02 5.9 C 4.69 g/m*3 5.9 C 0 km/h
1845 28-02-2008 09:12:02 6 C 4.65 g/m*3 6 C 0 km/h
1846 28-02-2008 09:24:01 6.2 C 4.56 g/m*3 6.2 C 0 km/h
1847 28-02-2008 09:36:01 6.6 C 4.6 g/m*3 6.6 C 0 km/h
1848 28-02-2008 09:48:01 6.9 C 4.7 g/m*3 6.9 C 0 km/h
1849 28-02-2008 10:00:01 7.1 C 4.6 g/m*3 7.1 C 0 km/h
1850 28-02-2008 10:12:02 7.4 C 4.61 g/m*3 7.4 C 0 km/h
Sensor: Nr:Datum:Temp:Abs-Feuchte:Windchill:Wind:
Aussen-T/F 1851 28-02-2008 10:24:01 7.6 C 4.59 g/m*3 7.6 C 0 km/h
1852 28-02-2008 10:36:01 8 C 4.55 g/m*3 8 C 0 km/h
1853 28-02-2008 10:48:01 8.2 C 4.61 g/m*3 8.2 C 0 km/h
1854 28-02-2008 11:00:01 8.5 C 4.53 g/m*3 8.5 C 0 km/h
1855 28-02-2008 11:12:01 9 C 4.58 g/m*3 9 C 0 km/h
1856 28-02-2008 11:24:02 9.3 C 4.22 g/m*3 9.3 C 0 km/h
1857 28-02-2008 11:36:01 9.3 C 4.04 g/m*3 9.3 C 0 km/h
1858 28-02-2008 11:48:02 9.6 C 3.76 g/m*3 9.6 C 0 km/h
1859 28-02-2008 12:00:02 9.8 C 3.34 g/m*3 9.8 C 0 km/h
1860 28-02-2008 12:12:02 9.8 C 2.97 g/m*3 9.8 C 0 km/h
1861 28-02-2008 12:24:02 10 C 3.01 g/m*3 10 C 0 km/h
1862 28-02-2008 12:36:01 10.3 C 3.06 g/m*3 10.3 C 0 km/h
1863 28-02-2008 12:48:01 10.8 C 3.06 g/m*3 10.8 C 0 km/h
1864 28-02-2008 13:00:01 11 C 2.9 g/m*3 11 C 0 km/h
1865 28-02-2008 13:12:02 11.2 C 2.94 g/m*3 11.2 C 0 km/h
1866 28-02-2008 13:24:02 11.4 C 3.08 g/m*3 11.4 C 0 km/h
1867 28-02-2008 13:36:02 11.6 C 3.01 g/m*3 11.6 C 0 km/h
1868 28-02-2008 13:48:02 11.5 C 3 g/m*3 11.5 C 0 km/h
1869 28-02-2008 14:00:02 11.7 C 3.14 g/m*3 11.7 C 0 km/h
1870 28-02-2008 14:12:02 11.8 C 3.16 g/m*3 11.8 C 0 km/h
1871 28-02-2008 14:24:02 11.8 C 3.05 g/m*3 11.8 C 0 km/h
1872 28-02-2008 14:36:02 11.8 C 3.05 g/m*3 11.8 C 0 km/h
1873 28-02-2008 14:48:02 12.2 C 3.13 g/m*3 12.2 C 0 km/h
1874 28-02-2008 15:00:02 12.4 C 3.06 g/m*3 12.4 C 0 km/h
1875 28-02-2008 15:12:02 12.4 C 3.06 g/m*3 12.4 C 0 km/h
Sensor: Nr:Datum:Temp:Abs-Feuchte:Windchill:Wind:
Aussen-T/F 1876 28-02-2008 15:24:02 12.3 C 3.15 g/m*3 12.3 C 0 km/h
1877 28-02-2008 15:36:01 11.9 C 3.28 g/m*3 11.9 C 0 km/h
1878 28-02-2008 15:48:01 11.8 C 3.26 g/m*3 11.8 C 0 km/h
1879 28-02-2008 16:00:01 11.7 C 3.35 g/m*3 11.7 C 0 km/h
1880 28-02-2008 16:12:02 11.7 C 3.35 g/m*3 11.7 C 0 km/h
1881 28-02-2008 16:24:02 11.8 C 3.37 g/m*3 11.8 C 0 km/h
1882 28-02-2008 16:36:02 11.7 C 3.45 g/m*3 11.7 C 0 km/h
1883 28-02-2008 16:48:02 11.4 C 3.49 g/m*3 11.4 C 0 km/h
1884 28-02-2008 17:00:02 11.4 C 3.59 g/m*3 11.4 C 0 km/h
1885 28-02-2008 17:12:02 11.3 C 3.57 g/m*3 11.3 C 0 km/h
1886 28-02-2008 17:24:02 11.2 C 3.65 g/m*3 11.2 C 0 km/h
1887 28-02-2008 17:36:02 11.1 C 3.63 g/m*3 11.1 C 0 km/h
1888 28-02-2008 17:48:02 10.7 C 4.22 g/m*3 10.7 C 0 km/h
1889 28-02-2008 18:00:02 10 C 4.79 g/m*3 10 C 0 km/h
1890 28-02-2008 18:12:02 9.1 C 5.23 g/m*3 9.1 C 0 km/h
1891 28-02-2008 18:24:02 8.7 C 5.36 g/m*3 8.7 C 0 km/h
1892 28-02-2008 18:36:01 8.5 C 5.64 g/m*3 8.5 C 0 km/h
1893 28-02-2008 18:48:01 8.2 C 5.78 g/m*3 8.2 C 0 km/h
1894 28-02-2008 19:00:01 7.9 C 6.16 g/m*3 7.9 C 0 km/h
1895 28-02-2008 19:12:02 7.5 C 6.32 g/m*3 7.5 C 0 km/h
1896 28-02-2008 19:24:02 7.5 C 6.56 g/m*3 7.5 C 0 km/h
1897 28-02-2008 19:36:02 7.5 C 6.72 g/m*3 7.5 C 0 km/h
1898 28-02-2008 19:48:02 7.5 C 6.72 g/m*3 7.5 C 0 km/h
1899 28-02-2008 20:00:02 7.7 C 6.81 g/m*3 7.7 C 0 km/h
1900 28-02-2008 20:12:02 7.5 C 6.8 g/m*3 7.5 C 0 km/h
Sensor: Nr:Datum:Temp:Abs-Feuchte:Windchill:Wind:
Aussen-T/F 1901 28-02-2008 20:24:02 7.6 C 6.93 g/m*3 7.6 C 0 km/h
1902 28-02-2008 20:36:02 7.5 C 6.96 g/m*3 7.5 C 0 km/h
1903 28-02-2008 20:48:01 7.5 C 6.96 g/m*3 7.5 C 0 km/h
1904 28-02-2008 21:00:01 7.4 C 6.92 g/m*3 7.4 C 0 km/h
1905 28-02-2008 21:12:01 7.4 C 7 g/m*3 7.4 C 0 km/h
1906 28-02-2008 21:24:01 7.3 C 6.95 g/m*3 7.3 C 0 km/h
1907 28-02-2008 21:36:02 7.3 C 6.95 g/m*3 7.3 C 0 km/h
1908 28-02-2008 21:48:02 7.2 C 6.99 g/m*3 7.2 C 0 km/h
1909 28-02-2008 22:00:02 7.2 C 6.99 g/m*3 7.2 C 0 km/h
1910 28-02-2008 22:12:02 7.2 C 6.99 g/m*3 7.2 C 0 km/h
1911 28-02-2008 22:24:02 7.2 C 6.99 g/m*3 7.2 C 0 km/h
1912 28-02-2008 22:36:03 7.2 C 7.06 g/m*3 7.2 C 0 km/h
1913 28-02-2008 22:49:04 7.2 C 7.06 g/m*3 7.2 C 0 km/h
1914 28-02-2008 23:01:04 7.2 C 7.06 g/m*3 7.2 C 0 km/h
1915 28-02-2008 23:13:04 7.1 C 7.02 g/m*3 7.1 C 0 km/h
1916 28-02-2008 23:25:04 7.1 C 7.02 g/m*3 7.1 C 0 km/h
1917 28-02-2008 23:37:04 7.1 C 7.02 g/m*3 7.1 C 0 km/h
1918 28-02-2008 23:49:04 7.1 C 7.1 g/m*3 7.1 C 0 km/h
1919 29-02-2008 00:01:04 7.2 C 7.14 g/m*3 7.2 C 0 km/h
1920 29-02-2008 00:13:04 7.1 C 7.1 g/m*3 7.1 C 0 km/h
1921 29-02-2008 00:25:04 7 C 7.05 g/m*3 7 C 0 km/h
1922 29-02-2008 00:37:04 7 C 7.05 g/m*3 7 C 0 km/h
1923 29-02-2008 00:49:04 7 C 7.05 g/m*3 7 C 0 km/h
1924 29-02-2008 01:01:04 6.8 C 7.04 g/m*3 6.8 C 0 km/h
1925 29-02-2008 01:13:05 6.9 C 7.16 g/m*3 6.9 C 0 km/h
Sensor: Nr:Datum:Temp:Abs-Feuchte:Windchill:Wind:
Aussen-T/F 1926 29-02-2008 01:25:05 6.9 C 7.16 g/m*3 6.9 C 0 km/h
1927 29-02-2008 01:37:05 7 C 7.13 g/m*3 7 C 0 km/h
1928 29-02-2008 01:49:05 7 C 7.21 g/m*3 7 C 0 km/h
1929 29-02-2008 02:01:05 7 C 7.21 g/m*3 7 C 0 km/h
1930 29-02-2008 02:13:05 7 C 7.21 g/m*3 7 C 0 km/h
1931 29-02-2008 02:25:05 7 C 7.21 g/m*3 7 C 0 km/h
1932 29-02-2008 02:37:05 7.1 C 7.25 g/m*3 7.1 C 0 km/h
1933 29-02-2008 02:49:05 7.1 C 7.25 g/m*3 7.1 C 0 km/h
1934 29-02-2008 03:01:05 7.1 C 7.25 g/m*3 7.1 C 0 km/h
1935 29-02-2008 03:13:05 7.1 C 7.25 g/m*3 7.1 C 0 km/h
1936 29-02-2008 03:25:05 7 C 7.21 g/m*3 7 C 0 km/h
1937 29-02-2008 03:37:05 7 C 7.21 g/m*3 7 C 0 km/h
1938 29-02-2008 03:49:05 7 C 7.21 g/m*3 7 C 0 km/h
1939 29-02-2008 04:01:05 7 C 7.21 g/m*3 7 C 0 km/h
1940 29-02-2008 04:13:05 6.9 C 7.24 g/m*3 6.9 C 0 km/h
1941 29-02-2008 04:25:05 6.9 C 7.24 g/m*3 6.9 C 0 km/h
1942 29-02-2008 04:37:05 7 C 7.28 g/m*3 7 C 0 km/h
1943 29-02-2008 04:49:05 7 C 7.28 g/m*3 7 C 0 km/h
1944 29-02-2008 05:01:06 6.9 C 7.24 g/m*3 6.9 C 0 km/h
1945 29-02-2008 05:13:06 6.9 C 7.31 g/m*3 6.9 C 0 km/h
1946 29-02-2008 05:25:06 7 C 7.28 g/m*3 7 C 0 km/h
1947 29-02-2008 05:37:06 7 C 7.28 g/m*3 7 C 0 km/h
1948 29-02-2008 05:49:06 7.1 C 7.33 g/m*3 7.1 C 0 km/h
1949 29-02-2008 06:01:06 7.1 C 7.33 g/m*3 7.1 C 0 km/h
1950 29-02-2008 06:13:06 7.1 C 7.33 g/m*3 7.1 C 0 km/h
Sensor: Nr:Datum:Temp:Abs-Feuchte:Windchill:Wind:
Aussen-T/F 1951 29-02-2008 06:25:06 7.1 C 7.41 g/m*3 7.1 C 0 km/h
1952 29-02-2008 06:37:06 7.1 C 7.41 g/m*3 7.1 C 0 km/h
1953 29-02-2008 06:49:01 7.1 C 7.41 g/m*3 7.1 C 0 km/h
1954 29-02-2008 07:01:02 7.1 C 7.41 g/m*3 7.1 C 0 km/h
1955 29-02-2008 07:13:02 7 C 7.36 g/m*3 7 C 0 km/h
1956 29-02-2008 07:25:01 7.1 C 7.41 g/m*3 7.1 C 0 km/h
1957 29-02-2008 07:37:01 7.2 C 7.46 g/m*3 7.2 C 0 km/h
1958 29-02-2008 07:49:01 7.3 C 7.51 g/m*3 7.3 C 0 km/h
1959 29-02-2008 08:01:02 7.4 C 7.55 g/m*3 7.4 C 0 km/h
1960 29-02-2008 08:13:02 7.3 C 7.51 g/m*3 7.3 C 0 km/h
1961 29-02-2008 08:25:01 7.4 C 7.55 g/m*3 7.4 C 0 km/h
1962 29-02-2008 08:37:01 7.4 C 7.55 g/m*3 7.4 C 0 km/h
1963 29-02-2008 08:49:02 7.4 C 7.55 g/m*3 7.4 C 0 km/h
1964 29-02-2008 09:01:02 7.4 C 7.55 g/m*3 7.4 C 0 km/h
1965 29-02-2008 09:13:03 7.4 C 7.55 g/m*3 7.4 C 0 km/h
1966 29-02-2008 09:25:02 7.8 C 7.75 g/m*3 7.8 C 0 km/h
1967 29-02-2008 09:37:03 7.8 C 7.75 g/m*3 7.8 C 0 km/h
1968 29-02-2008 09:49:02 7.7 C 7.7 g/m*3 7.7 C 0 km/h
1969 29-02-2008 10:01:02 7.9 C 7.8 g/m*3 7.9 C 0 km/h
1970 29-02-2008 10:13:02 8 C 7.85 g/m*3 8 C 0 km/h
1971 29-02-2008 10:25:02 8.3 C 8.01 g/m*3 8.3 C 0 km/h
1972 29-02-2008 10:37:02 8.6 C 8.16 g/m*3 8.6 C 0 km/h
1973 29-02-2008 10:49:02 8.8 C 8.27 g/m*3 8.8 C 0 km/h
1974 29-02-2008 11:01:02 8.8 C 8.27 g/m*3 8.8 C 0 km/h
1975 29-02-2008 11:13:02 9 C 8.38 g/m*3 9 C 0 km/h
Sensor: Nr:Datum:Temp:Abs-Feuchte:Windchill:Wind:
Aussen-T/F 1976 29-02-2008 11:25:01 9.1 C 8.43 g/m*3 9.1 C 0 km/h
1977 29-02-2008 11:37:02 9.1 C 8.43 g/m*3 9.1 C 0 km/h
1978 29-02-2008 11:49:02 9.1 C 8.43 g/m*3 9.1 C 0 km/h
1979 29-02-2008 12:01:01 9.5 C 8.65 g/m*3 9.5 C 0 km/h
1980 29-02-2008 12:13:01 9.8 C 8.81 g/m*3 9.8 C 0 km/h
1981 29-02-2008 12:25:01 10 C 8.83 g/m*3 10 C 0 km/h
1982 29-02-2008 12:37:02 9.9 C 8.78 g/m*3 9.9 C 0 km/h
1983 29-02-2008 12:49:02 10.2 C 8.85 g/m*3 10.2 C 0 km/h
1984 29-02-2008 13:01:02 10 C 8.64 g/m*3 10 C 0 km/h
1985 29-02-2008 13:13:02 9.9 C 8.68 g/m*3 9.9 C 0 km/h
1986 29-02-2008 13:25:02 10 C 8.64 g/m*3 10 C 0 km/h
1987 29-02-2008 13:37:02 10.2 C 8.76 g/m*3 10.2 C 0 km/h
1988 29-02-2008 13:49:02 10.6 C 8.88 g/m*3 10.6 C 0 km/h
1989 29-02-2008 14:01:02 11 C 9.01 g/m*3 11 C 0 km/h
1990 29-02-2008 14:13:02 11.1 C 8.86 g/m*3 11.1 C 0 km/h
1991 29-02-2008 14:25:01 11.1 C 8.46 g/m*3 11.1 C 0 km/h
1992 29-02-2008 14:37:02 11.1 C 8.26 g/m*3 11.1 C 0 km/h
1993 29-02-2008 14:49:02 11 C 8.11 g/m*3 11 C 0 km/h
1994 29-02-2008 15:01:03 10.9 C 6.86 g/m*3 10.9 C 0 km/h
1995 29-02-2008 15:13:03 10.8 C 6.23 g/m*3 10.8 C 0 km/h
1996 29-02-2008 15:25:02 10.7 C 6.09 g/m*3 10.7 C 0 km/h
1997 29-02-2008 15:37:02 10.7 C 6.09 g/m*3 10.7 C 0 km/h
1998 29-02-2008 15:49:01 10.7 C 5.89 g/m*3 10.7 C 0 km/h
1999 29-02-2008 16:01:02 10.8 C 5.83 g/m*3 10.8 C 0 km/h
2000 29-02-2008 16:13:02 10.8 C 5.83 g/m*3 10.8 C 0 km/h
Sensor: Nr:Datum:Temp:Abs-Feuchte:Windchill:Wind:
Aussen-T/F 2001 29-02-2008 16:25:02 10.6 C 5.56 g/m*3 10.6 C 0 km/h
2002 29-02-2008 16:37:01 10.5 C 5.63 g/m*3 10.5 C 0 km/h
2003 29-02-2008 16:49:01 10.5 C 5.53 g/m*3 10.5 C 0 km/h
2004 29-02-2008 17:01:02 10.4 C 5.49 g/m*3 10.4 C 0 km/h
2005 29-02-2008 17:13:02 10.4 C 5.49 g/m*3 10.4 C 0 km/h
2006 29-02-2008 17:25:02 10.3 C 5.55 g/m*3 10.3 C 0 km/h
2007 29-02-2008 17:37:02 10.2 C 5.61 g/m*3 10.2 C 0 km/h
2008 29-02-2008 17:49:02 10.2 C 5.61 g/m*3 10.2 C 0 km/h
2009 29-02-2008 18:01:02 10.1 C 5.77 g/m*3 10.1 C 0 km/h
2010 29-02-2008 18:13:02 9.9 C 5.88 g/m*3 9.9 C 0 km/h
2011 29-02-2008 18:25:02 9.8 C 5.94 g/m*3 9.8 C 0 km/h
2012 29-02-2008 18:37:02 9.8 C 6.12 g/m*3 9.8 C 0 km/h
2013 29-02-2008 18:49:02 9.7 C 5.99 g/m*3 9.7 C 0 km/h
2014 29-02-2008 19:01:02 9.6 C 6.05 g/m*3 9.6 C 0 km/h
2015 29-02-2008 19:13:02 9.6 C 6.14 g/m*3 9.6 C 0 km/h
2016 29-02-2008 19:25:02 9.6 C 6.14 g/m*3 9.6 C 0 km/h
2017 29-02-2008 19:37:02 9.5 C 6.28 g/m*3 9.5 C 0 km/h
2018 29-02-2008 19:49:02 9.5 C 6.37 g/m*3 9.5 C 0 km/h
2019 29-02-2008 20:01:02 9.5 C 6.37 g/m*3 9.5 C 0 km/h
2020 29-02-2008 20:13:02 9.5 C 6.37 g/m*3 9.5 C 0 km/h
2021 29-02-2008 20:25:02 9.6 C 6.5 g/m*3 9.6 C 0 km/h
2022 29-02-2008 20:37:02 9.6 C 6.5 g/m*3 9.6 C 0 km/h
2023 29-02-2008 20:49:02 9.7 C 6.55 g/m*3 9.7 C 0 km/h
2024 29-02-2008 21:01:02 9.8 C 6.49 g/m*3 9.8 C 0 km/h
2025 29-02-2008 21:13:02 10 C 6.39 g/m*3 10 C 0 km/h
Sensor: Nr:Datum:Temp:Abs-Feuchte:Windchill:Wind:
Aussen-T/F 2026 29-02-2008 21:25:03 10.2 C 6.38 g/m*3 10.2 C 0 km/h
2027 29-02-2008 21:37:02 10.3 C 6.32 g/m*3 10.3 C 0 km/h
2028 29-02-2008 21:49:01 10.3 C 6.42 g/m*3 10.3 C 0 km/h
2029 29-02-2008 22:01:01 10.4 C 6.26 g/m*3 10.4 C 0 km/h
2030 29-02-2008 22:13:01 10.3 C 6.22 g/m*3 10.3 C 0 km/h
2031 29-02-2008 22:25:02 10.2 C 6.09 g/m*3 10.2 C 0 km/h
2032 29-02-2008 22:37:02 10 C 6.11 g/m*3 10 C 0 km/h
2033 29-02-2008 22:49:02 9.9 C 6.26 g/m*3 9.9 C 0 km/h
2034 29-02-2008 23:01:02 9.9 C 6.26 g/m*3 9.9 C 0 km/h
2035 29-02-2008 23:13:02 9.8 C 6.03 g/m*3 9.8 C 0 km/h
2036 29-02-2008 23:25:02 9.7 C 5.99 g/m*3 9.7 C 0 km/h
2037 29-02-2008 23:37:02 9.5 C 6.01 g/m*3 9.5 C 0 km/h
2038 29-02-2008 23:49:01 9.4 C 6.15 g/m*3 9.4 C 0 km/h
2039 01-03-2008 00:01:01 9.2 C 6.25 g/m*3 9.2 C 0 km/h
2040 01-03-2008 00:13:01 9.2 C 6.43 g/m*3 9.2 C 0 km/h
2041 01-03-2008 00:25:01 9.3 C 6.47 g/m*3 9.3 C 0 km/h
2042 01-03-2008 00:37:01 9.4 C 6.6 g/m*3 9.4 C 0 km/h
2043 01-03-2008 00:49:01 9.6 C 6.5 g/m*3 9.6 C 0 km/h
2044 01-03-2008 01:01:02 9.6 C 6.5 g/m*3 9.6 C 0 km/h
2045 01-03-2008 01:13:02 9.6 C 6.6 g/m*3 9.6 C 0 km/h
2046 01-03-2008 01:25:01 9.8 C 6.68 g/m*3 9.8 C 0 km/h
2047 01-03-2008 01:37:01 9.9 C 6.72 g/m*3 9.9 C 0 km/h
2048 01-03-2008 01:49:01 10.1 C 6.62 g/m*3 10.1 C 0 km/h
2049 01-03-2008 02:01:02 10.2 C 6.76 g/m*3 10.2 C 0 km/h
2050 01-03-2008 02:13:02 10.3 C 6.9 g/m*3 10.3 C 0 km/h
Sensor: Nr:Datum:Temp:Abs-Feuchte:Windchill:Wind:
Aussen-T/F 2051 01-03-2008 02:25:01 10.1 C 7.09 g/m*3 10.1 C 0 km/h
2052 01-03-2008 02:37:01 10.2 C 7.04 g/m*3 10.2 C 0 km/h
2053 01-03-2008 02:50:02 10.3 C 7.09 g/m*3 10.3 C 0 km/h
2054 01-03-2008 03:02:02 10.3 C 7.09 g/m*3 10.3 C 0 km/h
2055 01-03-2008 03:14:03 10.2 C 7.04 g/m*3 10.2 C 0 km/h
2056 01-03-2008 03:26:03 10 C 7.14 g/m*3 10 C 0 km/h
2057 01-03-2008 03:38:01 10.1 C 7.19 g/m*3 10.1 C 0 km/h
2058 01-03-2008 03:50:01 10 C 7.05 g/m*3 10 C 0 km/h
2059 01-03-2008 04:02:02 10 C 7.14 g/m*3 10 C 0 km/h
2060 01-03-2008 04:14:02 10 C 7.05 g/m*3 10 C 0 km/h
2061 01-03-2008 04:26:02 10.1 C 7 g/m*3 10.1 C 0 km/h
2062 01-03-2008 04:38:01 9.9 C 7.19 g/m*3 9.9 C 0 km/h
2063 01-03-2008 04:50:01 9.8 C 7.42 g/m*3 9.8 C 0 km/h
2064 01-03-2008 05:02:02 9.8 C 7.42 g/m*3 9.8 C 0 km/h
2065 01-03-2008 05:14:02 9.9 C 7.47 g/m*3 9.9 C 0 km/h
2066 01-03-2008 05:26:02 9.9 C 7.56 g/m*3 9.9 C 0 km/h
2067 01-03-2008 05:38:01 10 C 7.42 g/m*3 10 C 0 km/h
2068 01-03-2008 05:50:02 10 C 7.42 g/m*3 10 C 0 km/h
2069 01-03-2008 06:02:02 10 C 7.71 g/m*3 10 C 0 km/h
2070 01-03-2008 06:14:02 9.6 C 7.79 g/m*3 9.6 C 0 km/h
2071 01-03-2008 06:26:01 10.1 C 7.47 g/m*3 10.1 C 0 km/h
2072 01-03-2008 06:38:02 10.7 C 6.97 g/m*3 10.7 C 0 km/h
2073 01-03-2008 06:50:53 11.1 C 6.55 g/m*3 11.1 C 0 km/h
2074 01-03-2008 07:02:53 7 C 5.5 g/m*3 7 C 0 km/h
2075 01-03-2008 07:14:53 5.8 C 5.8 g/m*3 5.8 C 0 km/h
Sensor: Nr:Datum:Temp:Abs-Feuchte:Windchill:Wind:
Aussen-T/F 2076 01-03-2008 07:26:53 6.1 C 5.84 g/m*3 6.1 C 0 km/h
2077 01-03-2008 07:38:53 6.6 C 5.28 g/m*3 6.6 C 0 km/h
2078 01-03-2008 07:50:53 7.1 C 4.76 g/m*3 7.1 C 0 km/h
2079 01-03-2008 08:02:03 7.4 C 4.69 g/m*3 7.4 C 0 km/h
2080 01-03-2008 08:14:03 7.7 C 4.62 g/m*3 7.7 C 0 km/h
2081 01-03-2008 08:26:03 7.9 C 4.52 g/m*3 7.9 C 0 km/h
2082 01-03-2008 08:38:02 8.2 C 4.35 g/m*3 8.2 C 0 km/h
2083 01-03-2008 08:50:02 8.5 C 4.27 g/m*3 8.5 C 0 km/h
2084 01-03-2008 09:02:02 8.5 C 4.18 g/m*3 8.5 C 0 km/h
2085 01-03-2008 09:14:02 8.6 C 3.87 g/m*3 8.6 C 0 km/h
2086 01-03-2008 09:26:02 8.7 C 3.89 g/m*3 8.7 C 0 km/h
2087 01-03-2008 09:38:02 9 C 3.61 g/m*3 9 C 0 km/h
2088 01-03-2008 09:50:02 9 C 3.7 g/m*3 9 C 0 km/h
2089 01-03-2008 10:02:02 9.2 C 3.75 g/m*3 9.2 C 0 km/h
2090 01-03-2008 10:14:02 9.2 C 3.75 g/m*3 9.2 C 0 km/h
2091 01-03-2008 10:26:01 9.3 C 3.77 g/m*3 9.3 C 0 km/h
2092 01-03-2008 10:38:01 9.2 C 3.75 g/m*3 9.2 C 0 km/h
2093 01-03-2008 10:50:02 9.1 C 3.73 g/m*3 9.1 C 0 km/h
2094 01-03-2008 11:02:01 9.2 C 3.75 g/m*3 9.2 C 0 km/h
2095 01-03-2008 11:14:01 9.2 C 3.75 g/m*3 9.2 C 0 km/h
2096 01-03-2008 11:26:01 9.1 C 3.9 g/m*3 9.1 C 0 km/h
2097 01-03-2008 11:38:02 9.2 C 3.93 g/m*3 9.2 C 0 km/h
2098 01-03-2008 11:50:01 9.3 C 3.95 g/m*3 9.3 C 0 km/h
2099 01-03-2008 12:02:02 9.3 C 4.13 g/m*3 9.3 C 0 km/h
2100 01-03-2008 12:14:02 9.4 C 4.16 g/m*3 9.4 C 0 km/h
Sensor: Nr:Datum:Temp:Abs-Feuchte:Windchill:Wind:
Aussen-T/F 2101 01-03-2008 12:26:02 9.4 C 4.07 g/m*3 9.4 C 0 km/h
2102 01-03-2008 12:38:01 9.5 C 4.01 g/m*3 9.5 C 0 km/h
2103 01-03-2008 12:50:02 9.4 C 4.07 g/m*3 9.4 C 0 km/h
2104 01-03-2008 13:02:01 9.3 C 4.13 g/m*3 9.3 C 0 km/h
2105 01-03-2008 13:14:01 9.2 C 4.11 g/m*3 9.2 C 0 km/h
2106 01-03-2008 13:26:01 9.1 C 4.17 g/m*3 9.1 C 0 km/h
2107 01-03-2008 13:38:02 9.2 C 4.11 g/m*3 9.2 C 0 km/h
2108 01-03-2008 13:50:01 9.3 C 4.04 g/m*3 9.3 C 0 km/h
2109 01-03-2008 14:02:02 9.6 C 4.12 g/m*3 9.6 C 0 km/h
2110 01-03-2008 14:14:02 9.7 C 3.96 g/m*3 9.7 C 0 km/h
2111 01-03-2008 14:26:02 9.9 C 3.92 g/m*3 9.9 C 0 km/h
2112 01-03-2008 14:38:01 10.4 C 3.86 g/m*3 10.4 C 0 km/h
2113 01-03-2008 14:50:02 11.1 C 3.63 g/m*3 11.1 C 0 km/h
2114 01-03-2008 15:02:01 11.3 C 3.57 g/m*3 11.3 C 0 km/h
2115 01-03-2008 15:14:01 11.5 C 3.41 g/m*3 11.5 C 0 km/h
2116 01-03-2008 15:26:01 11.3 C 3.26 g/m*3 11.3 C 0 km/h
2117 01-03-2008 15:38:02 11.5 C 3.31 g/m*3 11.5 C 0 km/h
2118 01-03-2008 15:50:02 11.3 C 3.06 g/m*3 11.3 C 0 km/h
2119 01-03-2008 16:02:02 11.4 C 2.98 g/m*3 11.4 C 0 km/h
2120 01-03-2008 16:14:02 11.5 C 2.89 g/m*3 11.5 C 0 km/h
2121 01-03-2008 16:26:02 11.1 C 2.82 g/m*3 11.1 C 0 km/h
2122 01-03-2008 16:38:03 10.8 C 2.87 g/m*3 10.8 C 0 km/h
2123 01-03-2008 16:50:01 10.6 C 2.93 g/m*3 10.6 C 0 km/h
2124 01-03-2008 17:02:02 10.7 C 3.04 g/m*3 10.7 C 0 km/h
2125 01-03-2008 17:14:02 10.8 C 2.97 g/m*3 10.8 C 0 km/h
Sensor: Nr:Datum:Temp:Abs-Feuchte:Windchill:Wind:
Aussen-T/F 2126 01-03-2008 17:26:02 10.5 C 3.01 g/m*3 10.5 C 0 km/h
2127 01-03-2008 17:38:01 10.4 C 2.99 g/m*3 10.4 C 0 km/h
2128 01-03-2008 17:50:02 10.1 C 3.22 g/m*3 10.1 C 0 km/h
2129 01-03-2008 18:02:02 10 C 3.29 g/m*3 10 C 0 km/h
2130 01-03-2008 18:14:02 9.8 C 3.34 g/m*3 9.8 C 0 km/h
2131 01-03-2008 18:26:02 9.7 C 3.5 g/m*3 9.7 C 0 km/h
2132 01-03-2008 18:38:02 9.6 C 3.48 g/m*3 9.6 C 0 km/h
2133 01-03-2008 18:50:02 9.5 C 3.55 g/m*3 9.5 C 0 km/h
2134 01-03-2008 19:02:02 9.5 C 3.55 g/m*3 9.5 C 0 km/h
2135 01-03-2008 19:14:02 9.3 C 3.59 g/m*3 9.3 C 0 km/h
2136 01-03-2008 19:26:02 9.3 C 3.59 g/m*3 9.3 C 0 km/h
2137 01-03-2008 19:38:01 9.3 C 3.68 g/m*3 9.3 C 0 km/h
2138 01-03-2008 19:50:02 9.2 C 3.75 g/m*3 9.2 C 0 km/h
2139 01-03-2008 20:02:01 8.6 C 4.3 g/m*3 8.6 C 0 km/h
2140 01-03-2008 20:14:01 8.4 C 4.41 g/m*3 8.4 C 0 km/h
2141 01-03-2008 20:26:02 8.6 C 4.38 g/m*3 8.6 C 0 km/h
2142 01-03-2008 20:38:02 8.8 C 4.35 g/m*3 8.8 C 0 km/h
2143 01-03-2008 20:50:02 8.9 C 4.38 g/m*3 8.9 C 0 km/h
2144 01-03-2008 21:02:01 8.9 C 4.47 g/m*3 8.9 C 0 km/h
2145 01-03-2008 21:14:01 8.9 C 4.38 g/m*3 8.9 C 0 km/h
2146 01-03-2008 21:26:01 9 C 4.32 g/m*3 9 C 0 km/h
2147 01-03-2008 21:38:02 9 C 4.32 g/m*3 9 C 0 km/h
2148 01-03-2008 21:50:02 8.9 C 4.29 g/m*3 8.9 C 0 km/h
2149 01-03-2008 22:02:02 8.8 C 4.35 g/m*3 8.8 C 0 km/h
2150 01-03-2008 22:14:02 8.7 C 4.41 g/m*3 8.7 C 0 km/h
Sensor: Nr:Datum:Temp:Abs-Feuchte:Windchill:Wind:
Aussen-T/F 2151 01-03-2008 22:26:02 8.7 C 4.41 g/m*3 8.7 C 0 km/h
2152 01-03-2008 22:38:03 8.9 C 4.29 g/m*3 8.9 C 0 km/h
2153 01-03-2008 22:50:02 8.9 C 4.2 g/m*3 8.9 C 0 km/h
2154 01-03-2008 23:02:02 8.9 C 4.2 g/m*3 8.9 C 0 km/h
2155 01-03-2008 23:14:03 8.8 C 4.09 g/m*3 8.8 C 0 km/h
2156 01-03-2008 23:26:02 8.7 C 4.06 g/m*3 8.7 C 0 km/h
2157 01-03-2008 23:38:01 8.8 C 4 g/m*3 8.8 C 0 km/h
2158 01-03-2008 23:50:01 8.7 C 4.06 g/m*3 8.7 C 0 km/h
2159 02-03-2008 00:02:02 8.7 C 4.06 g/m*3 8.7 C 0 km/h
2160 02-03-2008 00:14:02 8.7 C 3.98 g/m*3 8.7 C 0 km/h
2161 02-03-2008 00:27:04 8.7 C 4.06 g/m*3 8.7 C 0 km/h
2162 02-03-2008 00:39:04 8.6 C 4.04 g/m*3 8.6 C 0 km/h
2163 02-03-2008 00:51:04 8.5 C 4.1 g/m*3 8.5 C 0 km/h
2164 02-03-2008 01:03:04 8.5 C 4.1 g/m*3 8.5 C 0 km/h
2165 02-03-2008 01:15:04 8.5 C 4.18 g/m*3 8.5 C 0 km/h
2166 02-03-2008 01:27:04 8.6 C 4.12 g/m*3 8.6 C 0 km/h
2167 02-03-2008 01:39:05 8.6 C 4.21 g/m*3 8.6 C 0 km/h
2168 02-03-2008 01:51:05 8.6 C 4.21 g/m*3 8.6 C 0 km/h
2169 02-03-2008 02:03:05 8.7 C 4.24 g/m*3 8.7 C 0 km/h
2170 02-03-2008 02:15:05 8.6 C 4.38 g/m*3 8.6 C 0 km/h
2171 02-03-2008 02:27:05 8.6 C 4.47 g/m*3 8.6 C 0 km/h
2172 02-03-2008 02:39:05 8.7 C 4.41 g/m*3 8.7 C 0 km/h
2173 02-03-2008 02:51:05 8.7 C 4.41 g/m*3 8.7 C 0 km/h
2174 02-03-2008 03:03:05 8.7 C 4.5 g/m*3 8.7 C 0 km/h
2175 02-03-2008 03:15:05 8.7 C 4.58 g/m*3 8.7 C 0 km/h
Sensor: Nr:Datum:Temp:Abs-Feuchte:Windchill:Wind:
Aussen-T/F 2176 02-03-2008 03:27:05 8.6 C 4.64 g/m*3 8.6 C 0 km/h
2177 02-03-2008 03:39:05 8.6 C 4.73 g/m*3 8.6 C 0 km/h
2178 02-03-2008 03:51:05 8.5 C 4.87 g/m*3 8.5 C 0 km/h
2179 02-03-2008 04:03:05 8.4 C 5.09 g/m*3 8.4 C 0 km/h
2180 02-03-2008 04:15:05 8.3 C 5.23 g/m*3 8.3 C 0 km/h
2181 02-03-2008 04:27:05 8.3 C 5.31 g/m*3 8.3 C 0 km/h
2182 02-03-2008 04:39:05 8.4 C 5.51 g/m*3 8.4 C 0 km/h
2183 02-03-2008 04:51:05 8.5 C 5.55 g/m*3 8.5 C 0 km/h
2184 02-03-2008 05:03:05 8.5 C 5.64 g/m*3 8.5 C 0 km/h
2185 02-03-2008 05:15:05 8.4 C 5.94 g/m*3 8.4 C 0 km/h
2186 02-03-2008 05:27:06 8.4 C 6.19 g/m*3 8.4 C 0 km/h
2187 02-03-2008 05:39:06 8.3 C 6.41 g/m*3 8.3 C 0 km/h
2188 02-03-2008 05:51:06 8.2 C 6.53 g/m*3 8.2 C 0 km/h
2189 02-03-2008 06:03:06 8.4 C 6.62 g/m*3 8.4 C 0 km/h
2190 02-03-2008 06:15:06 8.5 C 6.74 g/m*3 8.5 C 0 km/h
2191 02-03-2008 06:27:06 8.9 C 6.75 g/m*3 8.9 C 0 km/h
2192 02-03-2008 06:39:06 9 C 6.61 g/m*3 9 C 0 km/h
2193 02-03-2008 06:51:06 9.2 C 6.61 g/m*3 9.2 C 0 km/h
2194 02-03-2008 07:03:06 9.2 C 6.61 g/m*3 9.2 C 0 km/h
2195 02-03-2008 07:15:06 9 C 6.79 g/m*3 9 C 0 km/h
2196 02-03-2008 07:27:06 9 C 7.05 g/m*3 9 C 0 km/h
2197 02-03-2008 07:39:06 8.8 C 7.22 g/m*3 8.8 C 0 km/h
2198 02-03-2008 07:51:06 8.8 C 7.4 g/m*3 8.8 C 0 km/h
2199 02-03-2008 08:03:06 8.8 C 7.49 g/m*3 8.8 C 0 km/h
2200 02-03-2008 08:15:06 8.8 C 7.57 g/m*3 8.8 C 0 km/h
Sensor: Nr:Datum:Temp:Abs-Feuchte:Windchill:Wind:
Aussen-T/F 2201 02-03-2008 08:27:06 9 C 7.49 g/m*3 9 C 0 km/h
2202 02-03-2008 08:39:06 9.2 C 7.5 g/m*3 9.2 C 0 km/h
2203 02-03-2008 08:51:02 9.9 C 7.56 g/m*3 9.9 C 0 km/h
2204 02-03-2008 09:03:02 10.4 C 7.04 g/m*3 10.4 C 0 km/h
2205 02-03-2008 09:15:02 10.9 C 6.76 g/m*3 10.9 C 0 km/h
2206 02-03-2008 09:27:02 11.3 C 6.43 g/m*3 11.3 C 0 km/h
2207 02-03-2008 09:39:02 11.4 C 6.57 g/m*3 11.4 C 0 km/h
2208 02-03-2008 09:51:02 11.5 C 6.51 g/m*3 11.5 C 0 km/h
2209 02-03-2008 10:03:02 11.2 C 6.69 g/m*3 11.2 C 0 km/h
2210 02-03-2008 10:15:02 11.6 C 6.65 g/m*3 11.6 C 0 km/h
2211 02-03-2008 10:27:02 12 C 6.29 g/m*3 12 C 0 km/h
2212 02-03-2008 10:39:02 12.3 C 5.86 g/m*3 12.3 C 0 km/h
2213 02-03-2008 10:51:02 12.4 C 5.79 g/m*3 12.4 C 0 km/h
2214 02-03-2008 11:03:01 12.7 C 5.68 g/m*3 12.7 C 0 km/h
2215 02-03-2008 11:15:01 13 C 5.44 g/m*3 13 C 0 km/h
2216 02-03-2008 11:27:01 13.2 C 5.28 g/m*3 13.2 C 0 km/h
2217 02-03-2008 11:39:02 13.2 C 4.94 g/m*3 13.2 C 0 km/h
2218 02-03-2008 11:51:03 13.6 C 4.71 g/m*3 13.6 C 0 km/h
2219 02-03-2008 12:03:03 13.5 C 4.8 g/m*3 13.5 C 0 km/h
2220 02-03-2008 12:15:02 13.6 C 4.94 g/m*3 13.6 C 0 km/h
2221 02-03-2008 12:27:02 13.8 C 4.77 g/m*3 13.8 C 0 km/h
2222 02-03-2008 12:39:03 13.8 C 4.77 g/m*3 13.8 C 0 km/h
2223 02-03-2008 12:51:02 13.4 C 5.11 g/m*3 13.4 C 0 km/h
2224 02-03-2008 13:03:02 13.1 C 5.25 g/m*3 13.1 C 0 km/h
2225 02-03-2008 13:15:02 13.6 C 5.3 g/m*3 13.6 C 0 km/h
Sensor: Nr:Datum:Temp:Abs-Feuchte:Windchill:Wind:
Aussen-T/F 2226 02-03-2008 13:27:02 14.3 C 4.91 g/m*3 14.3 C 0 km/h
2227 02-03-2008 13:39:02 14.1 C 4.98 g/m*3 14.1 C 0 km/h
2228 02-03-2008 13:51:02 14 C 5.07 g/m*3 14 C 0 km/h
2229 02-03-2008 14:03:01 13.9 C 5.04 g/m*3 13.9 C 0 km/h
2230 02-03-2008 14:15:02 14 C 4.95 g/m*3 14 C 0 km/h
2231 02-03-2008 14:27:02 14.1 C 4.85 g/m*3 14.1 C 0 km/h
2232 02-03-2008 14:39:02 14.1 C 4.61 g/m*3 14.1 C 0 km/h
2233 02-03-2008 14:51:02 14 C 4.7 g/m*3 14 C 0 km/h
2234 02-03-2008 15:03:02 13.7 C 4.86 g/m*3 13.7 C 0 km/h
2235 02-03-2008 15:15:01 13.7 C 4.86 g/m*3 13.7 C 0 km/h
2236 02-03-2008 15:27:01 13.9 C 4.8 g/m*3 13.9 C 0 km/h
2237 02-03-2008 15:39:01 14.4 C 4.57 g/m*3 14.4 C 0 km/h
2238 02-03-2008 15:51:01 14.3 C 4.55 g/m*3 14.3 C 0 km/h
2239 02-03-2008 16:03:02 14.2 C 4.52 g/m*3 14.2 C 0 km/h
2240 02-03-2008 16:15:02 13.9 C 4.8 g/m*3 13.9 C 0 km/h
2241 02-03-2008 16:27:02 13.8 C 4.77 g/m*3 13.8 C 0 km/h
2242 02-03-2008 16:39:01 13.5 C 4.68 g/m*3 13.5 C 0 km/h
2243 02-03-2008 16:51:02 13.5 C 4.68 g/m*3 13.5 C 0 km/h
2244 02-03-2008 17:03:01 13.4 C 4.65 g/m*3 13.4 C 0 km/h
2245 02-03-2008 17:15:02 13.4 C 4.65 g/m*3 13.4 C 0 km/h
2246 02-03-2008 17:27:02 13.4 C 4.65 g/m*3 13.4 C 0 km/h
2247 02-03-2008 17:39:02 13.2 C 4.94 g/m*3 13.2 C 0 km/h
2248 02-03-2008 17:51:02 13.1 C 4.91 g/m*3 13.1 C 0 km/h
2249 02-03-2008 18:03:02 13.1 C 4.68 g/m*3 13.1 C 0 km/h
2250 02-03-2008 18:15:02 13 C 4.65 g/m*3 13 C 0 km/h
Sensor: Nr:Datum:Temp:Abs-Feuchte:Windchill:Wind:
Aussen-T/F 2251 02-03-2008 18:27:02 12.8 C 4.59 g/m*3 12.8 C 0 km/h
2252 02-03-2008 18:39:03 12.9 C 4.51 g/m*3 12.9 C 0 km/h
2253 02-03-2008 18:51:02 12.8 C 4.48 g/m*3 12.8 C 0 km/h
2254 02-03-2008 19:03:02 12.8 C 4.59 g/m*3 12.8 C 0 km/h
2255 02-03-2008 19:15:02 12.7 C 4.68 g/m*3 12.7 C 0 km/h
2256 02-03-2008 19:27:02 12.5 C 4.84 g/m*3 12.5 C 0 km/h
2257 02-03-2008 19:39:01 12.5 C 4.62 g/m*3 12.5 C 0 km/h
2258 02-03-2008 19:51:02 12.4 C 4.59 g/m*3 12.4 C 0 km/h
2259 02-03-2008 20:03:01 12.3 C 4.34 g/m*3 12.3 C 0 km/h
2260 02-03-2008 20:15:02 12.1 C 4.29 g/m*3 12.1 C 0 km/h
2261 02-03-2008 20:27:02 12.1 C 4.18 g/m*3 12.1 C 0 km/h
2262 02-03-2008 20:39:02 12 C 4.26 g/m*3 12 C 0 km/h
2263 02-03-2008 20:51:02 12 C 4.26 g/m*3 12 C 0 km/h
2264 02-03-2008 21:03:01 11.9 C 4.34 g/m*3 11.9 C 0 km/h
2265 02-03-2008 21:15:02 11.8 C 4.32 g/m*3 11.8 C 0 km/h
2266 02-03-2008 21:27:02 11.9 C 4.34 g/m*3 11.9 C 0 km/h
2267 02-03-2008 21:39:01 11.7 C 4.39 g/m*3 11.7 C 0 km/h
2268 02-03-2008 21:51:02 11.8 C 4.42 g/m*3 11.8 C 0 km/h
2269 02-03-2008 22:03:02 11.7 C 4.5 g/m*3 11.7 C 0 km/h
2270 02-03-2008 22:16:02 11.6 C 4.68 g/m*3 11.6 C 0 km/h
2271 02-03-2008 22:28:02 11.4 C 4.72 g/m*3 11.4 C 0 km/h
2272 02-03-2008 22:40:02 11.4 C 4.82 g/m*3 11.4 C 0 km/h
2273 02-03-2008 22:52:02 11.2 C 5.07 g/m*3 11.2 C 0 km/h
2274 02-03-2008 23:04:02 10.5 C 5.72 g/m*3 10.5 C 0 km/h
2275 02-03-2008 23:16:02 10.5 C 6.01 g/m*3 10.5 C 0 km/h
Sensor: Nr:Datum:Temp:Abs-Feuchte:Windchill:Wind:
Aussen-T/F 2276 02-03-2008 23:28:02 10.4 C 6.07 g/m*3 10.4 C 0 km/h
2277 02-03-2008 23:40:02 10.4 C 6.07 g/m*3 10.4 C 0 km/h
2278 02-03-2008 23:52:02 10.5 C 6.11 g/m*3 10.5 C 0 km/h
2279 03-03-2008 00:04:02 10.4 C 6.26 g/m*3 10.4 C 0 km/h
2280 03-03-2008 00:16:02 9.8 C 6.96 g/m*3 9.8 C 0 km/h
2281 03-03-2008 00:28:02 9.5 C 7.19 g/m*3 9.5 C 0 km/h
2282 03-03-2008 00:40:02 9.4 C 7.33 g/m*3 9.4 C 0 km/h
2283 03-03-2008 00:52:02 9.3 C 7.19 g/m*3 9.3 C 0 km/h
2284 03-03-2008 01:04:02 9.4 C 6.33 g/m*3 9.4 C 0 km/h
2285 03-03-2008 01:16:02 9.6 C 5.31 g/m*3 9.6 C 0 km/h
2286 03-03-2008 01:28:02 9.6 C 4.86 g/m*3 9.6 C 0 km/h
2287 03-03-2008 01:40:03 9.4 C 4.79 g/m*3 9.4 C 0 km/h
2288 03-03-2008 01:52:03 9.1 C 4.88 g/m*3 9.1 C 0 km/h
2289 03-03-2008 02:04:03 9 C 4.85 g/m*3 9 C 0 km/h
2290 03-03-2008 02:16:03 9 C 5.03 g/m*3 9 C 0 km/h
2291 03-03-2008 02:28:03 9 C 5.11 g/m*3 9 C 0 km/h
2292 03-03-2008 02:40:03 9 C 5.03 g/m*3 9 C 0 km/h
2293 03-03-2008 02:52:03 9 C 4.94 g/m*3 9 C 0 km/h
2294 03-03-2008 03:04:03 9 C 4.85 g/m*3 9 C 0 km/h
2295 03-03-2008 03:16:03 9.1 C 4.88 g/m*3 9.1 C 0 km/h
2296 03-03-2008 03:28:03 9 C 5.03 g/m*3 9 C 0 km/h
2297 03-03-2008 03:40:03 8.9 C 5.17 g/m*3 8.9 C 0 km/h
2298 03-03-2008 03:52:03 8.9 C 4.99 g/m*3 8.9 C 0 km/h
2299 03-03-2008 04:04:03 9 C 4.94 g/m*3 9 C 0 km/h
2300 03-03-2008 04:16:03 9 C 4.94 g/m*3 9 C 0 km/h
Sensor: Nr:Datum:Temp:Abs-Feuchte:Windchill:Wind:
Aussen-T/F 2301 03-03-2008 04:28:03 9 C 4.94 g/m*3 9 C 0 km/h
2302 03-03-2008 04:40:03 8.9 C 4.99 g/m*3 8.9 C 0 km/h
2303 03-03-2008 04:52:03 8.9 C 5.08 g/m*3 8.9 C 0 km/h
2304 03-03-2008 05:04:03 8.9 C 5.08 g/m*3 8.9 C 0 km/h
2305 03-03-2008 05:16:03 8.9 C 5.17 g/m*3 8.9 C 0 km/h
2306 03-03-2008 05:28:03 8.9 C 5.26 g/m*3 8.9 C 0 km/h
2307 03-03-2008 05:40:04 8.7 C 5.53 g/m*3 8.7 C 0 km/h
2308 03-03-2008 05:52:04 8.4 C 5.85 g/m*3 8.4 C 0 km/h
2309 03-03-2008 06:04:04 8.3 C 5.9 g/m*3 8.3 C 0 km/h
2310 03-03-2008 06:16:04 8.4 C 6.02 g/m*3 8.4 C 0 km/h
2311 03-03-2008 06:28:04 8.4 C 5.94 g/m*3 8.4 C 0 km/h
2312 03-03-2008 06:40:04 8.5 C 5.89 g/m*3 8.5 C 0 km/h
2313 03-03-2008 06:52:04 8.5 C 5.89 g/m*3 8.5 C 0 km/h
2314 03-03-2008 07:04:02 8.2 C 5.86 g/m*3 8.2 C 0 km/h
2315 03-03-2008 07:16:02 8 C 5.87 g/m*3 8 C 0 km/h
2316 03-03-2008 07:28:02 7.9 C 6 g/m*3 7.9 C 0 km/h
2317 03-03-2008 07:40:02 7.8 C 6.12 g/m*3 7.8 C 0 km/h
2318 03-03-2008 07:52:02 7.6 C 6.12 g/m*3 7.6 C 0 km/h
2319 03-03-2008 08:04:02 7.6 C 6.2 g/m*3 7.6 C 0 km/h
2320 03-03-2008 08:16:02 7.3 C 6 g/m*3 7.3 C 0 km/h
2321 03-03-2008 08:28:02 7.3 C 6.08 g/m*3 7.3 C 0 km/h
2322 03-03-2008 08:40:02 7.3 C 6.16 g/m*3 7.3 C 0 km/h
2323 03-03-2008 08:52:02 7.3 C 6.16 g/m*3 7.3 C 0 km/h
2324 03-03-2008 09:04:03 7.4 C 6.28 g/m*3 7.4 C 0 km/h
2325 03-03-2008 09:16:02 7.2 C 6.04 g/m*3 7.2 C 0 km/h
Sensor: Nr:Datum:Temp:Abs-Feuchte:Windchill:Wind:
Aussen-T/F 2326 03-03-2008 09:28:02 7.3 C 6 g/m*3 7.3 C 0 km/h
2327 03-03-2008 09:40:02 7.6 C 5.8 g/m*3 7.6 C 0 km/h
2328 03-03-2008 09:52:01 7.7 C 5.51 g/m*3 7.7 C 0 km/h
2329 03-03-2008 10:04:02 7.5 C 5.36 g/m*3 7.5 C 0 km/h
2330 03-03-2008 10:16:01 7 C 5.27 g/m*3 7 C 0 km/h
2331 03-03-2008 10:28:01 6.6 C 5.44 g/m*3 6.6 C 0 km/h
2332 03-03-2008 10:40:01 6.7 C 5.62 g/m*3 6.7 C 0 km/h
2333 03-03-2008 10:52:01 6.7 C 5.62 g/m*3 6.7 C 0 km/h
2334 03-03-2008 11:04:02 7.2 C 5.65 g/m*3 7.2 C 0 km/h
2335 03-03-2008 11:16:02 7.4 C 5.25 g/m*3 7.4 C 0 km/h
2336 03-03-2008 11:28:02 7.8 C 5.22 g/m*3 7.8 C 0 km/h
2337 03-03-2008 11:40:01 7.8 C 4.98 g/m*3 7.8 C 0 km/h
2338 03-03-2008 11:52:02 7.9 C 4.93 g/m*3 7.9 C 0 km/h
2339 03-03-2008 12:04:01 8.5 C 4.87 g/m*3 8.5 C 0 km/h
2340 03-03-2008 12:16:02 8.5 C 4.87 g/m*3 8.5 C 0 km/h
2341 03-03-2008 12:28:02 8.4 C 4.92 g/m*3 8.4 C 0 km/h
2342 03-03-2008 12:40:02 8.6 C 4.9 g/m*3 8.6 C 0 km/h
2343 03-03-2008 12:52:02 8.6 C 4.55 g/m*3 8.6 C 0 km/h
2344 03-03-2008 13:04:02 8.9 C 4.47 g/m*3 8.9 C 0 km/h
2345 03-03-2008 13:16:02 8.7 C 4.41 g/m*3 8.7 C 0 km/h
2346 03-03-2008 13:28:02 8.8 C 4.35 g/m*3 8.8 C 0 km/h
2347 03-03-2008 13:40:02 8.9 C 4.29 g/m*3 8.9 C 0 km/h
2348 03-03-2008 13:52:02 9 C 4.23 g/m*3 9 C 0 km/h
2349 03-03-2008 14:04:01 9.3 C 3.5 g/m*3 9.3 C 0 km/h
2350 03-03-2008 14:16:01 9.4 C 3.44 g/m*3 9.4 C 0 km/h
Sensor: Nr:Datum:Temp:Abs-Feuchte:Windchill:Wind:
Aussen-T/F 2351 03-03-2008 14:28:01 9.5 C 3.19 g/m*3 9.5 C 0 km/h
2352 03-03-2008 14:40:02 9.2 C 3.13 g/m*3 9.2 C 0 km/h
2353 03-03-2008 14:52:02 9.2 C 2.86 g/m*3 9.2 C 0 km/h
2354 03-03-2008 15:04:02 9.3 C 2.7 g/m*3 9.3 C 0 km/h
2355 03-03-2008 15:16:02 9.5 C 2.28 g/m*3 9.5 C 0 km/h
2356 03-03-2008 15:28:02 9.8 C 2.32 g/m*3 9.8 C 0 km/h
2357 03-03-2008 15:40:03 9.7 C 1.94 g/m*3 9.7 C 0 km/h
2358 03-03-2008 15:52:02 9.3 C 1.8 g/m*3 9.3 C 0 km/h
2359 03-03-2008 16:04:02 9 C 2.29 g/m*3 9 C 0 km/h
2360 03-03-2008 16:16:02 8.5 C 2.31 g/m*3 8.5 C 0 km/h
2361 03-03-2008 16:28:02 9.1 C 1.77 g/m*3 9.1 C 0 km/h
2362 03-03-2008 16:40:02 8.7 C 1.73 g/m*3 8.7 C 0 km/h
2363 03-03-2008 16:52:02 9.5 C 1.82 g/m*3 9.5 C 0 km/h
2364 03-03-2008 17:04:02 9 C 1.76 g/m*3 9 C 0 km/h
2365 03-03-2008 17:16:02 8.8 C 1.74 g/m*3 8.8 C 0 km/h
2366 03-03-2008 17:28:02 8.4 C 1.7 g/m*3 8.4 C 0 km/h
2367 03-03-2008 17:40:02 8.5 C 1.71 g/m*3 8.5 C 0 km/h
2368 03-03-2008 17:52:02 8.1 C 1.66 g/m*3 8.1 C 0 km/h
2369 03-03-2008 18:04:02 7.6 C 1.61 g/m*3 7.6 C 0 km/h
2370 03-03-2008 18:16:03 7.3 C 1.58 g/m*3 7.3 C 0 km/h
2371 03-03-2008 18:28:03 7.1 C 1.56 g/m*3 7.1 C 0 km/h
2372 03-03-2008 18:40:02 6.9 C 1.54 g/m*3 6.9 C 0 km/h
2373 03-03-2008 18:52:02 6.5 C 1.5 g/m*3 6.5 C 0 km/h
2374 03-03-2008 19:04:02 6.4 C 1.49 g/m*3 6.4 C 0 km/h
2375 03-03-2008 19:16:02 6.3 C 1.48 g/m*3 6.3 C 0 km/h
Sensor: Nr:Datum:Temp:Abs-Feuchte:Windchill:Wind:
Aussen-T/F 2376 03-03-2008 19:28:02 6.1 C 1.83 g/m*3 6.1 C 0 km/h
2377 03-03-2008 19:40:02 5.9 C 1.87 g/m*3 5.9 C 0 km/h
2378 03-03-2008 19:52:03 5.5 C 2.04 g/m*3 5.5 C 0 km/h
2379 03-03-2008 20:04:02 5.1 C 2.19 g/m*3 5.1 C 0 km/h
2380 03-03-2008 20:16:02 4.7 C 2.33 g/m*3 4.7 C 0 km/h
2381 03-03-2008 20:28:02 4.5 C 2.37 g/m*3 4.5 C 0 km/h
2382 03-03-2008 20:40:03 4.5 C 2.43 g/m*3 4.5 C 0 km/h
2383 03-03-2008 20:52:02 4.2 C 2.38 g/m*3 4.2 C 0 km/h
2384 03-03-2008 21:04:02 4.1 C 2.5 g/m*3 4.1 C 0 km/h
2385 03-03-2008 21:16:02 3.8 C 2.57 g/m*3 3.8 C 0 km/h
2386 03-03-2008 21:28:02 3.7 C 2.62 g/m*3 3.7 C 0 km/h
2387 03-03-2008 21:40:02 3.7 C 2.55 g/m*3 3.7 C 0 km/h
2388 03-03-2008 21:52:02 3.6 C 2.6 g/m*3 3.6 C 0 km/h
2389 03-03-2008 22:04:02 3.4 C 2.63 g/m*3 3.4 C 0 km/h
2390 03-03-2008 22:16:02 3.3 C 2.73 g/m*3 3.3 C 0 km/h
2391 03-03-2008 22:28:02 3.3 C 2.73 g/m*3 3.3 C 0 km/h
2392 03-03-2008 22:41:02 3.2 C 2.71 g/m*3 3.2 C 0 km/h
2393 03-03-2008 22:53:02 3.1 C 2.75 g/m*3 3.1 C 0 km/h
2394 03-03-2008 23:05:02 3.1 C 2.75 g/m*3 3.1 C 0 km/h
2395 03-03-2008 23:17:02 2.9 C 2.78 g/m*3 2.9 C 0 km/h
2396 03-03-2008 23:29:02 2.6 C 2.84 g/m*3 2.6 C 0 km/h
2397 03-03-2008 23:41:02 2.4 C 2.85 g/m*3 2.4 C 0 km/h
2398 03-03-2008 23:53:02 2.2 C 2.93 g/m*3 2.2 C 0 km/h
2399 04-03-2008 00:05:02 2.1 C 2.97 g/m*3 2.1 C 0 km/h
2400 04-03-2008 00:17:02 2 C 2.95 g/m*3 2 C 0 km/h
Sensor: Nr:Datum:Temp:Abs-Feuchte:Windchill:Wind:
Aussen-T/F 2401 04-03-2008 00:29:02 2 C 3 g/m*3 2 C 0 km/h
2402 04-03-2008 00:41:02 1.9 C 3.04 g/m*3 1.9 C 0 km/h
2403 04-03-2008 00:53:02 1.8 C 3.07 g/m*3 1.8 C 0 km/h
2404 04-03-2008 01:05:02 2 C 3.06 g/m*3 2 C 0 km/h
2405 04-03-2008 01:17:02 2.3 C 3.06 g/m*3 2.3 C 0 km/h
2406 04-03-2008 01:29:02 2.3 C 3.12 g/m*3 2.3 C 0 km/h
2407 04-03-2008 01:41:02 2.2 C 3.1 g/m*3 2.2 C 0 km/h
2408 04-03-2008 01:53:02 2.2 C 3.15 g/m*3 2.2 C 0 km/h
2409 04-03-2008 02:05:02 2.3 C 3.18 g/m*3 2.3 C 0 km/h
2410 04-03-2008 02:17:03 2.4 C 3.2 g/m*3 2.4 C 0 km/h
2411 04-03-2008 02:29:03 2.5 C 3.22 g/m*3 2.5 C 0 km/h
2412 04-03-2008 02:41:03 2.4 C 3.25 g/m*3 2.4 C 0 km/h
2413 04-03-2008 02:53:03 2.3 C 3.29 g/m*3 2.3 C 0 km/h
2414 04-03-2008 03:05:03 2.3 C 3.29 g/m*3 2.3 C 0 km/h
2415 04-03-2008 03:17:03 2.5 C 3.45 g/m*3 2.5 C 0 km/h
2416 04-03-2008 03:29:03 2.5 C 3.56 g/m*3 2.5 C 0 km/h
2417 04-03-2008 03:41:03 2.5 C 3.74 g/m*3 2.5 C 0 km/h
2418 04-03-2008 03:53:03 2.3 C 3.86 g/m*3 2.3 C 0 km/h
2419 04-03-2008 04:05:03 2.2 C 3.94 g/m*3 2.2 C 0 km/h
2420 04-03-2008 04:17:03 2 C 4.11 g/m*3 2 C 0 km/h
2421 04-03-2008 04:29:03 2.2 C 4.28 g/m*3 2.2 C 0 km/h
2422 04-03-2008 04:41:03 2 C 4.33 g/m*3 2 C 0 km/h
2423 04-03-2008 04:53:03 1.9 C 4.42 g/m*3 1.9 C 0 km/h
2424 04-03-2008 05:05:03 1.6 C 4.38 g/m*3 1.6 C 0 km/h
2425 04-03-2008 05:17:03 1.5 C 4.4 g/m*3 1.5 C 0 km/h
Sensor: Nr:Datum:Temp:Abs-Feuchte:Windchill:Wind:
Aussen-T/F 2426 04-03-2008 05:29:03 1.3 C 4.4 g/m*3 1.3 C 0 km/h
2427 04-03-2008 05:41:03 1.2 C 4.42 g/m*3 1.2 C 0 km/h
2428 04-03-2008 05:53:03 1.1 C 4.44 g/m*3 1.1 C 0 km/h
2429 04-03-2008 06:05:03 0.7 C 4.37 g/m*3 0.7 C 0 km/h
2430 04-03-2008 06:17:03 0.5 C 4.31 g/m*3 0.5 C 0 km/h
2431 04-03-2008 06:29:04 0.5 C 4.36 g/m*3 0.5 C 0 km/h
2432 04-03-2008 06:41:04 0.4 C 4.33 g/m*3 0.4 C 0 km/h
2433 04-03-2008 06:53:04 0.3 C 4.35 g/m*3 0.3 C 0 km/h
2434 04-03-2008 07:05:04 0.3 C 4.4 g/m*3 0.3 C 0 km/h
2435 04-03-2008 07:17:02 0.3 C 4.4 g/m*3 0.3 C 0 km/h
2436 04-03-2008 07:29:02 0.2 C 4.37 g/m*3 0.2 C 0 km/h
2437 04-03-2008 07:41:02 0.3 C 4.45 g/m*3 0.3 C 0 km/h
2438 04-03-2008 07:53:02 0.3 C 4.45 g/m*3 0.3 C 0 km/h
2439 04-03-2008 08:05:02 0.3 C 4.45 g/m*3 0.3 C 0 km/h
2440 04-03-2008 08:17:02 0.3 C 4.45 g/m*3 0.3 C 0 km/h
2441 04-03-2008 08:29:02 0.3 C 4.45 g/m*3 0.3 C 0 km/h
2442 04-03-2008 08:41:02 0.3 C 4.5 g/m*3 0.3 C 0 km/h
2443 04-03-2008 08:53:01 0.4 C 4.53 g/m*3 0.4 C 0 km/h
2444 04-03-2008 09:05:02 0.5 C 4.56 g/m*3 0.5 C 0 km/h
2445 04-03-2008 09:17:02 0.5 C 4.51 g/m*3 0.5 C 0 km/h
2446 04-03-2008 09:29:02 0.5 C 4.56 g/m*3 0.5 C 0 km/h
2447 04-03-2008 09:41:01 0.6 C 4.54 g/m*3 0.6 C 0 km/h
2448 04-03-2008 09:53:02 0.6 C 4.54 g/m*3 0.6 C 0 km/h
2449 04-03-2008 10:05:02 0.7 C 4.58 g/m*3 0.7 C 0 km/h
2450 04-03-2008 10:17:02 0.8 C 4.61 g/m*3 0.8 C 0 km/h
Sensor: Nr:Datum:Temp:Abs-Feuchte:Windchill:Wind:
Aussen-T/F 2451 04-03-2008 10:29:02 1 C 4.67 g/m*3 1 C 0 km/h
2452 04-03-2008 10:41:02 1.2 C 4.68 g/m*3 1.2 C 0 km/h
2453 04-03-2008 10:53:02 1.5 C 4.78 g/m*3 1.5 C 0 km/h
2454 04-03-2008 11:05:01 1.8 C 4.88 g/m*3 1.8 C 0 km/h
2455 04-03-2008 11:17:01 1.9 C 4.91 g/m*3 1.9 C 0 km/h
2456 04-03-2008 11:29:01 2.2 C 4.96 g/m*3 2.2 C 0 km/h
2457 04-03-2008 11:41:02 2.8 C 5.22 g/m*3 2.8 C 0 km/h
2458 04-03-2008 11:53:02 3.2 C 5.18 g/m*3 3.2 C 0 km/h
2459 04-03-2008 12:05:03 3.3 C 4.85 g/m*3 3.3 C 0 km/h
2460 04-03-2008 12:17:02 3.8 C 4.64 g/m*3 3.8 C 0 km/h
2461 04-03-2008 12:29:03 4 C 4.39 g/m*3 4 C 0 km/h
2462 04-03-2008 12:41:02 4.3 C 4.35 g/m*3 4.3 C 0 km/h
2463 04-03-2008 12:53:02 4.4 C 4.18 g/m*3 4.4 C 0 km/h
2464 04-03-2008 13:05:01 4.7 C 4.26 g/m*3 4.7 C 0 km/h
2465 04-03-2008 13:17:01 4.8 C 4.22 g/m*3 4.8 C 0 km/h
2466 04-03-2008 13:29:01 4.7 C 4.13 g/m*3 4.7 C 0 km/h
2467 04-03-2008 13:41:02 5.3 C 4.37 g/m*3 5.3 C 0 km/h
2468 04-03-2008 13:53:02 5 C 4.08 g/m*3 5 C 0 km/h
2469 04-03-2008 14:05:03 5 C 4.08 g/m*3 5 C 0 km/h
2470 04-03-2008 14:17:02 5.4 C 4.19 g/m*3 5.4 C 0 km/h
2471 04-03-2008 14:29:02 5.4 C 4.12 g/m*3 5.4 C 0 km/h
2472 04-03-2008 14:41:02 5 C 4.01 g/m*3 5 C 0 km/h
2473 04-03-2008 14:53:01 5.3 C 4.09 g/m*3 5.3 C 0 km/h
2474 04-03-2008 15:05:02 5.5 C 4.14 g/m*3 5.5 C 0 km/h
2475 04-03-2008 15:17:02 6.1 C 4.16 g/m*3 6.1 C 0 km/h
Sensor: Nr:Datum:Temp:Abs-Feuchte:Windchill:Wind:
Aussen-T/F 2476 04-03-2008 15:29:02 5.5 C 3.93 g/m*3 5.5 C 0 km/h
2477 04-03-2008 15:41:01 5.2 C 3.99 g/m*3 5.2 C 0 km/h
2478 04-03-2008 15:53:02 5.4 C 4.12 g/m*3 5.4 C 0 km/h
2479 04-03-2008 16:05:01 5.7 C 3.91 g/m*3 5.7 C 0 km/h
2480 04-03-2008 16:17:01 6 C 3.85 g/m*3 6 C 0 km/h
2481 04-03-2008 16:29:01 6.2 C 3.82 g/m*3 6.2 C 0 km/h
2482 04-03-2008 16:41:02 6.2 C 3.75 g/m*3 6.2 C 0 km/h
2483 04-03-2008 16:53:02 5.5 C 3.86 g/m*3 5.5 C 0 km/h
2484 04-03-2008 17:05:01 5.8 C 3.94 g/m*3 5.8 C 0 km/h
2485 04-03-2008 17:17:01 5.3 C 3.88 g/m*3 5.3 C 0 km/h
2486 04-03-2008 17:29:01 5.2 C 3.86 g/m*3 5.2 C 0 km/h
2487 04-03-2008 17:41:02 4.9 C 3.98 g/m*3 4.9 C 0 km/h
2488 04-03-2008 17:53:02 4.8 C 4.02 g/m*3 4.8 C 0 km/h
2489 04-03-2008 18:05:02 4.6 C 3.97 g/m*3 4.6 C 0 km/h
2490 04-03-2008 18:17:02 4.5 C 3.88 g/m*3 4.5 C 0 km/h
2491 04-03-2008 18:29:02 4.3 C 3.83 g/m*3 4.3 C 0 km/h
2492 04-03-2008 18:41:02 4.1 C 3.84 g/m*3 4.1 C 0 km/h
2493 04-03-2008 18:53:02 3.9 C 3.79 g/m*3 3.9 C 0 km/h
2494 04-03-2008 19:05:02 3.4 C 3.66 g/m*3 3.4 C 0 km/h
2495 04-03-2008 19:17:02 3.1 C 3.83 g/m*3 3.1 C 0 km/h
2496 04-03-2008 19:29:02 3 C 3.86 g/m*3 3 C 0 km/h
2497 04-03-2008 19:41:02 3.6 C 3.78 g/m*3 3.6 C 0 km/h
2498 04-03-2008 19:53:02 3.8 C 3.64 g/m*3 3.8 C 0 km/h
2499 04-03-2008 20:05:02 4 C 3.62 g/m*3 4 C 0 km/h
2500 04-03-2008 20:17:03 3.9 C 3.73 g/m*3 3.9 C 0 km/h
Sensor: Nr:Datum:Temp:Abs-Feuchte:Windchill:Wind:
Aussen-T/F 2501 04-03-2008 20:29:03 3.7 C 3.61 g/m*3 3.7 C 0 km/h
2502 04-03-2008 20:41:02 3.3 C 3.52 g/m*3 3.3 C 0 km/h
2503 04-03-2008 20:53:02 3 C 3.45 g/m*3 3 C 0 km/h
2504 04-03-2008 21:05:02 3 C 3.51 g/m*3 3 C 0 km/h
2505 04-03-2008 21:17:01 3.5 C 3.32 g/m*3 3.5 C 0 km/h
2506 04-03-2008 21:29:01 3.3 C 3.46 g/m*3 3.3 C 0 km/h
2507 04-03-2008 21:42:02 3.1 C 3.65 g/m*3 3.1 C 0 km/h
2508 04-03-2008 21:54:02 3 C 3.81 g/m*3 3 C 0 km/h
2509 04-03-2008 22:06:02 2.5 C 3.91 g/m*3 2.5 C 0 km/h
2510 04-03-2008 22:18:02 2 C 3.83 g/m*3 2 C 0 km/h
2511 04-03-2008 22:30:02 1.7 C 3.92 g/m*3 1.7 C 0 km/h
2512 04-03-2008 22:42:02 1.4 C 3.89 g/m*3 1.4 C 0 km/h
2513 04-03-2008 22:54:03 1.5 C 4.03 g/m*3 1.5 C 0 km/h
2514 04-03-2008 23:06:03 1.7 C 4.08 g/m*3 1.7 C 0 km/h
2515 04-03-2008 23:18:03 1.5 C 3.97 g/m*3 1.5 C 0 km/h
2516 04-03-2008 23:30:03 1.5 C 4.03 g/m*3 1.5 C 0 km/h
2517 04-03-2008 23:42:03 1.7 C 4.03 g/m*3 1.7 C 0 km/h
2518 04-03-2008 23:54:03 2 C 3.89 g/m*3 2 C 0 km/h
2519 05-03-2008 00:06:03 1.9 C 3.92 g/m*3 1.9 C 0 km/h
2520 05-03-2008 00:18:03 1.9 C 3.92 g/m*3 1.9 C 0 km/h
2521 05-03-2008 00:30:03 1.7 C 3.92 g/m*3 1.7 C 0 km/h
2522 05-03-2008 00:42:03 1.5 C 3.71 g/m*3 1.5 C 0 km/h
2523 05-03-2008 00:54:03 1.5 C 3.6 g/m*3 1.5 C 0 km/h
2524 05-03-2008 01:06:03 1.4 C 3.57 g/m*3 1.4 C 0 km/h
2525 05-03-2008 01:18:03 1.3 C 3.6 g/m*3 1.3 C 0 km/h
Sensor: Nr:Datum:Temp:Abs-Feuchte:Windchill:Wind:
Aussen-T/F 2526 05-03-2008 01:30:03 1.3 C 3.5 g/m*3 1.3 C 0 km/h
2527 05-03-2008 01:42:03 1.2 C 3.53 g/m*3 1.2 C 0 km/h
2528 05-03-2008 01:54:03 0.9 C 3.51 g/m*3 0.9 C 0 km/h
2529 05-03-2008 02:06:03 0.7 C 3.51 g/m*3 0.7 C 0 km/h
2530 05-03-2008 02:18:03 0.5 C 3.46 g/m*3 0.5 C 0 km/h
2531 05-03-2008 02:30:03 0.4 C 3.39 g/m*3 0.4 C 0 km/h
2532 05-03-2008 02:42:03 0.3 C 3.36 g/m*3 0.3 C 0 km/h
2533 05-03-2008 02:54:04 0.1 C 3.27 g/m*3 0.1 C 0 km/h
2534 05-03-2008 03:06:04 0.1 C 3.27 g/m*3 0.1 C 0 km/h
2535 05-03-2008 03:18:04 0 C 3.25 g/m*3 0 C 0 km/h
2536 05-03-2008 03:30:04 -0.2 C 3.3 g/m*3 -0.2 C 0 km/h
2537 05-03-2008 03:42:04 -0.4 C 3.25 g/m*3 -0.4 C 0 km/h
2538 05-03-2008 03:54:04 -0.5 C 3.32 g/m*3 -0.5 C 0 km/h
2539 05-03-2008 04:06:04 -0.5 C 3.37 g/m*3 -0.5 C 0 km/h
2540 05-03-2008 04:18:04 -0.4 C 3.35 g/m*3 -0.4 C 0 km/h
2541 05-03-2008 04:30:04 -0.4 C 3.35 g/m*3 -0.4 C 0 km/h
2542 05-03-2008 04:42:04 -0.6 C 3.3 g/m*3 -0.6 C 0 km/h
2543 05-03-2008 04:54:04 -0.6 C 3.39 g/m*3 -0.6 C 0 km/h
2544 05-03-2008 05:06:04 -0.5 C 3.46 g/m*3 -0.5 C 0 km/h
2545 05-03-2008 05:18:04 -0.3 C 3.51 g/m*3 -0.3 C 0 km/h
2546 05-03-2008 05:30:04 -0.4 C 3.44 g/m*3 -0.4 C 0 km/h
2547 05-03-2008 05:42:04 -0.4 C 3.44 g/m*3 -0.4 C 0 km/h
2548 05-03-2008 05:54:04 -0.7 C 3.42 g/m*3 -0.7 C 0 km/h
2549 05-03-2008 06:06:04 -0.7 C 3.42 g/m*3 -0.7 C 0 km/h
2550 05-03-2008 06:18:04 -0.5 C 3.42 g/m*3 -0.5 C 0 km/h
Sensor: Nr:Datum:Temp:Abs-Feuchte:Windchill:Wind:
Aussen-T/F 2551 05-03-2008 06:30:04 -0.9 C 3.32 g/m*3 -0.9 C 0 km/h
2552 05-03-2008 06:42:04 -0.9 C 3.37 g/m*3 -0.9 C 0 km/h
2553 05-03-2008 06:54:04 -0.8 C 3.39 g/m*3 -0.8 C 0 km/h
2554 05-03-2008 07:06:02 -0.8 C 3.35 g/m*3 -0.8 C 0 km/h
2555 05-03-2008 07:18:02 -1 C 3.35 g/m*3 -1 C 0 km/h
2556 05-03-2008 07:30:02 -0.9 C 3.37 g/m*3 -0.9 C 0 km/h
2557 05-03-2008 07:42:02 -0.5 C 3.42 g/m*3 -0.5 C 0 km/h
2558 05-03-2008 07:54:02 -0.4 C 3.35 g/m*3 -0.4 C 0 km/h
2559 05-03-2008 08:06:04 -0.2 C 3.35 g/m*3 -0.2 C 0 km/h
2560 05-03-2008 08:18:02 0 C 3.34 g/m*3 0 C 0 km/h
2561 05-03-2008 08:30:02 0 C 3.29 g/m*3 0 C 0 km/h
2562 05-03-2008 08:42:02 0 C 3.2 g/m*3 0 C 0 km/h
2563 05-03-2008 08:54:02 -0.1 C 3.18 g/m*3 -0.1 C 0 km/h
2564 05-03-2008 09:06:03 0.5 C 3.31 g/m*3 0.5 C 0 km/h
2565 05-03-2008 09:18:02 0.6 C 3.18 g/m*3 0.6 C 0 km/h
2566 05-03-2008 09:30:02 0.9 C 3.2 g/m*3 0.9 C 0 km/h
2567 05-03-2008 09:42:02 0.8 C 3.12 g/m*3 0.8 C 0 km/h
2568 05-03-2008 09:54:01 0.6 C 3.13 g/m*3 0.6 C 0 km/h
2569 05-03-2008 10:06:01 0.9 C 3.14 g/m*3 0.9 C 0 km/h
2570 05-03-2008 10:18:02 1.4 C 3.09 g/m*3 1.4 C 0 km/h
2571 05-03-2008 10:30:02 1.7 C 3.1 g/m*3 1.7 C 0 km/h
2572 05-03-2008 10:42:02 2.2 C 3.1 g/m*3 2.2 C 0 km/h
2573 05-03-2008 10:54:02 2.5 C 2.99 g/m*3 2.5 C 0 km/h
2574 05-03-2008 11:06:02 3.1 C 2.93 g/m*3 3.1 C 0 km/h
2575 05-03-2008 11:18:02 2.8 C 2.87 g/m*3 2.8 C 0 km/h
Sensor: Nr:Datum:Temp:Abs-Feuchte:Windchill:Wind:
Aussen-T/F 2576 05-03-2008 11:30:02 2.5 C 2.87 g/m*3 2.5 C 0 km/h
2577 05-03-2008 11:42:02 3.1 C 2.81 g/m*3 3.1 C 0 km/h
2578 05-03-2008 11:54:02 3.2 C 2.59 g/m*3 3.2 C 0 km/h
2579 05-03-2008 12:06:02 3 C 2.62 g/m*3 3 C 0 km/h
2580 05-03-2008 12:18:01 3.8 C 2.63 g/m*3 3.8 C 0 km/h
2581 05-03-2008 12:30:01 4.3 C 2.27 g/m*3 4.3 C 0 km/h
2582 05-03-2008 12:42:01 3.5 C 2.52 g/m*3 3.5 C 0 km/h
2583 05-03-2008 12:54:02 4.3 C 2.53 g/m*3 4.3 C 0 km/h
2584 05-03-2008 13:06:02 4.6 C 2.25 g/m*3 4.6 C 0 km/h
2585 05-03-2008 13:18:02 5.3 C 2.08 g/m*3 5.3 C 0 km/h
2586 05-03-2008 13:30:02 4.3 C 1.82 g/m*3 4.3 C 0 km/h
2587 05-03-2008 13:42:02 5.7 C 1.85 g/m*3 5.7 C 0 km/h
2588 05-03-2008 13:54:02 3.8 C 2.63 g/m*3 3.8 C 0 km/h
2589 05-03-2008 14:06:02 3.7 C 2.87 g/m*3 3.7 C 0 km/h
2590 05-03-2008 14:18:01 4.8 C 2.62 g/m*3 4.8 C 0 km/h
2591 05-03-2008 14:30:01 5.3 C 2.5 g/m*3 5.3 C 0 km/h
2592 05-03-2008 14:42:02 6 C 2.18 g/m*3 6 C 0 km/h
2593 05-03-2008 14:54:02 6.5 C 2.02 g/m*3 6.5 C 0 km/h
2594 05-03-2008 15:06:01 4.9 C 2.23 g/m*3 4.9 C 0 km/h
2595 05-03-2008 15:18:01 4.5 C 2.43 g/m*3 4.5 C 0 km/h
2596 05-03-2008 15:30:01 6.1 C 2.34 g/m*3 6.1 C 0 km/h
2597 05-03-2008 15:42:01 6.7 C 2.13 g/m*3 6.7 C 0 km/h
2598 05-03-2008 15:54:02 5.4 C 2.3 g/m*3 5.4 C 0 km/h
2599 05-03-2008 16:06:01 5.2 C 2.27 g/m*3 5.2 C 0 km/h
2600 05-03-2008 16:18:02 5.5 C 2.18 g/m*3 5.5 C 0 km/h
Sensor: Nr:Datum:Temp:Abs-Feuchte:Windchill:Wind:
Aussen-T/F 2601 05-03-2008 16:30:02 6.1 C 2.05 g/m*3 6.1 C 0 km/h
2602 05-03-2008 16:42:02 6.9 C 2.31 g/m*3 6.9 C 0 km/h
2603 05-03-2008 16:54:02 6.7 C 2.05 g/m*3 6.7 C 0 km/h
2604 05-03-2008 17:06:02 6.3 C 1.85 g/m*3 6.3 C 0 km/h
2605 05-03-2008 17:18:02 5.7 C 1.78 g/m*3 5.7 C 0 km/h
2606 05-03-2008 17:30:03 6.1 C 1.9 g/m*3 6.1 C 0 km/h
2607 05-03-2008 17:42:02 5.7 C 1.92 g/m*3 5.7 C 0 km/h
2608 05-03-2008 17:54:02 5 C 2.04 g/m*3 5 C 0 km/h
2609 05-03-2008 18:06:02 4.4 C 2.09 g/m*3 4.4 C 0 km/h
2610 05-03-2008 18:18:02 3.8 C 2.57 g/m*3 3.8 C 0 km/h
2611 05-03-2008 18:30:02 3.2 C 2.59 g/m*3 3.2 C 0 km/h
2612 05-03-2008 18:42:03 2.7 C 2.74 g/m*3 2.7 C 0 km/h
2613 05-03-2008 18:54:02 2.3 C 2.67 g/m*3 2.3 C 0 km/h
2614 05-03-2008 19:06:02 2 C 2.67 g/m*3 2 C 0 km/h
2615 05-03-2008 19:18:02 1.7 C 2.72 g/m*3 1.7 C 0 km/h
2616 05-03-2008 19:30:02 1.5 C 2.79 g/m*3 1.5 C 0 km/h
2617 05-03-2008 19:42:01 1.3 C 2.86 g/m*3 1.3 C 0 km/h
2618 05-03-2008 19:54:02 1.2 C 2.89 g/m*3 1.2 C 0 km/h
2619 05-03-2008 20:06:02 0.9 C 2.94 g/m*3 0.9 C 0 km/h
2620 05-03-2008 20:18:02 0.7 C 2.95 g/m*3 0.7 C 0 km/h
2621 05-03-2008 20:30:02 0.6 C 2.88 g/m*3 0.6 C 0 km/h
2622 05-03-2008 20:42:02 0.5 C 2.86 g/m*3 0.5 C 0 km/h
2623 05-03-2008 20:54:02 0.4 C 2.89 g/m*3 0.4 C 0 km/h
2624 05-03-2008 21:06:01 0.3 C 2.82 g/m*3 0.3 C 0 km/h
2625 05-03-2008 21:18:02 0.1 C 2.83 g/m*3 0.1 C 0 km/h
Sensor: Nr:Datum:Temp:Abs-Feuchte:Windchill:Wind:
Aussen-T/F 2626 05-03-2008 21:30:02 0 C 2.91 g/m*3 0 C 0 km/h
2627 05-03-2008 21:42:01 0 C 2.91 g/m*3 0 C 0 km/h
2628 05-03-2008 21:54:02 -0.2 C 2.91 g/m*3 -0.2 C 0 km/h
2629 05-03-2008 22:07:02 -0.2 C 2.91 g/m*3 -0.2 C 0 km/h
2630 05-03-2008 22:19:02 -0.3 C 2.94 g/m*3 -0.3 C 0 km/h
2631 05-03-2008 22:31:02 -0.5 C 2.9 g/m*3 -0.5 C 0 km/h
2632 05-03-2008 22:43:02 -0.7 C 2.86 g/m*3 -0.7 C 0 km/h
2633 05-03-2008 22:55:02 -0.8 C 2.89 g/m*3 -0.8 C 0 km/h
2634 05-03-2008 23:07:02 -0.9 C 2.91 g/m*3 -0.9 C 0 km/h
2635 05-03-2008 23:19:02 -1 C 2.89 g/m*3 -1 C 0 km/h
2636 05-03-2008 23:31:02 -1.1 C 2.87 g/m*3 -1.1 C 0 km/h
2637 05-03-2008 23:43:02 -1.1 C 2.92 g/m*3 -1.1 C 0 km/h
2638 05-03-2008 23:55:02 -1.2 C 2.94 g/m*3 -1.2 C 0 km/h
2639 06-03-2008 00:07:02 -1.1 C 2.92 g/m*3 -1.1 C 0 km/h
2640 06-03-2008 00:19:02 -1.3 C 2.92 g/m*3 -1.3 C 0 km/h
2641 06-03-2008 00:31:02 -1.4 C 2.9 g/m*3 -1.4 C 0 km/h
2642 06-03-2008 00:43:03 -1.3 C 2.92 g/m*3 -1.3 C 0 km/h
2643 06-03-2008 00:55:03 -1.3 C 2.97 g/m*3 -1.3 C 0 km/h
2644 06-03-2008 01:07:03 -1.3 C 2.97 g/m*3 -1.3 C 0 km/h
2645 06-03-2008 01:19:03 -1.3 C 2.97 g/m*3 -1.3 C 0 km/h
2646 06-03-2008 01:31:03 -1.2 C 2.94 g/m*3 -1.2 C 0 km/h
2647 06-03-2008 01:43:03 -1.2 C 2.94 g/m*3 -1.2 C 0 km/h
2648 06-03-2008 01:55:03 -1.2 C 2.94 g/m*3 -1.2 C 0 km/h
2649 06-03-2008 02:07:03 -1.2 C 2.9 g/m*3 -1.2 C 0 km/h
2650 06-03-2008 02:19:03 -1.1 C 2.92 g/m*3 -1.1 C 0 km/h
Sensor: Nr:Datum:Temp:Abs-Feuchte:Windchill:Wind:
Aussen-T/F 2651 06-03-2008 02:31:03 -1.1 C 2.92 g/m*3 -1.1 C 0 km/h
2652 06-03-2008 02:43:03 -1.2 C 2.9 g/m*3 -1.2 C 0 km/h
2653 06-03-2008 02:55:03 -1.3 C 2.88 g/m*3 -1.3 C 0 km/h
2654 06-03-2008 03:07:03 -1.3 C 2.92 g/m*3 -1.3 C 0 km/h
2655 06-03-2008 03:19:03 -1.3 C 2.88 g/m*3 -1.3 C 0 km/h
2656 06-03-2008 03:31:03 -1.3 C 2.88 g/m*3 -1.3 C 0 km/h
2657 06-03-2008 03:43:03 -1.3 C 2.88 g/m*3 -1.3 C 0 km/h
2658 06-03-2008 03:55:03 -1.4 C 2.86 g/m*3 -1.4 C 0 km/h
2659 06-03-2008 04:07:03 -1.3 C 2.88 g/m*3 -1.3 C 0 km/h
2660 06-03-2008 04:19:03 -1.4 C 2.86 g/m*3 -1.4 C 0 km/h
2661 06-03-2008 04:31:03 -1.2 C 2.85 g/m*3 -1.2 C 0 km/h
2662 06-03-2008 04:43:03 -1.2 C 2.85 g/m*3 -1.2 C 0 km/h
2663 06-03-2008 04:55:04 -1.5 C 2.79 g/m*3 -1.5 C 0 km/h
2664 06-03-2008 05:07:04 -1.4 C 2.81 g/m*3 -1.4 C 0 km/h
2665 06-03-2008 05:19:04 -1.5 C 2.75 g/m*3 -1.5 C 0 km/h
2666 06-03-2008 05:31:04 -1.3 C 2.79 g/m*3 -1.3 C 0 km/h
2667 06-03-2008 05:43:04 -1 C 2.71 g/m*3 -1 C 0 km/h
2668 06-03-2008 05:55:04 -0.5 C 2.62 g/m*3 -0.5 C 0 km/h
2669 06-03-2008 06:07:04 -0.2 C 2.58 g/m*3 -0.2 C 0 km/h
2670 06-03-2008 06:19:04 0.3 C 2.57 g/m*3 0.3 C 0 km/h
2671 06-03-2008 06:31:04 0.6 C 2.52 g/m*3 0.6 C 0 km/h
2672 06-03-2008 06:43:04 0.8 C 2.56 g/m*3 0.8 C 0 km/h
2673 06-03-2008 06:55:04 0.8 C 2.56 g/m*3 0.8 C 0 km/h
2674 06-03-2008 07:07:02 0.9 C 2.63 g/m*3 0.9 C 0 km/h
2675 06-03-2008 07:19:02 0.9 C 2.63 g/m*3 0.9 C 0 km/h
Sensor: Nr:Datum:Temp:Abs-Feuchte:Windchill:Wind:
Aussen-T/F 2676 06-03-2008 07:31:02 0.8 C 2.66 g/m*3 0.8 C 0 km/h
2677 06-03-2008 07:43:02 0.8 C 2.61 g/m*3 0.8 C 0 km/h
2678 06-03-2008 07:55:02 0.9 C 2.58 g/m*3 0.9 C 0 km/h
2679 06-03-2008 08:07:02 1 C 2.54 g/m*3 1 C 0 km/h
2680 06-03-2008 08:19:02 1.1 C 2.56 g/m*3 1.1 C 0 km/h
2681 06-03-2008 08:31:03 1.1 C 2.56 g/m*3 1.1 C 0 km/h
2682 06-03-2008 08:43:03 1.3 C 2.54 g/m*3 1.3 C 0 km/h
2683 06-03-2008 08:55:02 1.5 C 2.58 g/m*3 1.5 C 0 km/h
2684 06-03-2008 09:07:02 1.5 C 2.58 g/m*3 1.5 C 0 km/h
2685 06-03-2008 09:19:01 1.7 C 2.61 g/m*3 1.7 C 0 km/h
2686 06-03-2008 09:31:02 1.8 C 2.58 g/m*3 1.8 C 0 km/h
2687 06-03-2008 09:43:02 2 C 2.56 g/m*3 2 C 0 km/h
2688 06-03-2008 09:55:02 2.1 C 2.57 g/m*3 2.1 C 0 km/h
2689 06-03-2008 10:07:01 2.2 C 2.59 g/m*3 2.2 C 0 km/h
2690 06-03-2008 10:19:01 2.4 C 2.63 g/m*3 2.4 C 0 km/h
2691 06-03-2008 10:31:02 2.6 C 2.66 g/m*3 2.6 C 0 km/h
2692 06-03-2008 10:43:02 2.8 C 2.64 g/m*3 2.8 C 0 km/h
2693 06-03-2008 10:55:02 3 C 2.62 g/m*3 3 C 0 km/h
2694 06-03-2008 11:07:02 3.2 C 2.65 g/m*3 3.2 C 0 km/h
2695 06-03-2008 11:19:02 3.5 C 2.64 g/m*3 3.5 C 0 km/h
2696 06-03-2008 11:31:02 4 C 2.67 g/m*3 4 C 0 km/h
2697 06-03-2008 11:43:02 4 C 2.61 g/m*3 4 C 0 km/h
2698 06-03-2008 11:55:01 4 C 2.61 g/m*3 4 C 0 km/h
2699 06-03-2008 12:07:01 4.4 C 2.68 g/m*3 4.4 C 0 km/h
2700 06-03-2008 12:19:02 4.5 C 2.63 g/m*3 4.5 C 0 km/h
Sensor: Nr:Datum:Temp:Abs-Feuchte:Windchill:Wind:
Aussen-T/F 2701 06-03-2008 12:31:01 4.3 C 2.66 g/m*3 4.3 C 0 km/h
2702 06-03-2008 12:43:01 4.2 C 2.71 g/m*3 4.2 C 0 km/h
2703 06-03-2008 12:55:02 4.3 C 2.72 g/m*3 4.3 C 0 km/h
2704 06-03-2008 13:07:01 4.6 C 2.71 g/m*3 4.6 C 0 km/h
2705 06-03-2008 13:19:02 4.8 C 2.68 g/m*3 4.8 C 0 km/h
2706 06-03-2008 13:31:02 4.8 C 2.75 g/m*3 4.8 C 0 km/h
2707 06-03-2008 13:43:03 5.2 C 2.75 g/m*3 5.2 C 0 km/h
2708 06-03-2008 13:55:02 5.2 C 2.69 g/m*3 5.2 C 0 km/h
2709 06-03-2008 14:07:02 5.4 C 2.79 g/m*3 5.4 C 0 km/h
2710 06-03-2008 14:19:02 5.4 C 2.79 g/m*3 5.4 C 0 km/h
2711 06-03-2008 14:31:02 5.6 C 2.83 g/m*3 5.6 C 0 km/h
2712 06-03-2008 14:43:02 5.5 C 2.81 g/m*3 5.5 C 0 km/h
2713 06-03-2008 14:55:02 5.8 C 2.87 g/m*3 5.8 C 0 km/h
2714 06-03-2008 15:07:02 5.7 C 2.85 g/m*3 5.7 C 0 km/h
2715 06-03-2008 15:19:01 6.1 C 2.92 g/m*3 6.1 C 0 km/h
2716 06-03-2008 15:31:02 5.9 C 2.88 g/m*3 5.9 C 0 km/h
2717 06-03-2008 15:43:02 6 C 2.98 g/m*3 6 C 0 km/h
2718 06-03-2008 15:55:01 6.1 C 2.92 g/m*3 6.1 C 0 km/h
2719 06-03-2008 16:07:02 6.1 C 2.92 g/m*3 6.1 C 0 km/h
2720 06-03-2008 16:19:02 6.2 C 3.02 g/m*3 6.2 C 0 km/h
2721 06-03-2008 16:31:01 6.2 C 3.02 g/m*3 6.2 C 0 km/h
2722 06-03-2008 16:43:01 6.3 C 3.03 g/m*3 6.3 C 0 km/h
2723 06-03-2008 16:55:02 6.3 C 3.03 g/m*3 6.3 C 0 km/h
2724 06-03-2008 17:07:01 6.2 C 3.02 g/m*3 6.2 C 0 km/h
2725 06-03-2008 17:19:02 6.1 C 3.07 g/m*3 6.1 C 0 km/h
Sensor: Nr:Datum:Temp:Abs-Feuchte:Windchill:Wind:
Aussen-T/F 2726 06-03-2008 17:31:02 6.1 C 3.14 g/m*3 6.1 C 0 km/h
2727 06-03-2008 17:43:02 5.9 C 3.24 g/m*3 5.9 C 0 km/h
2728 06-03-2008 17:55:02 5.7 C 3.2 g/m*3 5.7 C 0 km/h
2729 06-03-2008 18:07:02 5.7 C 3.2 g/m*3 5.7 C 0 km/h
2730 06-03-2008 18:19:02 5.6 C 3.25 g/m*3 5.6 C 0 km/h
2731 06-03-2008 18:31:02 5.4 C 3.28 g/m*3 5.4 C 0 km/h
2732 06-03-2008 18:43:02 5.3 C 3.26 g/m*3 5.3 C 0 km/h
2733 06-03-2008 18:55:02 5.3 C 3.33 g/m*3 5.3 C 0 km/h
2734 06-03-2008 19:07:02 5.3 C 3.33 g/m*3 5.3 C 0 km/h
2735 06-03-2008 19:19:02 5.4 C 3.28 g/m*3 5.4 C 0 km/h
2736 06-03-2008 19:31:02 5.4 C 3.35 g/m*3 5.4 C 0 km/h
2737 06-03-2008 19:43:02 5.4 C 3.49 g/m*3 5.4 C 0 km/h
2738 06-03-2008 19:55:02 5.3 C 3.53 g/m*3 5.3 C 0 km/h
2739 06-03-2008 20:07:01 5.2 C 3.44 g/m*3 5.2 C 0 km/h
2740 06-03-2008 20:19:02 5.3 C 3.4 g/m*3 5.3 C 0 km/h
2741 06-03-2008 20:31:02 5.3 C 3.47 g/m*3 5.3 C 0 km/h
2742 06-03-2008 20:43:02 5.2 C 3.51 g/m*3 5.2 C 0 km/h
2743 06-03-2008 20:55:02 5.1 C 3.56 g/m*3 5.1 C 0 km/h
2744 06-03-2008 21:07:02 5.2 C 3.51 g/m*3 5.2 C 0 km/h
2745 06-03-2008 21:19:02 5.2 C 3.58 g/m*3 5.2 C 0 km/h
2746 06-03-2008 21:31:03 5.1 C 3.56 g/m*3 5.1 C 0 km/h
2747 06-03-2008 21:43:03 5.2 C 3.58 g/m*3 5.2 C 0 km/h
2748 06-03-2008 21:56:02 5.2 C 3.65 g/m*3 5.2 C 0 km/h
2749 06-03-2008 22:08:02 5.3 C 3.6 g/m*3 5.3 C 0 km/h
2750 06-03-2008 22:20:02 5.2 C 3.65 g/m*3 5.2 C 0 km/h
Sensor: Nr:Datum:Temp:Abs-Feuchte:Windchill:Wind:
Aussen-T/F 2751 06-03-2008 22:32:02 5.2 C 3.65 g/m*3 5.2 C 0 km/h
2752 06-03-2008 22:44:02 5.1 C 3.63 g/m*3 5.1 C 0 km/h
2753 06-03-2008 22:56:02 5.1 C 3.56 g/m*3 5.1 C 0 km/h
2754 06-03-2008 23:08:02 5.1 C 3.63 g/m*3 5.1 C 0 km/h
2755 06-03-2008 23:20:03 5.1 C 3.63 g/m*3 5.1 C 0 km/h
2756 06-03-2008 23:32:03 5.1 C 3.63 g/m*3 5.1 C 0 km/h
2757 06-03-2008 23:44:03 5 C 3.67 g/m*3 5 C 0 km/h
2758 06-03-2008 23:56:03 5.1 C 3.69 g/m*3 5.1 C 0 km/h
2759 07-03-2008 00:08:03 5 C 3.74 g/m*3 5 C 0 km/h
2760 07-03-2008 00:20:03 5 C 3.67 g/m*3 5 C 0 km/h
2761 07-03-2008 00:32:03 5 C 3.87 g/m*3 5 C 0 km/h
2762 07-03-2008 00:44:03 5 C 3.81 g/m*3 5 C 0 km/h
2763 07-03-2008 00:56:03 4.9 C 3.92 g/m*3 4.9 C 0 km/h
2764 07-03-2008 01:08:03 5 C 3.87 g/m*3 5 C 0 km/h
2765 07-03-2008 01:20:03 5 C 3.87 g/m*3 5 C 0 km/h
2766 07-03-2008 01:32:03 4.9 C 3.98 g/m*3 4.9 C 0 km/h
2767 07-03-2008 01:44:03 4.9 C 3.98 g/m*3 4.9 C 0 km/h
2768 07-03-2008 01:56:03 4.9 C 3.92 g/m*3 4.9 C 0 km/h
2769 07-03-2008 02:08:03 4.8 C 3.82 g/m*3 4.8 C 0 km/h
2770 07-03-2008 02:20:03 4.8 C 3.89 g/m*3 4.8 C 0 km/h
2771 07-03-2008 02:32:03 4.8 C 3.89 g/m*3 4.8 C 0 km/h
2772 07-03-2008 02:44:03 4.8 C 3.96 g/m*3 4.8 C 0 km/h
2773 07-03-2008 02:56:03 4.8 C 3.96 g/m*3 4.8 C 0 km/h
2774 07-03-2008 03:08:03 4.8 C 3.96 g/m*3 4.8 C 0 km/h
2775 07-03-2008 03:20:04 4.8 C 4.02 g/m*3 4.8 C 0 km/h
Sensor: Nr:Datum:Temp:Abs-Feuchte:Windchill:Wind:
Aussen-T/F 2776 07-03-2008 03:32:04 4.8 C 4.02 g/m*3 4.8 C 0 km/h
2777 07-03-2008 03:44:04 4.8 C 4.02 g/m*3 4.8 C 0 km/h
2778 07-03-2008 03:56:04 4.8 C 4.02 g/m*3 4.8 C 0 km/h
2779 07-03-2008 04:08:04 4.8 C 4.02 g/m*3 4.8 C 0 km/h
2780 07-03-2008 04:20:04 4.8 C 4.09 g/m*3 4.8 C 0 km/h
2781 07-03-2008 04:32:04 4.8 C 4.16 g/m*3 4.8 C 0 km/h
2782 07-03-2008 04:44:04 4.7 C 4.2 g/m*3 4.7 C 0 km/h
2783 07-03-2008 04:56:04 4.5 C 4.27 g/m*3 4.5 C 0 km/h
2784 07-03-2008 05:08:04 4.4 C 4.44 g/m*3 4.4 C 0 km/h
2785 07-03-2008 05:20:04 4.3 C 4.61 g/m*3 4.3 C 0 km/h
2786 07-03-2008 05:32:04 4.2 C 4.7 g/m*3 4.2 C 0 km/h
2787 07-03-2008 05:44:04 4.3 C 4.74 g/m*3 4.3 C 0 km/h
2788 07-03-2008 05:56:04 4.4 C 4.77 g/m*3 4.4 C 0 km/h
2789 07-03-2008 06:08:04 4.2 C 4.77 g/m*3 4.2 C 0 km/h
2790 07-03-2008 06:20:04 3.9 C 4.74 g/m*3 3.9 C 0 km/h
2791 07-03-2008 06:32:04 3.7 C 4.8 g/m*3 3.7 C 0 km/h
2792 07-03-2008 06:44:04 3.4 C 4.76 g/m*3 3.4 C 0 km/h
2793 07-03-2008 06:56:04 3.4 C 4.83 g/m*3 3.4 C 0 km/h
2794 07-03-2008 07:08:03 3.3 C 4.79 g/m*3 3.3 C 0 km/h
2795 07-03-2008 07:20:03 3 C 4.7 g/m*3 3 C 0 km/h
2796 07-03-2008 07:32:02 2.9 C 4.78 g/m*3 2.9 C 0 km/h
2797 07-03-2008 07:44:02 2.7 C 4.72 g/m*3 2.7 C 0 km/h
2798 07-03-2008 07:56:01 2.8 C 4.87 g/m*3 2.8 C 0 km/h
2799 07-03-2008 08:08:02 3 C 4.88 g/m*3 3 C 0 km/h
2800 07-03-2008 08:20:02 3.2 C 5 g/m*3 3.2 C 0 km/h
Sensor: Nr:Datum:Temp:Abs-Feuchte:Windchill:Wind:
Aussen-T/F 2801 07-03-2008 08:32:01 3.7 C 5.23 g/m*3 3.7 C 0 km/h
2802 07-03-2008 08:44:01 4.4 C 5.42 g/m*3 4.4 C 0 km/h
2803 07-03-2008 08:56:01 5 C 5.5 g/m*3 5 C 0 km/h
2804 07-03-2008 09:08:02 5.4 C 5.3 g/m*3 5.4 C 0 km/h
2805 07-03-2008 09:20:02 5.8 C 5.23 g/m*3 5.8 C 0 km/h
2806 07-03-2008 09:32:02 6.2 C 5.07 g/m*3 6.2 C 0 km/h
2807 07-03-2008 09:44:02 6.3 C 4.89 g/m*3 6.3 C 0 km/h
2808 07-03-2008 09:56:02 6.4 C 4.84 g/m*3 6.4 C 0 km/h
2809 07-03-2008 10:08:02 6.9 C 5 g/m*3 6.9 C 0 km/h
2810 07-03-2008 10:20:02 7 C 4.8 g/m*3 7 C 0 km/h
2811 07-03-2008 10:32:02 7.4 C 4.93 g/m*3 7.4 C 0 km/h
2812 07-03-2008 10:44:02 7.4 C 4.77 g/m*3 7.4 C 0 km/h
2813 07-03-2008 10:56:02 7.6 C 4.83 g/m*3 7.6 C 0 km/h
2814 07-03-2008 11:08:02 7.8 C 4.9 g/m*3 7.8 C 0 km/h
2815 07-03-2008 11:20:01 7.7 C 4.78 g/m*3 7.7 C 0 km/h
2816 07-03-2008 11:32:01 7.9 C 4.85 g/m*3 7.9 C 0 km/h
2817 07-03-2008 11:44:01 8.1 C 4.83 g/m*3 8.1 C 0 km/h
2818 07-03-2008 11:56:01 8.4 C 4.84 g/m*3 8.4 C 0 km/h
2819 07-03-2008 12:08:02 8.5 C 4.78 g/m*3 8.5 C 0 km/h
2820 07-03-2008 12:20:02 8.4 C 4.75 g/m*3 8.4 C 0 km/h
2821 07-03-2008 12:32:01 8.3 C 4.72 g/m*3 8.3 C 0 km/h
2822 07-03-2008 12:44:01 8.5 C 4.78 g/m*3 8.5 C 0 km/h
2823 07-03-2008 12:56:01 8.6 C 4.81 g/m*3 8.6 C 0 km/h
2824 07-03-2008 13:08:02 8.8 C 4.79 g/m*3 8.8 C 0 km/h
2825 07-03-2008 13:20:02 9.6 C 4.76 g/m*3 9.6 C 0 km/h
Sensor: Nr:Datum:Temp:Abs-Feuchte:Windchill:Wind:
Aussen-T/F 2826 07-03-2008 13:32:02 10.5 C 4.75 g/m*3 10.5 C 0 km/h
2827 07-03-2008 13:44:02 10.5 C 4.56 g/m*3 10.5 C 0 km/h
2828 07-03-2008 13:56:02 10.5 C 4.56 g/m*3 10.5 C 0 km/h
2829 07-03-2008 14:08:02 10.7 C 4.62 g/m*3 10.7 C 0 km/h
2830 07-03-2008 14:20:02 10.7 C 4.52 g/m*3 10.7 C 0 km/h
2831 07-03-2008 14:32:02 11 C 4.6 g/m*3 11 C 0 km/h
2832 07-03-2008 14:44:02 10.9 C 4.48 g/m*3 10.9 C 0 km/h
2833 07-03-2008 14:56:01 10.8 C 4.55 g/m*3 10.8 C 0 km/h
2834 07-03-2008 15:08:01 11.6 C 4.68 g/m*3 11.6 C 0 km/h
2835 07-03-2008 15:20:02 11.8 C 4.74 g/m*3 11.8 C 0 km/h
2836 07-03-2008 15:32:01 11.1 C 4.53 g/m*3 11.1 C 0 km/h
2837 07-03-2008 15:44:01 10.6 C 4.59 g/m*3 10.6 C 0 km/h
2838 07-03-2008 15:56:02 10.3 C 4.6 g/m*3 10.3 C 0 km/h
2839 07-03-2008 16:08:02 10.1 C 4.73 g/m*3 10.1 C 0 km/h
2840 07-03-2008 16:20:02 9.9 C 4.76 g/m*3 9.9 C 0 km/h
2841 07-03-2008 16:32:03 9.8 C 4.82 g/m*3 9.8 C 0 km/h
2842 07-03-2008 16:44:03 9.5 C 4.73 g/m*3 9.5 C 0 km/h
2843 07-03-2008 16:56:03 9.2 C 4.73 g/m*3 9.2 C 0 km/h
2844 07-03-2008 17:08:02 9.3 C 4.85 g/m*3 9.3 C 0 km/h
2845 07-03-2008 17:20:02 9.4 C 4.88 g/m*3 9.4 C 0 km/h
2846 07-03-2008 17:32:03 9.5 C 4.92 g/m*3 9.5 C 0 km/h
2847 07-03-2008 17:44:04 9.4 C 4.97 g/m*3 9.4 C 0 km/h
2848 07-03-2008 17:56:02 9.3 C 5.03 g/m*3 9.3 C 0 km/h
2849 07-03-2008 18:08:01 9.2 C 5.09 g/m*3 9.2 C 0 km/h
2850 07-03-2008 18:20:01 9 C 5.11 g/m*3 9 C 0 km/h
Sensor: Nr:Datum:Temp:Abs-Feuchte:Windchill:Wind:
Aussen-T/F 2851 07-03-2008 18:32:01 8.8 C 5.22 g/m*3 8.8 C 0 km/h
2852 07-03-2008 18:44:01 8.6 C 5.24 g/m*3 8.6 C 0 km/h
2853 07-03-2008 18:56:02 8.5 C 5.21 g/m*3 8.5 C 0 km/h
2854 07-03-2008 19:08:01 8.4 C 5.17 g/m*3 8.4 C 0 km/h
2855 07-03-2008 19:20:02 8.4 C 5.09 g/m*3 8.4 C 0 km/h
2856 07-03-2008 19:32:02 8.4 C 5.01 g/m*3 8.4 C 0 km/h
2857 07-03-2008 19:44:02 8.4 C 4.67 g/m*3 8.4 C 0 km/h
2858 07-03-2008 19:56:02 8.2 C 4.77 g/m*3 8.2 C 0 km/h
2859 07-03-2008 20:08:02 7.9 C 4.93 g/m*3 7.9 C 0 km/h
2860 07-03-2008 20:20:03 7.7 C 5.11 g/m*3 7.7 C 0 km/h
2861 07-03-2008 20:32:02 7.7 C 5.19 g/m*3 7.7 C 0 km/h
2862 07-03-2008 20:44:03 7.7 C 5.11 g/m*3 7.7 C 0 km/h
2863 07-03-2008 20:56:02 7.6 C 5.08 g/m*3 7.6 C 0 km/h
2864 07-03-2008 21:08:02 7.6 C 5.08 g/m*3 7.6 C 0 km/h
2865 07-03-2008 21:20:02 7.5 C 5.04 g/m*3 7.5 C 0 km/h
2866 07-03-2008 21:32:02 7.5 C 4.96 g/m*3 7.5 C 0 km/h
2867 07-03-2008 21:44:02 7.5 C 4.96 g/m*3 7.5 C 0 km/h
2868 07-03-2008 21:56:02 7.4 C 4.93 g/m*3 7.4 C 0 km/h
2869 07-03-2008 22:09:02 7.4 C 5.01 g/m*3 7.4 C 0 km/h
2870 07-03-2008 22:21:02 7.4 C 5.01 g/m*3 7.4 C 0 km/h
2871 07-03-2008 22:33:03 7.3 C 4.9 g/m*3 7.3 C 0 km/h
2872 07-03-2008 22:45:03 7.2 C 4.95 g/m*3 7.2 C 0 km/h
2873 07-03-2008 22:57:03 7.1 C 4.99 g/m*3 7.1 C 0 km/h
2874 07-03-2008 23:09:03 7.1 C 4.99 g/m*3 7.1 C 0 km/h
2875 07-03-2008 23:21:03 7 C 4.96 g/m*3 7 C 0 km/h
Sensor: Nr:Datum:Temp:Abs-Feuchte:Windchill:Wind:
Aussen-T/F 2876 07-03-2008 23:33:03 7.1 C 4.91 g/m*3 7.1 C 0 km/h
2877 07-03-2008 23:45:03 7.1 C 4.84 g/m*3 7.1 C 0 km/h
2878 07-03-2008 23:57:03 7.1 C 4.84 g/m*3 7.1 C 0 km/h
2879 08-03-2008 00:09:03 7 C 4.8 g/m*3 7 C 0 km/h
2880 08-03-2008 00:21:03 7.1 C 4.84 g/m*3 7.1 C 0 km/h
2881 08-03-2008 00:33:03 7 C 4.88 g/m*3 7 C 0 km/h
2882 08-03-2008 00:45:03 6.9 C 5 g/m*3 6.9 C 0 km/h
2883 08-03-2008 00:57:03 6.8 C 5.05 g/m*3 6.8 C 0 km/h
2884 08-03-2008 01:09:03 6.7 C 5.17 g/m*3 6.7 C 0 km/h
2885 08-03-2008 01:21:03 6.7 C 5.24 g/m*3 6.7 C 0 km/h
2886 08-03-2008 01:33:03 6.7 C 5.24 g/m*3 6.7 C 0 km/h
2887 08-03-2008 01:45:03 6.7 C 5.24 g/m*3 6.7 C 0 km/h
2888 08-03-2008 01:57:03 6.7 C 5.17 g/m*3 6.7 C 0 km/h
2889 08-03-2008 02:09:03 6.7 C 5.17 g/m*3 6.7 C 0 km/h
2890 08-03-2008 02:21:04 6.7 C 5.24 g/m*3 6.7 C 0 km/h
2891 08-03-2008 02:33:04 6.4 C 5.29 g/m*3 6.4 C 0 km/h
2892 08-03-2008 02:45:04 6.2 C 5.44 g/m*3 6.2 C 0 km/h
2893 08-03-2008 02:57:04 6.1 C 5.48 g/m*3 6.1 C 0 km/h
2894 08-03-2008 03:09:04 6.1 C 5.55 g/m*3 6.1 C 0 km/h
2895 08-03-2008 03:21:04 6 C 5.59 g/m*3 6 C 0 km/h
2896 08-03-2008 03:33:04 5.9 C 5.7 g/m*3 5.9 C 0 km/h
2897 08-03-2008 03:45:04 5.9 C 5.77 g/m*3 5.9 C 0 km/h
2898 08-03-2008 03:57:04 5.9 C 5.77 g/m*3 5.9 C 0 km/h
2899 08-03-2008 04:09:04 5.9 C 5.77 g/m*3 5.9 C 0 km/h
2900 08-03-2008 04:21:04 5.8 C 5.73 g/m*3 5.8 C 0 km/h
Sensor: Nr:Datum:Temp:Abs-Feuchte:Windchill:Wind:
Aussen-T/F 2901 08-03-2008 04:33:04 5.7 C 5.76 g/m*3 5.7 C 0 km/h
2902 08-03-2008 04:45:04 5.7 C 5.84 g/m*3 5.7 C 0 km/h
2903 08-03-2008 04:57:04 5.7 C 5.76 g/m*3 5.7 C 0 km/h
2904 08-03-2008 05:09:04 5.7 C 5.76 g/m*3 5.7 C 0 km/h
2905 08-03-2008 05:21:04 5.5 C 5.69 g/m*3 5.5 C 0 km/h
2906 08-03-2008 05:33:04 5.3 C 5.61 g/m*3 5.3 C 0 km/h
2907 08-03-2008 05:45:04 5.2 C 5.65 g/m*3 5.2 C 0 km/h
2908 08-03-2008 05:57:04 4.9 C 5.54 g/m*3 4.9 C 0 km/h
2909 08-03-2008 06:09:04 4.6 C 5.43 g/m*3 4.6 C 0 km/h
2910 08-03-2008 06:21:05 4.4 C 5.35 g/m*3 4.4 C 0 km/h
2911 08-03-2008 06:33:05 4.2 C 5.28 g/m*3 4.2 C 0 km/h
2912 08-03-2008 06:45:05 4.2 C 5.35 g/m*3 4.2 C 0 km/h
2913 08-03-2008 06:57:05 3.9 C 5.31 g/m*3 3.9 C 0 km/h
2914 08-03-2008 07:09:05 4.2 C 5.41 g/m*3 4.2 C 0 km/h
2915 08-03-2008 07:21:05 4.1 C 5.44 g/m*3 4.1 C 0 km/h
2916 08-03-2008 07:33:05 4.1 C 5.5 g/m*3 4.1 C 0 km/h
2917 08-03-2008 07:45:05 4.1 C 5.5 g/m*3 4.1 C 0 km/h
2918 08-03-2008 07:57:05 4.4 C 5.68 g/m*3 4.4 C 0 km/h
2919 08-03-2008 08:09:05 4.4 C 5.62 g/m*3 4.4 C 0 km/h
2920 08-03-2008 08:21:05 4.3 C 5.58 g/m*3 4.3 C 0 km/h
2921 08-03-2008 08:33:05 4 C 5.4 g/m*3 4 C 0 km/h
2922 08-03-2008 08:45:05 4 C 5.53 g/m*3 4 C 0 km/h
2923 08-03-2008 08:57:05 4.1 C 5.63 g/m*3 4.1 C 0 km/h
2924 08-03-2008 09:09:05 4.4 C 5.75 g/m*3 4.4 C 0 km/h
2925 08-03-2008 09:21:05 4.5 C 5.72 g/m*3 4.5 C 0 km/h
Sensor: Nr:Datum:Temp:Abs-Feuchte:Windchill:Wind:
Aussen-T/F 2926 08-03-2008 09:33:05 4.8 C 5.77 g/m*3 4.8 C 0 km/h
2927 08-03-2008 09:45:02 5.2 C 5.58 g/m*3 5.2 C 0 km/h
2928 08-03-2008 09:57:02 5.6 C 5.37 g/m*3 5.6 C 0 km/h
2929 08-03-2008 10:09:02 6 C 4.94 g/m*3 6 C 0 km/h
2930 08-03-2008 10:21:02 6.4 C 4.62 g/m*3 6.4 C 0 km/h
2931 08-03-2008 10:33:02 6.8 C 4.13 g/m*3 6.8 C 0 km/h
2932 08-03-2008 10:45:01 6.9 C 4.16 g/m*3 6.9 C 0 km/h
2933 08-03-2008 10:57:01 7.3 C 3.87 g/m*3 7.3 C 0 km/h
2934 08-03-2008 11:09:02 7.4 C 3.9 g/m*3 7.4 C 0 km/h
2935 08-03-2008 11:21:01 7.6 C 3.63 g/m*3 7.6 C 0 km/h
2936 08-03-2008 11:33:01 8.1 C 3.33 g/m*3 8.1 C 0 km/h
2937 08-03-2008 11:45:02 8.2 C 3.18 g/m*3 8.2 C 0 km/h
2938 08-03-2008 11:57:02 8.6 C 3.27 g/m*3 8.6 C 0 km/h
2939 08-03-2008 12:09:03 8.8 C 3.22 g/m*3 8.8 C 0 km/h
2940 08-03-2008 12:21:02 9.1 C 3.28 g/m*3 9.1 C 0 km/h
2941 08-03-2008 12:33:02 9.1 C 3.37 g/m*3 9.1 C 0 km/h
2942 08-03-2008 12:45:01 9.4 C 3.35 g/m*3 9.4 C 0 km/h
2943 08-03-2008 12:57:01 9.7 C 3.41 g/m*3 9.7 C 0 km/h
2944 08-03-2008 13:09:01 10 C 3.29 g/m*3 10 C 0 km/h
2945 08-03-2008 13:21:01 10.3 C 3.26 g/m*3 10.3 C 0 km/h
2946 08-03-2008 13:33:01 10.9 C 3.08 g/m*3 10.9 C 0 km/h
2947 08-03-2008 13:45:02 11 C 3.1 g/m*3 11 C 0 km/h
2948 08-03-2008 13:57:02 11.2 C 3.14 g/m*3 11.2 C 0 km/h
2949 08-03-2008 14:09:02 11.3 C 3.26 g/m*3 11.3 C 0 km/h
2950 08-03-2008 14:21:02 11.1 C 3.22 g/m*3 11.1 C 0 km/h
Sensor: Nr:Datum:Temp:Abs-Feuchte:Windchill:Wind:
Aussen-T/F 2951 08-03-2008 14:33:01 11.1 C 3.22 g/m*3 11.1 C 0 km/h
2952 08-03-2008 14:45:01 10.6 C 3.42 g/m*3 10.6 C 0 km/h
2953 08-03-2008 14:57:01 10.3 C 3.35 g/m*3 10.3 C 0 km/h
2954 08-03-2008 15:09:02 10.7 C 3.44 g/m*3 10.7 C 0 km/h
2955 08-03-2008 15:21:01 11.2 C 3.34 g/m*3 11.2 C 0 km/h
2956 08-03-2008 15:33:01 10.8 C 3.46 g/m*3 10.8 C 0 km/h
2957 08-03-2008 15:45:01 11.2 C 3.45 g/m*3 11.2 C 0 km/h
2958 08-03-2008 15:57:01 11.3 C 3.37 g/m*3 11.3 C 0 km/h
2959 08-03-2008 16:09:01 10.9 C 3.18 g/m*3 10.9 C 0 km/h
2960 08-03-2008 16:21:02 10.6 C 3.22 g/m*3 10.6 C 0 km/h
2961 08-03-2008 16:33:01 10.4 C 3.28 g/m*3 10.4 C 0 km/h
2962 08-03-2008 16:45:02 10.4 C 3.28 g/m*3 10.4 C 0 km/h
2963 08-03-2008 16:57:02 10.1 C 3.31 g/m*3 10.1 C 0 km/h
2964 08-03-2008 17:09:01 9.9 C 3.36 g/m*3 9.9 C 0 km/h
2965 08-03-2008 17:21:02 9.7 C 3.23 g/m*3 9.7 C 0 km/h
2966 08-03-2008 17:33:02 9.7 C 3.23 g/m*3 9.7 C 0 km/h
2967 08-03-2008 17:45:02 9.6 C 3.21 g/m*3 9.6 C 0 km/h
2968 08-03-2008 17:57:02 9.5 C 3.28 g/m*3 9.5 C 0 km/h
2969 08-03-2008 18:09:02 8.9 C 3.5 g/m*3 8.9 C 0 km/h
2970 08-03-2008 18:21:02 8.3 C 3.54 g/m*3 8.3 C 0 km/h
2971 08-03-2008 18:33:02 7.6 C 3.71 g/m*3 7.6 C 0 km/h
2972 08-03-2008 18:45:01 7.5 C 3.6 g/m*3 7.5 C 0 km/h
2973 08-03-2008 18:57:01 7.4 C 3.5 g/m*3 7.4 C 0 km/h
2974 08-03-2008 19:09:02 7.3 C 3.48 g/m*3 7.3 C 0 km/h
2975 08-03-2008 19:21:02 7.1 C 3.43 g/m*3 7.1 C 0 km/h
Sensor: Nr:Datum:Temp:Abs-Feuchte:Windchill:Wind:
Aussen-T/F 2976 08-03-2008 19:33:01 6.9 C 3.46 g/m*3 6.9 C 0 km/h
2977 08-03-2008 19:45:02 6.8 C 3.44 g/m*3 6.8 C 0 km/h
2978 08-03-2008 19:57:02 6.7 C 3.57 g/m*3 6.7 C 0 km/h
2979 08-03-2008 20:09:02 6.2 C 3.6 g/m*3 6.2 C 0 km/h
2980 08-03-2008 20:21:02 6.1 C 3.65 g/m*3 6.1 C 0 km/h
2981 08-03-2008 20:33:01 6 C 3.63 g/m*3 6 C 0 km/h
2982 08-03-2008 20:45:02 6 C 3.63 g/m*3 6 C 0 km/h
2983 08-03-2008 20:57:02 5.8 C 3.72 g/m*3 5.8 C 0 km/h
2984 08-03-2008 21:09:02 5.5 C 3.79 g/m*3 5.5 C 0 km/h
2985 08-03-2008 21:21:02 5.6 C 3.68 g/m*3 5.6 C 0 km/h
2986 08-03-2008 21:33:02 5.4 C 3.7 g/m*3 5.4 C 0 km/h
2987 08-03-2008 21:45:03 5.4 C 3.7 g/m*3 5.4 C 0 km/h
2988 08-03-2008 21:57:03 5.2 C 3.79 g/m*3 5.2 C 0 km/h
2989 08-03-2008 22:09:02 5 C 3.74 g/m*3 5 C 0 km/h
2990 08-03-2008 22:21:02 4.8 C 3.76 g/m*3 4.8 C 0 km/h
2991 08-03-2008 22:34:03 4.6 C 3.77 g/m*3 4.6 C 0 km/h
2992 08-03-2008 22:46:03 4.5 C 3.81 g/m*3 4.5 C 0 km/h
2993 08-03-2008 22:58:03 4.5 C 3.88 g/m*3 4.5 C 0 km/h
2994 08-03-2008 23:10:03 4.5 C 3.88 g/m*3 4.5 C 0 km/h
2995 08-03-2008 23:22:04 4.5 C 3.94 g/m*3 4.5 C 0 km/h
2996 08-03-2008 23:34:04 4.3 C 3.96 g/m*3 4.3 C 0 km/h
2997 08-03-2008 23:46:04 4.4 C 4.05 g/m*3 4.4 C 0 km/h
2998 08-03-2008 23:58:04 4.5 C 4.14 g/m*3 4.5 C 0 km/h
2999 09-03-2008 00:10:04 4.4 C 4.11 g/m*3 4.4 C 0 km/h
3000 09-03-2008 00:22:04 4.4 C 4.11 g/m*3 4.4 C 0 km/h
Sensor: Nr:Datum:Temp:Abs-Feuchte:Windchill:Wind:
Aussen-T/F 3001 09-03-2008 00:34:04 4.1 C 4.1 g/m*3 4.1 C 0 km/h
3002 09-03-2008 00:46:04 4 C 4.13 g/m*3 4 C 0 km/h
3003 09-03-2008 00:58:04 3.8 C 4.2 g/m*3 3.8 C 0 km/h
3004 09-03-2008 01:10:04 4 C 4.26 g/m*3 4 C 0 km/h
3005 09-03-2008 01:22:04 4.1 C 4.29 g/m*3 4.1 C 0 km/h
3006 09-03-2008 01:34:04 4.2 C 4.38 g/m*3 4.2 C 0 km/h
3007 09-03-2008 01:46:04 4.2 C 4.32 g/m*3 4.2 C 0 km/h
3008 09-03-2008 01:58:04 4 C 4.32 g/m*3 4 C 0 km/h
3009 09-03-2008 02:10:04 4.1 C 4.48 g/m*3 4.1 C 0 km/h
3010 09-03-2008 02:22:04 4.6 C 4.7 g/m*3 4.6 C 0 km/h
3011 09-03-2008 02:34:04 4.8 C 4.69 g/m*3 4.8 C 0 km/h
3012 09-03-2008 02:46:04 5 C 4.69 g/m*3 5 C 0 km/h
3013 09-03-2008 02:58:04 5.3 C 4.57 g/m*3 5.3 C 0 km/h
3014 09-03-2008 03:10:05 5.5 C 4.49 g/m*3 5.5 C 0 km/h
3015 09-03-2008 03:22:05 5.7 C 4.48 g/m*3 5.7 C 0 km/h
3016 09-03-2008 03:34:05 5.7 C 4.41 g/m*3 5.7 C 0 km/h
3017 09-03-2008 03:46:05 5.8 C 4.37 g/m*3 5.8 C 0 km/h
3018 09-03-2008 03:58:05 5.9 C 4.25 g/m*3 5.9 C 0 km/h
3019 09-03-2008 04:10:05 5.9 C 4.25 g/m*3 5.9 C 0 km/h
3020 09-03-2008 04:22:05 5.9 C 4.25 g/m*3 5.9 C 0 km/h
3021 09-03-2008 04:34:05 5.8 C 4.3 g/m*3 5.8 C 0 km/h
3022 09-03-2008 04:46:05 5.8 C 4.3 g/m*3 5.8 C 0 km/h
3023 09-03-2008 04:58:05 5.8 C 4.3 g/m*3 5.8 C 0 km/h
3024 09-03-2008 05:10:05 5.7 C 4.27 g/m*3 5.7 C 0 km/h
3025 09-03-2008 05:22:05 5.5 C 4.21 g/m*3 5.5 C 0 km/h
Sensor: Nr:Datum:Temp:Abs-Feuchte:Windchill:Wind:
Aussen-T/F 3026 09-03-2008 05:34:05 5.4 C 4.19 g/m*3 5.4 C 0 km/h
3027 09-03-2008 05:46:05 5.3 C 4.23 g/m*3 5.3 C 0 km/h
3028 09-03-2008 05:58:05 5.2 C 4.27 g/m*3 5.2 C 0 km/h
3029 09-03-2008 06:10:05 5.2 C 4.27 g/m*3 5.2 C 0 km/h
3030 09-03-2008 06:22:05 5.2 C 4.34 g/m*3 5.2 C 0 km/h
3031 09-03-2008 06:34:05 5.2 C 4.34 g/m*3 5.2 C 0 km/h
3032 09-03-2008 06:46:05 5.4 C 4.33 g/m*3 5.4 C 0 km/h
3033 09-03-2008 06:58:05 5.5 C 4.28 g/m*3 5.5 C 0 km/h
3034 09-03-2008 07:10:06 5.6 C 4.31 g/m*3 5.6 C 0 km/h
3035 09-03-2008 07:22:06 5.8 C 4.3 g/m*3 5.8 C 0 km/h
3036 09-03-2008 07:34:06 6 C 4.21 g/m*3 6 C 0 km/h
3037 09-03-2008 07:46:06 6.1 C 4.24 g/m*3 6.1 C 0 km/h
3038 09-03-2008 07:58:06 6.2 C 4.19 g/m*3 6.2 C 0 km/h
3039 09-03-2008 08:10:06 6.5 C 4.27 g/m*3 6.5 C 0 km/h
3040 09-03-2008 08:22:06 6.7 C 4.26 g/m*3 6.7 C 0 km/h
3041 09-03-2008 08:34:06 6.8 C 4.21 g/m*3 6.8 C 0 km/h
3042 09-03-2008 08:46:01 7 C 4.18 g/m*3 7 C 0 km/h
3043 09-03-2008 08:58:01 7.2 C 4.16 g/m*3 7.2 C 0 km/h
3044 09-03-2008 09:10:02 7.7 C 4.14 g/m*3 7.7 C 0 km/h
3045 09-03-2008 09:22:02 8 C 4.05 g/m*3 8 C 0 km/h
3046 09-03-2008 09:34:01 7.9 C 4.11 g/m*3 7.9 C 0 km/h
3047 09-03-2008 09:46:03 7.8 C 4.08 g/m*3 7.8 C 0 km/h
3048 09-03-2008 09:58:03 8 C 4.05 g/m*3 8 C 0 km/h
3049 09-03-2008 10:10:02 8.1 C 3.99 g/m*3 8.1 C 0 km/h
3050 09-03-2008 10:22:02 8.4 C 4.07 g/m*3 8.4 C 0 km/h
Sensor: Nr:Datum:Temp:Abs-Feuchte:Windchill:Wind:
Aussen-T/F 3051 09-03-2008 10:34:02 9 C 4.06 g/m*3 9 C 0 km/h
3052 09-03-2008 10:46:02 9.3 C 3.95 g/m*3 9.3 C 0 km/h
3053 09-03-2008 10:58:02 10.1 C 3.97 g/m*3 10.1 C 0 km/h
3054 09-03-2008 11:10:03 10 C 3.85 g/m*3 10 C 0 km/h
3055 09-03-2008 11:22:02 9.9 C 3.92 g/m*3 9.9 C 0 km/h
3056 09-03-2008 11:34:02 10.1 C 3.97 g/m*3 10.1 C 0 km/h
3057 09-03-2008 11:46:02 10 C 3.95 g/m*3 10 C 0 km/h
3058 09-03-2008 11:58:02 9.9 C 4.01 g/m*3 9.9 C 0 km/h
3059 09-03-2008 12:10:02 10 C 3.95 g/m*3 10 C 0 km/h
3060 09-03-2008 12:22:03 9.8 C 3.99 g/m*3 9.8 C 0 km/h
3061 09-03-2008 12:34:02 9.8 C 3.99 g/m*3 9.8 C 0 km/h
3062 09-03-2008 12:46:02 9.9 C 4.01 g/m*3 9.9 C 0 km/h
3063 09-03-2008 12:58:02 9.8 C 3.99 g/m*3 9.8 C 0 km/h
3064 09-03-2008 13:10:01 10.3 C 3.93 g/m*3 10.3 C 0 km/h
3065 09-03-2008 13:22:02 10.1 C 3.88 g/m*3 10.1 C 0 km/h
3066 09-03-2008 13:34:02 10.1 C 3.88 g/m*3 10.1 C 0 km/h
3067 09-03-2008 13:46:02 10.1 C 3.88 g/m*3 10.1 C 0 km/h
3068 09-03-2008 13:58:02 10 C 3.85 g/m*3 10 C 0 km/h
3069 09-03-2008 14:10:02 10 C 3.85 g/m*3 10 C 0 km/h
3070 09-03-2008 14:22:02 10.2 C 3.9 g/m*3 10.2 C 0 km/h
3071 09-03-2008 14:34:02 10.5 C 3.98 g/m*3 10.5 C 0 km/h
3072 09-03-2008 14:46:02 10.6 C 3.81 g/m*3 10.6 C 0 km/h
3073 09-03-2008 14:58:02 10.9 C 3.68 g/m*3 10.9 C 0 km/h
3074 09-03-2008 15:10:01 11.2 C 3.55 g/m*3 11.2 C 0 km/h
3075 09-03-2008 15:22:01 11.2 C 3.55 g/m*3 11.2 C 0 km/h
Sensor: Nr:Datum:Temp:Abs-Feuchte:Windchill:Wind:
Aussen-T/F 3076 09-03-2008 15:34:02 11.3 C 3.47 g/m*3 11.3 C 0 km/h
3077 09-03-2008 15:46:03 11.4 C 3.49 g/m*3 11.4 C 0 km/h
3078 09-03-2008 15:58:03 11.1 C 3.32 g/m*3 11.1 C 0 km/h
3079 09-03-2008 16:10:03 10.8 C 3.46 g/m*3 10.8 C 0 km/h
3080 09-03-2008 16:22:02 10.9 C 3.48 g/m*3 10.9 C 0 km/h
3081 09-03-2008 16:34:02 10.8 C 3.46 g/m*3 10.8 C 0 km/h
3082 09-03-2008 16:46:02 10.6 C 3.42 g/m*3 10.6 C 0 km/h
3083 09-03-2008 16:58:03 10.5 C 3.49 g/m*3 10.5 C 0 km/h
3084 09-03-2008 17:10:01 10.4 C 3.57 g/m*3 10.4 C 0 km/h
3085 09-03-2008 17:22:02 10.3 C 3.54 g/m*3 10.3 C 0 km/h
3086 09-03-2008 17:34:02 10.2 C 3.52 g/m*3 10.2 C 0 km/h
3087 09-03-2008 17:46:02 10.1 C 3.69 g/m*3 10.1 C 0 km/h
3088 09-03-2008 17:58:02 10 C 3.57 g/m*3 10 C 0 km/h
3089 09-03-2008 18:10:02 10 C 3.57 g/m*3 10 C 0 km/h
3090 09-03-2008 18:22:02 10 C 3.57 g/m*3 10 C 0 km/h
3091 09-03-2008 18:34:02 9.8 C 3.62 g/m*3 9.8 C 0 km/h
3092 09-03-2008 18:46:02 9.6 C 3.66 g/m*3 9.6 C 0 km/h
3093 09-03-2008 18:58:02 9.4 C 3.62 g/m*3 9.4 C 0 km/h
3094 09-03-2008 19:10:02 9.3 C 3.59 g/m*3 9.3 C 0 km/h
3095 09-03-2008 19:22:02 9.4 C 3.71 g/m*3 9.4 C 0 km/h
3096 09-03-2008 19:34:02 9.1 C 3.73 g/m*3 9.1 C 0 km/h
3097 09-03-2008 19:46:02 9.1 C 3.73 g/m*3 9.1 C 0 km/h
3098 09-03-2008 19:58:02 9.1 C 3.73 g/m*3 9.1 C 0 km/h
3099 09-03-2008 20:10:02 9.1 C 3.82 g/m*3 9.1 C 0 km/h
3100 09-03-2008 20:22:02 9.1 C 3.73 g/m*3 9.1 C 0 km/h
Sensor: Nr:Datum:Temp:Abs-Feuchte:Windchill:Wind:
Aussen-T/F 3101 09-03-2008 20:34:02 9.1 C 3.73 g/m*3 9.1 C 0 km/h
3102 09-03-2008 20:46:02 9.1 C 3.73 g/m*3 9.1 C 0 km/h
3103 09-03-2008 20:58:02 9.2 C 3.66 g/m*3 9.2 C 0 km/h
3104 09-03-2008 21:10:02 9.3 C 3.77 g/m*3 9.3 C 0 km/h
3105 09-03-2008 21:22:02 9.4 C 3.71 g/m*3 9.4 C 0 km/h
3106 09-03-2008 21:34:02 9.7 C 3.78 g/m*3 9.7 C 0 km/h
3107 09-03-2008 21:46:02 9.7 C 3.78 g/m*3 9.7 C 0 km/h
3108 09-03-2008 21:58:02 9.6 C 3.94 g/m*3 9.6 C 0 km/h
3109 09-03-2008 22:10:03 9.6 C 4.12 g/m*3 9.6 C 0 km/h
3110 09-03-2008 22:23:02 9.5 C 4.19 g/m*3 9.5 C 0 km/h
3111 09-03-2008 22:35:02 9.5 C 4.19 g/m*3 9.5 C 0 km/h
3112 09-03-2008 22:47:02 9.5 C 4.28 g/m*3 9.5 C 0 km/h
3113 09-03-2008 22:59:02 9.3 C 4.31 g/m*3 9.3 C 0 km/h
3114 09-03-2008 23:11:02 9.1 C 4.26 g/m*3 9.1 C 0 km/h
3115 09-03-2008 23:23:02 9.1 C 4.44 g/m*3 9.1 C 0 km/h
3116 09-03-2008 23:35:02 9.1 C 4.44 g/m*3 9.1 C 0 km/h
3117 09-03-2008 23:47:02 8.9 C 4.47 g/m*3 8.9 C 0 km/h
3118 09-03-2008 23:59:02 8.9 C 4.47 g/m*3 8.9 C 0 km/h
3119 10-03-2008 00:11:03 8.7 C 4.41 g/m*3 8.7 C 0 km/h
3120 10-03-2008 00:23:03 8.6 C 4.38 g/m*3 8.6 C 0 km/h
3121 10-03-2008 00:35:03 8.2 C 4.27 g/m*3 8.2 C 0 km/h
3122 10-03-2008 00:47:03 7.9 C 4.35 g/m*3 7.9 C 0 km/h
3123 10-03-2008 00:59:03 7.9 C 4.35 g/m*3 7.9 C 0 km/h
3124 10-03-2008 01:11:03 7.5 C 4.32 g/m*3 7.5 C 0 km/h
3125 10-03-2008 01:23:03 7.3 C 4.42 g/m*3 7.3 C 0 km/h
Sensor: Nr:Datum:Temp:Abs-Feuchte:Windchill:Wind:
Aussen-T/F 3126 10-03-2008 01:35:03 7.3 C 4.42 g/m*3 7.3 C 0 km/h
3127 10-03-2008 01:47:03 7.6 C 4.51 g/m*3 7.6 C 0 km/h
3128 10-03-2008 01:59:03 7.8 C 4.49 g/m*3 7.8 C 0 km/h
3129 10-03-2008 02:11:03 7.8 C 4.49 g/m*3 7.8 C 0 km/h
3130 10-03-2008 02:23:03 7.9 C 4.44 g/m*3 7.9 C 0 km/h
3131 10-03-2008 02:35:03 8 C 4.38 g/m*3 8 C 0 km/h
3132 10-03-2008 02:47:03 8 C 4.3 g/m*3 8 C 0 km/h
3133 10-03-2008 02:59:03 7.7 C 4.62 g/m*3 7.7 C 0 km/h
3134 10-03-2008 03:11:03 7.2 C 4.87 g/m*3 7.2 C 0 km/h
3135 10-03-2008 03:23:03 7.1 C 4.91 g/m*3 7.1 C 0 km/h
3136 10-03-2008 03:35:03 7.1 C 4.91 g/m*3 7.1 C 0 km/h
3137 10-03-2008 03:47:03 7.5 C 4.88 g/m*3 7.5 C 0 km/h
3138 10-03-2008 03:59:03 7.7 C 4.62 g/m*3 7.7 C 0 km/h
3139 10-03-2008 04:11:04 7.8 C 4.57 g/m*3 7.8 C 0 km/h
3140 10-03-2008 04:23:04 7.6 C 4.51 g/m*3 7.6 C 0 km/h
3141 10-03-2008 04:35:04 7.4 C 4.53 g/m*3 7.4 C 0 km/h
3142 10-03-2008 04:47:04 7.2 C 4.4 g/m*3 7.2 C 0 km/h
3143 10-03-2008 04:59:04 7.1 C 4.29 g/m*3 7.1 C 0 km/h
3144 10-03-2008 05:11:04 6.8 C 4.36 g/m*3 6.8 C 0 km/h
3145 10-03-2008 05:23:04 6.6 C 4.23 g/m*3 6.6 C 0 km/h
3146 10-03-2008 05:35:04 6.7 C 4.26 g/m*3 6.7 C 0 km/h
3147 10-03-2008 05:47:04 7.1 C 4.21 g/m*3 7.1 C 0 km/h
3148 10-03-2008 05:59:04 7.5 C 4.16 g/m*3 7.5 C 0 km/h
3149 10-03-2008 06:11:04 7.5 C 4.08 g/m*3 7.5 C 0 km/h
3150 10-03-2008 06:23:04 7.4 C 4.06 g/m*3 7.4 C 0 km/h
Sensor: Nr:Datum:Temp:Abs-Feuchte:Windchill:Wind:
Aussen-T/F 3151 10-03-2008 06:35:04 7.2 C 4.08 g/m*3 7.2 C 0 km/h
3152 10-03-2008 06:47:04 7.1 C 4.21 g/m*3 7.1 C 0 km/h
3153 10-03-2008 06:59:04 6.3 C 4.59 g/m*3 6.3 C 0 km/h
3154 10-03-2008 07:11:02 5.9 C 4.76 g/m*3 5.9 C 0 km/h
3155 10-03-2008 07:23:02 5.7 C 4.77 g/m*3 5.7 C 0 km/h
3156 10-03-2008 07:35:02 5.8 C 4.87 g/m*3 5.8 C 0 km/h
3157 10-03-2008 07:47:01 6 C 4.79 g/m*3 6 C 0 km/h
3158 10-03-2008 07:59:01 6.2 C 4.78 g/m*3 6.2 C 0 km/h
3159 10-03-2008 08:11:01 6.7 C 4.71 g/m*3 6.7 C 0 km/h
3160 10-03-2008 08:23:02 7.1 C 4.68 g/m*3 7.1 C 0 km/h
3161 10-03-2008 08:35:01 7.4 C 4.61 g/m*3 7.4 C 0 km/h
3162 10-03-2008 08:47:01 7.5 C 4 g/m*3 7.5 C 0 km/h
3163 10-03-2008 08:59:01 7.5 C 4 g/m*3 7.5 C 0 km/h
3164 10-03-2008 09:11:01 7.7 C 4.05 g/m*3 7.7 C 0 km/h
3165 10-03-2008 09:23:02 8.1 C 3.99 g/m*3 8.1 C 0 km/h
3166 10-03-2008 09:35:01 8.5 C 4.1 g/m*3 8.5 C 0 km/h
3167 10-03-2008 09:47:01 9.1 C 3.99 g/m*3 9.1 C 0 km/h
3168 10-03-2008 09:59:01 9.3 C 3.68 g/m*3 9.3 C 0 km/h
3169 10-03-2008 10:11:01 9.5 C 3.64 g/m*3 9.5 C 0 km/h
3170 10-03-2008 10:23:02 9.6 C 3.57 g/m*3 9.6 C 0 km/h
3171 10-03-2008 10:35:01 9.6 C 3.57 g/m*3 9.6 C 0 km/h
3172 10-03-2008 10:47:02 9.7 C 3.5 g/m*3 9.7 C 0 km/h
3173 10-03-2008 10:59:02 10 C 3.29 g/m*3 10 C 0 km/h
3174 10-03-2008 11:11:01 10 C 3.1 g/m*3 10 C 0 km/h
3175 10-03-2008 11:23:02 9.9 C 3.08 g/m*3 9.9 C 0 km/h
Sensor: Nr:Datum:Temp:Abs-Feuchte:Windchill:Wind:
Aussen-T/F 3176 10-03-2008 11:35:02 10.1 C 3.03 g/m*3 10.1 C 0 km/h
3177 10-03-2008 11:47:02 10.4 C 2.99 g/m*3 10.4 C 0 km/h
3178 10-03-2008 11:59:02 10.5 C 3.01 g/m*3 10.5 C 0 km/h
3179 10-03-2008 12:11:02 10.9 C 3.18 g/m*3 10.9 C 0 km/h
3180 10-03-2008 12:23:02 10.8 C 3.06 g/m*3 10.8 C 0 km/h
3181 10-03-2008 12:35:02 10.8 C 2.97 g/m*3 10.8 C 0 km/h
3182 10-03-2008 12:47:02 10.9 C 2.98 g/m*3 10.9 C 0 km/h
3183 10-03-2008 12:59:02 11.4 C 3.08 g/m*3 11.4 C 0 km/h
3184 10-03-2008 13:11:02 11.8 C 2.95 g/m*3 11.8 C 0 km/h
3185 10-03-2008 13:23:02 11.8 C 2.95 g/m*3 11.8 C 0 km/h
3186 10-03-2008 13:35:02 12 C 2.77 g/m*3 12 C 0 km/h
3187 10-03-2008 13:47:01 12 C 2.66 g/m*3 12 C 0 km/h
3188 10-03-2008 13:59:01 11.9 C 2.75 g/m*3 11.9 C 0 km/h
3189 10-03-2008 14:11:01 11.6 C 2.81 g/m*3 11.6 C 0 km/h
3190 10-03-2008 14:23:02 11.3 C 3.26 g/m*3 11.3 C 0 km/h
3191 10-03-2008 14:35:01 10.7 C 3.83 g/m*3 10.7 C 0 km/h
3192 10-03-2008 14:47:01 11 C 3.5 g/m*3 11 C 0 km/h
3193 10-03-2008 14:59:01 10.7 C 3.44 g/m*3 10.7 C 0 km/h
3194 10-03-2008 15:11:01 10.8 C 3.56 g/m*3 10.8 C 0 km/h
3195 10-03-2008 15:23:02 10.7 C 3.44 g/m*3 10.7 C 0 km/h
3196 10-03-2008 15:35:01 10.8 C 3.06 g/m*3 10.8 C 0 km/h
3197 10-03-2008 15:47:02 11.1 C 2.62 g/m*3 11.1 C 0 km/h
3198 10-03-2008 15:59:02 10.5 C 3.01 g/m*3 10.5 C 0 km/h
3199 10-03-2008 16:11:01 10.2 C 3.33 g/m*3 10.2 C 0 km/h
3200 10-03-2008 16:23:02 9.7 C 3.69 g/m*3 9.7 C 0 km/h
Sensor: Nr:Datum:Temp:Abs-Feuchte:Windchill:Wind:
Aussen-T/F 3201 10-03-2008 16:35:01 8.5 C 4.27 g/m*3 8.5 C 0 km/h
3202 10-03-2008 16:47:01 7.6 C 4.75 g/m*3 7.6 C 0 km/h
3203 10-03-2008 16:59:01 7.1 C 4.99 g/m*3 7.1 C 0 km/h
3204 10-03-2008 17:11:02 6.7 C 5.24 g/m*3 6.7 C 0 km/h
3205 10-03-2008 17:23:02 6.6 C 5.44 g/m*3 6.6 C 0 km/h
3206 10-03-2008 17:35:01 6.3 C 5.33 g/m*3 6.3 C 0 km/h
3207 10-03-2008 17:47:02 6.1 C 5.33 g/m*3 6.1 C 0 km/h
3208 10-03-2008 17:59:02 6 C 5.52 g/m*3 6 C 0 km/h
3209 10-03-2008 18:11:02 5.9 C 5.62 g/m*3 5.9 C 0 km/h
3210 10-03-2008 18:23:01 5.9 C 5.7 g/m*3 5.9 C 0 km/h
3211 10-03-2008 18:35:01 5.8 C 5.66 g/m*3 5.8 C 0 km/h
3212 10-03-2008 18:47:02 5.8 C 5.73 g/m*3 5.8 C 0 km/h
3213 10-03-2008 18:59:02 5.8 C 5.8 g/m*3 5.8 C 0 km/h
3214 10-03-2008 19:11:03 6.2 C 5.74 g/m*3 6.2 C 0 km/h
3215 10-03-2008 19:23:02 6.5 C 5.62 g/m*3 6.5 C 0 km/h
3216 10-03-2008 19:35:02 7 C 5.42 g/m*3 7 C 0 km/h
3217 10-03-2008 19:47:01 7 C 5.27 g/m*3 7 C 0 km/h
3218 10-03-2008 19:59:01 7 C 5.04 g/m*3 7 C 0 km/h
3219 10-03-2008 20:11:01 7.2 C 4.87 g/m*3 7.2 C 0 km/h
3220 10-03-2008 20:23:02 7.4 C 4.77 g/m*3 7.4 C 0 km/h
3221 10-03-2008 20:35:01 7.4 C 4.61 g/m*3 7.4 C 0 km/h
3222 10-03-2008 20:47:02 7.4 C 4.61 g/m*3 7.4 C 0 km/h
3223 10-03-2008 20:59:02 7.5 C 4.56 g/m*3 7.5 C 0 km/h
3224 10-03-2008 21:11:02 7.6 C 4.51 g/m*3 7.6 C 0 km/h
3225 10-03-2008 21:23:01 7.7 C 4.54 g/m*3 7.7 C 0 km/h
Sensor: Nr:Datum:Temp:Abs-Feuchte:Windchill:Wind:
Aussen-T/F 3226 10-03-2008 21:35:02 7.8 C 4.41 g/m*3 7.8 C 0 km/h
3227 10-03-2008 21:47:02 7.8 C 4.49 g/m*3 7.8 C 0 km/h
3228 10-03-2008 21:59:02 8 C 4.22 g/m*3 8 C 0 km/h
3229 10-03-2008 22:12:03 8 C 4.13 g/m*3 8 C 0 km/h
3230 10-03-2008 22:24:03 8 C 4.13 g/m*3 8 C 0 km/h
3231 10-03-2008 22:36:03 8 C 4.05 g/m*3 8 C 0 km/h
3232 10-03-2008 22:48:03 8 C 4.05 g/m*3 8 C 0 km/h
3233 10-03-2008 23:00:03 8 C 4.05 g/m*3 8 C 0 km/h
3234 10-03-2008 23:12:03 8 C 4.13 g/m*3 8 C 0 km/h
3235 10-03-2008 23:24:03 8.1 C 4.16 g/m*3 8.1 C 0 km/h
3236 10-03-2008 23:36:03 8.1 C 4.16 g/m*3 8.1 C 0 km/h
3237 10-03-2008 23:48:03 8.2 C 4.19 g/m*3 8.2 C 0 km/h
3238 11-03-2008 00:00:03 8.1 C 4.16 g/m*3 8.1 C 0 km/h
3239 11-03-2008 00:12:03 8.1 C 4.24 g/m*3 8.1 C 0 km/h
3240 11-03-2008 00:24:03 8 C